source: josm/trunk/test/data/regress/14275/1485101437.8189685.gpx @ 11486

Last change on this file since 11486 was 11486, checked in by Don-vip, 3 years ago

fix #14275 - robustness against invalid timestamps in GPX files

File size: 155.3 KB
Line 
1<?xml version="1.0" encoding="UTF-8"?>   
2<gpx version="1.1" xmlns="http://www.topografix.com/GPX/1/1"
3xmlns:xsi="http://www.w3.org/2001/XMLSchema-instance"
4xsi:schemaLocation="http://www.topografix.com/GPX/1/1 http://www.topografix.com/GPX/1/1/gpx.xsd">
5<trk>        
6<trkseg>
7<trkpt lat="48.468693" lon="18.882594">
8<ele>765</ele>
9<time>2017-01-22T11:11:59+0100</time>
10</trkpt>
11<trkpt lat="48.468693" lon="18.882594"><ele>765</ele><time>2017-01-22T11:12:01+0100</time></trkpt>
12<trkpt lat="48.468693" lon="18.882594"><ele>765</ele><time>2017-01-22T11:12:03+0100</time></trkpt>
13<trkpt lat="48.468693" lon="18.882594"><ele>765</ele><time>2017-01-22T11:12:05+0100</time></trkpt>
14<trkpt lat="48.468693" lon="18.882594"><ele>765</ele><time>2017-01-22T11:12:07+0100</time></trkpt>
15<trkpt lat="48.468578" lon="18.882560"><ele>774</ele><time>2017-01-22T11:14:06+0100</time></trkpt>
16<trkpt lat="48.468492" lon="18.882614"><ele>781</ele><time>2017-01-22T11:14:16+0100</time></trkpt>
17<trkpt lat="48.468387" lon="18.882667"><ele>783</ele><time>2017-01-22T11:14:25+0100</time></trkpt>
18<trkpt lat="48.468278" lon="18.882731"><ele>787</ele><time>2017-01-22T11:14:31+0100</time></trkpt>
19<trkpt lat="48.468168" lon="18.882779"><ele>788</ele><time>2017-01-22T11:14:35+0100</time></trkpt>
20<trkpt lat="48.468054" lon="18.882819"><ele>789</ele><time>2017-01-22T11:14:41+0100</time></trkpt>
21<trkpt lat="48.467949" lon="18.882865"><ele>790</ele><time>2017-01-22T11:14:48+0100</time></trkpt>
22<trkpt lat="48.467833" lon="18.882899"><ele>790</ele><time>2017-01-22T11:14:56+0100</time></trkpt>
23<trkpt lat="48.467732" lon="18.882928"><ele>791</ele><time>2017-01-22T11:15:04+0100</time></trkpt>
24<trkpt lat="48.467639" lon="18.882940"><ele>794</ele><time>2017-01-22T11:15:13+0100</time></trkpt>
25<trkpt lat="48.467540" lon="18.882918"><ele>794</ele><time>2017-01-22T11:15:21+0100</time></trkpt>
26<trkpt lat="48.467441" lon="18.882888"><ele>796</ele><time>2017-01-22T11:15:32+0100</time></trkpt>
27<trkpt lat="48.467344" lon="18.882858"><ele>797</ele><time>2017-01-22T11:15:42+0100</time></trkpt>
28<trkpt lat="48.467248" lon="18.882799"><ele>800</ele><time>2017-01-22T11:16:03+0100</time></trkpt>
29<trkpt lat="48.467236" lon="18.882647"><ele>801</ele><time>2017-01-22T11:16:09+0100</time></trkpt>
30<trkpt lat="48.467238" lon="18.882487"><ele>801</ele><time>2017-01-22T11:16:16+0100</time></trkpt>
31<trkpt lat="48.467249" lon="18.882338"><ele>802</ele><time>2017-01-22T11:16:22+0100</time></trkpt>
32<trkpt lat="48.467265" lon="18.882185"><ele>801</ele><time>2017-01-22T11:16:30+0100</time></trkpt>
33<trkpt lat="48.467289" lon="18.882023"><ele>806</ele><time>2017-01-22T11:16:39+0100</time></trkpt>
34<trkpt lat="48.467297" lon="18.881886"><ele>809</ele><time>2017-01-22T11:16:47+0100</time></trkpt>
35<trkpt lat="48.467287" lon="18.881739"><ele>806</ele><time>2017-01-22T11:16:55+0100</time></trkpt>
36<trkpt lat="48.467247" lon="18.881576"><ele>808</ele><time>2017-01-22T11:17:04+0100</time></trkpt>
37<trkpt lat="48.467225" lon="18.881424"><ele>808</ele><time>2017-01-22T11:17:10+0100</time></trkpt>
38<trkpt lat="48.467212" lon="18.881269"><ele>811</ele><time>2017-01-22T11:17:16+0100</time></trkpt>
39<trkpt lat="48.467202" lon="18.881108"><ele>811</ele><time>2017-01-22T11:17:22+0100</time></trkpt>
40<trkpt lat="48.467191" lon="18.880951"><ele>809</ele><time>2017-01-22T11:17:29+0100</time></trkpt>
41<trkpt lat="48.467183" lon="18.880777"><ele>812</ele><time>2017-01-22T11:17:35+0100</time></trkpt>
42<trkpt lat="48.467184" lon="18.880595"><ele>812</ele><time>2017-01-22T11:17:41+0100</time></trkpt>
43<trkpt lat="48.467183" lon="18.880432"><ele>814</ele><time>2017-01-22T11:17:48+0100</time></trkpt>
44<trkpt lat="48.467188" lon="18.880287"><ele>815</ele><time>2017-01-22T11:17:58+0100</time></trkpt>
45<trkpt lat="48.467198" lon="18.880127"><ele>817</ele><time>2017-01-22T11:18:07+0100</time></trkpt>
46<trkpt lat="48.467182" lon="18.879973"><ele>817</ele><time>2017-01-22T11:18:23+0100</time></trkpt>
47<trkpt lat="48.467204" lon="18.879801"><ele>818</ele><time>2017-01-22T11:18:30+0100</time></trkpt>
48<trkpt lat="48.467228" lon="18.879655"><ele>816</ele><time>2017-01-22T11:18:36+0100</time></trkpt>
49<trkpt lat="48.467249" lon="18.879444"><ele>819</ele><time>2017-01-22T11:19:05+0100</time></trkpt>
50<trkpt lat="48.467247" lon="18.879277"><ele>820</ele><time>2017-01-22T11:19:12+0100</time></trkpt>
51<trkpt lat="48.467283" lon="18.879109"><ele>821</ele><time>2017-01-22T11:19:18+0100</time></trkpt>
52<trkpt lat="48.467315" lon="18.878947"><ele>821</ele><time>2017-01-22T11:19:26+0100</time></trkpt>
53<trkpt lat="48.467336" lon="18.878798"><ele>827</ele><time>2017-01-22T11:19:35+0100</time></trkpt>
54<trkpt lat="48.467372" lon="18.878655"><ele>825</ele><time>2017-01-22T11:19:43+0100</time></trkpt>
55<trkpt lat="48.467416" lon="18.878522"><ele>826</ele><time>2017-01-22T11:19:52+0100</time></trkpt>
56<trkpt lat="48.467465" lon="18.878386"><ele>829</ele><time>2017-01-22T11:20:02+0100</time></trkpt>
57<trkpt lat="48.467490" lon="18.878249"><ele>826</ele><time>2017-01-22T11:20:14+0100</time></trkpt>
58<trkpt lat="48.467481" lon="18.878109"><ele>829</ele><time>2017-01-22T11:20:23+0100</time></trkpt>
59<trkpt lat="48.467543" lon="18.878000"><ele>835</ele><time>2017-01-22T11:20:35+0100</time></trkpt>
60<trkpt lat="48.467544" lon="18.877844"><ele>834</ele><time>2017-01-22T11:20:46+0100</time></trkpt>
61<trkpt lat="48.467541" lon="18.877682"><ele>834</ele><time>2017-01-22T11:20:52+0100</time></trkpt>
62<trkpt lat="48.467521" lon="18.877487"><ele>839</ele><time>2017-01-22T11:21:15+0100</time></trkpt>
63<trkpt lat="48.467486" lon="18.877334"><ele>837</ele><time>2017-01-22T11:21:23+0100</time></trkpt>
64<trkpt lat="48.467451" lon="18.877194"><ele>839</ele><time>2017-01-22T11:21:31+0100</time></trkpt>
65<trkpt lat="48.467472" lon="18.877054"><ele>843</ele><time>2017-01-22T11:21:40+0100</time></trkpt>
66<trkpt lat="48.467440" lon="18.876904"><ele>834</ele><time>2017-01-22T11:21:46+0100</time></trkpt>
67<trkpt lat="48.467409" lon="18.876749"><ele>830</ele><time>2017-01-22T11:21:52+0100</time></trkpt>
68<trkpt lat="48.467373" lon="18.876611"><ele>833</ele><time>2017-01-22T11:22:01+0100</time></trkpt>
69<trkpt lat="48.467340" lon="18.876482"><ele>837</ele><time>2017-01-22T11:22:07+0100</time></trkpt>
70<trkpt lat="48.467256" lon="18.876401"><ele>839</ele><time>2017-01-22T11:22:17+0100</time></trkpt>
71<trkpt lat="48.467115" lon="18.876393"><ele>835</ele><time>2017-01-22T11:22:32+0100</time></trkpt>
72<trkpt lat="48.467003" lon="18.876460"><ele>834</ele><time>2017-01-22T11:22:36+0100</time></trkpt>
73<trkpt lat="48.466907" lon="18.876576"><ele>832</ele><time>2017-01-22T11:22:40+0100</time></trkpt>
74<trkpt lat="48.466824" lon="18.876678"><ele>833</ele><time>2017-01-22T11:22:46+0100</time></trkpt>
75<trkpt lat="48.466787" lon="18.876841"><ele>838</ele><time>2017-01-22T11:22:51+0100</time></trkpt>
76<trkpt lat="48.466728" lon="18.876988"><ele>840</ele><time>2017-01-22T11:22:57+0100</time></trkpt>
77<trkpt lat="48.466630" lon="18.877064"><ele>840</ele><time>2017-01-22T11:23:03+0100</time></trkpt>
78<trkpt lat="48.466524" lon="18.877154"><ele>843</ele><time>2017-01-22T11:23:09+0100</time></trkpt>
79<trkpt lat="48.466420" lon="18.877205"><ele>841</ele><time>2017-01-22T11:23:15+0100</time></trkpt>
80<trkpt lat="48.466322" lon="18.877256"><ele>843</ele><time>2017-01-22T11:23:24+0100</time></trkpt>
81<trkpt lat="48.466227" lon="18.877300"><ele>848</ele><time>2017-01-22T11:23:34+0100</time></trkpt>
82<trkpt lat="48.466120" lon="18.877293"><ele>850</ele><time>2017-01-22T11:23:45+0100</time></trkpt>
83<trkpt lat="48.466019" lon="18.877284"><ele>853</ele><time>2017-01-22T11:23:55+0100</time></trkpt>
84<trkpt lat="48.465937" lon="18.877206"><ele>857</ele><time>2017-01-22T11:24:03+0100</time></trkpt>
85<trkpt lat="48.465871" lon="18.877088"><ele>856</ele><time>2017-01-22T11:24:14+0100</time></trkpt>
86<trkpt lat="48.465818" lon="18.876956"><ele>854</ele><time>2017-01-22T11:24:20+0100</time></trkpt>
87<trkpt lat="48.465785" lon="18.876825"><ele>856</ele><time>2017-01-22T11:24:30+0100</time></trkpt>
88<trkpt lat="48.465738" lon="18.876691"><ele>859</ele><time>2017-01-22T11:24:41+0100</time></trkpt>
89<trkpt lat="48.465697" lon="18.876558"><ele>861</ele><time>2017-01-22T11:24:51+0100</time></trkpt>
90<trkpt lat="48.465660" lon="18.876424"><ele>863</ele><time>2017-01-22T11:25:01+0100</time></trkpt>
91<trkpt lat="48.465639" lon="18.876272"><ele>863</ele><time>2017-01-22T11:25:12+0100</time></trkpt>
92<trkpt lat="48.465575" lon="18.876174"><ele>862</ele><time>2017-01-22T11:25:20+0100</time></trkpt>
93<trkpt lat="48.465505" lon="18.876073"><ele>863</ele><time>2017-01-22T11:25:29+0100</time></trkpt>
94<trkpt lat="48.465497" lon="18.875928"><ele>864</ele><time>2017-01-22T11:25:43+0100</time></trkpt>
95<trkpt lat="48.465529" lon="18.875781"><ele>865</ele><time>2017-01-22T11:25:54+0100</time></trkpt>
96<trkpt lat="48.465536" lon="18.875617"><ele>863</ele><time>2017-01-22T11:26:02+0100</time></trkpt>
97<trkpt lat="48.465510" lon="18.875479"><ele>863</ele><time>2017-01-22T11:26:13+0100</time></trkpt>
98<trkpt lat="48.465511" lon="18.875328"><ele>862</ele><time>2017-01-22T11:26:19+0100</time></trkpt>
99<trkpt lat="48.465504" lon="18.875183"><ele>861</ele><time>2017-01-22T11:26:25+0100</time></trkpt>
100<trkpt lat="48.465500" lon="18.875007"><ele>859</ele><time>2017-01-22T11:26:34+0100</time></trkpt>
101<trkpt lat="48.465489" lon="18.874852"><ele>862</ele><time>2017-01-22T11:26:42+0100</time></trkpt>
102<trkpt lat="48.465477" lon="18.874701"><ele>862</ele><time>2017-01-22T11:26:52+0100</time></trkpt>
103<trkpt lat="48.465427" lon="18.874570"><ele>863</ele><time>2017-01-22T11:27:01+0100</time></trkpt>
104<trkpt lat="48.465415" lon="18.874431"><ele>867</ele><time>2017-01-22T11:27:09+0100</time></trkpt>
105<trkpt lat="48.465386" lon="18.874285"><ele>868</ele><time>2017-01-22T11:27:20+0100</time></trkpt>
106<trkpt lat="48.465352" lon="18.874149"><ele>863</ele><time>2017-01-22T11:27:30+0100</time></trkpt>
107<trkpt lat="48.465274" lon="18.874053"><ele>870</ele><time>2017-01-22T11:27:43+0100</time></trkpt>
108<trkpt lat="48.465196" lon="18.873955"><ele>874</ele><time>2017-01-22T11:27:53+0100</time></trkpt>
109<trkpt lat="48.465116" lon="18.873890"><ele>880</ele><time>2017-01-22T11:28:01+0100</time></trkpt>
110<trkpt lat="48.465042" lon="18.873801"><ele>882</ele><time>2017-01-22T11:28:12+0100</time></trkpt>
111<trkpt lat="48.464957" lon="18.873723"><ele>882</ele><time>2017-01-22T11:28:22+0100</time></trkpt>
112<trkpt lat="48.464871" lon="18.873675"><ele>883</ele><time>2017-01-22T11:28:31+0100</time></trkpt>
113<trkpt lat="48.464777" lon="18.873677"><ele>885</ele><time>2017-01-22T11:28:41+0100</time></trkpt>
114<trkpt lat="48.464671" lon="18.873694"><ele>879</ele><time>2017-01-22T11:28:52+0100</time></trkpt>
115<trkpt lat="48.464574" lon="18.873716"><ele>876</ele><time>2017-01-22T11:29:00+0100</time></trkpt>
116<trkpt lat="48.464486" lon="18.873763"><ele>878</ele><time>2017-01-22T11:29:13+0100</time></trkpt>
117<trkpt lat="48.464405" lon="18.873848"><ele>878</ele><time>2017-01-22T11:29:19+0100</time></trkpt>
118<trkpt lat="48.464311" lon="18.873891"><ele>877</ele><time>2017-01-22T11:29:29+0100</time></trkpt>
119<trkpt lat="48.464221" lon="18.873880"><ele>884</ele><time>2017-01-22T11:29:40+0100</time></trkpt>
120<trkpt lat="48.464134" lon="18.873820"><ele>888</ele><time>2017-01-22T11:29:50+0100</time></trkpt>
121<trkpt lat="48.464021" lon="18.873815"><ele>887</ele><time>2017-01-22T11:30:03+0100</time></trkpt>
122<trkpt lat="48.463903" lon="18.873798"><ele>891</ele><time>2017-01-22T11:30:07+0100</time></trkpt>
123<trkpt lat="48.463787" lon="18.873779"><ele>889</ele><time>2017-01-22T11:30:13+0100</time></trkpt>
124<trkpt lat="48.463669" lon="18.873726"><ele>890</ele><time>2017-01-22T11:30:19+0100</time></trkpt>
125<trkpt lat="48.463587" lon="18.873646"><ele>891</ele><time>2017-01-22T11:30:26+0100</time></trkpt>
126<trkpt lat="48.463501" lon="18.873543"><ele>886</ele><time>2017-01-22T11:30:32+0100</time></trkpt>
127<trkpt lat="48.463438" lon="18.873418"><ele>891</ele><time>2017-01-22T11:30:38+0100</time></trkpt>
128<trkpt lat="48.463368" lon="18.873298"><ele>894</ele><time>2017-01-22T11:30:46+0100</time></trkpt>
129<trkpt lat="48.463307" lon="18.873190"><ele>893</ele><time>2017-01-22T11:30:55+0100</time></trkpt>
130<trkpt lat="48.463238" lon="18.873083"><ele>894</ele><time>2017-01-22T11:31:01+0100</time></trkpt>
131<trkpt lat="48.463146" lon="18.872991"><ele>895</ele><time>2017-01-22T11:31:11+0100</time></trkpt>
132<trkpt lat="48.463056" lon="18.872921"><ele>896</ele><time>2017-01-22T11:31:22+0100</time></trkpt>
133<trkpt lat="48.462972" lon="18.872844"><ele>896</ele><time>2017-01-22T11:31:28+0100</time></trkpt>
134<trkpt lat="48.462873" lon="18.872794"><ele>897</ele><time>2017-01-22T11:31:39+0100</time></trkpt>
135<trkpt lat="48.462787" lon="18.872752"><ele>895</ele><time>2017-01-22T11:31:47+0100</time></trkpt>
136<trkpt lat="48.462702" lon="18.872702"><ele>894</ele><time>2017-01-22T11:32:02+0100</time></trkpt>
137<trkpt lat="48.462602" lon="18.872681"><ele>892</ele><time>2017-01-22T11:32:14+0100</time></trkpt>
138<trkpt lat="48.462506" lon="18.872659"><ele>893</ele><time>2017-01-22T11:32:18+0100</time></trkpt>
139<trkpt lat="48.462406" lon="18.872637"><ele>892</ele><time>2017-01-22T11:32:22+0100</time></trkpt>
140<trkpt lat="48.462311" lon="18.872617"><ele>891</ele><time>2017-01-22T11:32:27+0100</time></trkpt>
141<trkpt lat="48.462187" lon="18.872588"><ele>891</ele><time>2017-01-22T11:32:31+0100</time></trkpt>
142<trkpt lat="48.462081" lon="18.872577"><ele>888</ele><time>2017-01-22T11:32:35+0100</time></trkpt>
143<trkpt lat="48.461938" lon="18.872564"><ele>890</ele><time>2017-01-22T11:32:39+0100</time></trkpt>
144<trkpt lat="48.461790" lon="18.872554"><ele>891</ele><time>2017-01-22T11:32:43+0100</time></trkpt>
145<trkpt lat="48.461657" lon="18.872563"><ele>888</ele><time>2017-01-22T11:32:48+0100</time></trkpt>
146<trkpt lat="48.461540" lon="18.872569"><ele>887</ele><time>2017-01-22T11:32:52+0100</time></trkpt>
147<trkpt lat="48.461447" lon="18.872567"><ele>887</ele><time>2017-01-22T11:32:58+0100</time></trkpt>
148<trkpt lat="48.461332" lon="18.872551"><ele>889</ele><time>2017-01-22T11:33:04+0100</time></trkpt>
149<trkpt lat="48.461240" lon="18.872505"><ele>887</ele><time>2017-01-22T11:33:09+0100</time></trkpt>
150<trkpt lat="48.461155" lon="18.872416"><ele>891</ele><time>2017-01-22T11:33:15+0100</time></trkpt>
151<trkpt lat="48.461039" lon="18.872346"><ele>892</ele><time>2017-01-22T11:33:21+0100</time></trkpt>
152<trkpt lat="48.460915" lon="18.872323"><ele>890</ele><time>2017-01-22T11:33:27+0100</time></trkpt>
153<trkpt lat="48.460824" lon="18.872333"><ele>888</ele><time>2017-01-22T11:33:31+0100</time></trkpt>
154<trkpt lat="48.460711" lon="18.872374"><ele>886</ele><time>2017-01-22T11:33:36+0100</time></trkpt>
155<trkpt lat="48.460628" lon="18.872459"><ele>887</ele><time>2017-01-22T11:33:38+0100</time></trkpt>
156<trkpt lat="48.460528" lon="18.872566"><ele>889</ele><time>2017-01-22T11:33:42+0100</time></trkpt>
157<trkpt lat="48.460445" lon="18.872659"><ele>888</ele><time>2017-01-22T11:33:46+0100</time></trkpt>
158<trkpt lat="48.460338" lon="18.872709"><ele>889</ele><time>2017-01-22T11:33:50+0100</time></trkpt>
159<trkpt lat="48.460221" lon="18.872784"><ele>885</ele><time>2017-01-22T11:33:55+0100</time></trkpt>
160<trkpt lat="48.460087" lon="18.872855"><ele>885</ele><time>2017-01-22T11:33:59+0100</time></trkpt>
161<trkpt lat="48.459969" lon="18.872924"><ele>882</ele><time>2017-01-22T11:34:03+0100</time></trkpt>
162<trkpt lat="48.459858" lon="18.872986"><ele>880</ele><time>2017-01-22T11:34:07+0100</time></trkpt>
163<trkpt lat="48.459757" lon="18.873019"><ele>885</ele><time>2017-01-22T11:34:11+0100</time></trkpt>
164<trkpt lat="48.459621" lon="18.873080"><ele>878</ele><time>2017-01-22T11:34:16+0100</time></trkpt>
165<trkpt lat="48.459482" lon="18.873198"><ele>876</ele><time>2017-01-22T11:34:18+0100</time></trkpt>
166<trkpt lat="48.459420" lon="18.873356"><ele>876</ele><time>2017-01-22T11:34:22+0100</time></trkpt>
167<trkpt lat="48.459420" lon="18.873552"><ele>873</ele><time>2017-01-22T11:34:24+0100</time></trkpt>
168<trkpt lat="48.459372" lon="18.873753"><ele>872</ele><time>2017-01-22T11:34:28+0100</time></trkpt>
169<trkpt lat="48.459304" lon="18.873866"><ele>870</ele><time>2017-01-22T11:34:32+0100</time></trkpt>
170<trkpt lat="48.459239" lon="18.874030"><ele>871</ele><time>2017-01-22T11:34:36+0100</time></trkpt>
171<trkpt lat="48.459210" lon="18.874197"><ele>875</ele><time>2017-01-22T11:34:42+0100</time></trkpt>
172<trkpt lat="48.459138" lon="18.874298"><ele>879</ele><time>2017-01-22T11:34:47+0100</time></trkpt>
173<trkpt lat="48.458981" lon="18.874473"><ele>875</ele><time>2017-01-22T11:34:51+0100</time></trkpt>
174<trkpt lat="48.458876" lon="18.874569"><ele>874</ele><time>2017-01-22T11:34:55+0100</time></trkpt>
175<trkpt lat="48.458756" lon="18.874606"><ele>873</ele><time>2017-01-22T11:34:59+0100</time></trkpt>
176<trkpt lat="48.458614" lon="18.874655"><ele>873</ele><time>2017-01-22T11:35:03+0100</time></trkpt>
177<trkpt lat="48.458443" lon="18.874694"><ele>873</ele><time>2017-01-22T11:35:07+0100</time></trkpt>
178<trkpt lat="48.458288" lon="18.874743"><ele>874</ele><time>2017-01-22T11:35:12+0100</time></trkpt>
179<trkpt lat="48.458169" lon="18.874726"><ele>881</ele><time>2017-01-22T11:35:16+0100</time></trkpt>
180<trkpt lat="48.458035" lon="18.874643"><ele>881</ele><time>2017-01-22T11:35:20+0100</time></trkpt>
181<trkpt lat="48.457912" lon="18.874554"><ele>881</ele><time>2017-01-22T11:35:22+0100</time></trkpt>
182<trkpt lat="48.457821" lon="18.874487"><ele>882</ele><time>2017-01-22T11:35:25+0100</time></trkpt>
183<trkpt lat="48.457738" lon="18.874424"><ele>882</ele><time>2017-01-22T11:35:27+0100</time></trkpt>
184<trkpt lat="48.457583" lon="18.874320"><ele>881</ele><time>2017-01-22T11:35:31+0100</time></trkpt>
185<trkpt lat="48.457435" lon="18.874208"><ele>884</ele><time>2017-01-22T11:35:35+0100</time></trkpt>
186<trkpt lat="48.457334" lon="18.874103"><ele>880</ele><time>2017-01-22T11:35:39+0100</time></trkpt>
187<trkpt lat="48.457237" lon="18.873978"><ele>880</ele><time>2017-01-22T11:35:46+0100</time></trkpt>
188<trkpt lat="48.457154" lon="18.873833"><ele>882</ele><time>2017-01-22T11:35:52+0100</time></trkpt>
189<trkpt lat="48.457081" lon="18.873706"><ele>877</ele><time>2017-01-22T11:35:58+0100</time></trkpt>
190<trkpt lat="48.457001" lon="18.873602"><ele>879</ele><time>2017-01-22T11:36:07+0100</time></trkpt>
191<trkpt lat="48.456947" lon="18.873469"><ele>880</ele><time>2017-01-22T11:36:13+0100</time></trkpt>
192<trkpt lat="48.456876" lon="18.873343"><ele>881</ele><time>2017-01-22T11:36:21+0100</time></trkpt>
193<trkpt lat="48.456817" lon="18.873238"><ele>884</ele><time>2017-01-22T11:36:32+0100</time></trkpt>
194<trkpt lat="48.456734" lon="18.873116"><ele>885</ele><time>2017-01-22T11:36:38+0100</time></trkpt>
195<trkpt lat="48.456687" lon="18.872939"><ele>885</ele><time>2017-01-22T11:36:44+0100</time></trkpt>
196<trkpt lat="48.456612" lon="18.872732"><ele>879</ele><time>2017-01-22T11:36:49+0100</time></trkpt>
197<trkpt lat="48.456553" lon="18.872626"><ele>879</ele><time>2017-01-22T11:36:51+0100</time></trkpt>
198<trkpt lat="48.456482" lon="18.872453"><ele>876</ele><time>2017-01-22T11:36:55+0100</time></trkpt>
199<trkpt lat="48.456373" lon="18.872352"><ele>866</ele><time>2017-01-22T11:36:59+0100</time></trkpt>
200<trkpt lat="48.456215" lon="18.872378"><ele>863</ele><time>2017-01-22T11:37:03+0100</time></trkpt>
201<trkpt lat="48.456087" lon="18.872389"><ele>864</ele><time>2017-01-22T11:37:07+0100</time></trkpt>
202<trkpt lat="48.456004" lon="18.872332"><ele>868</ele><time>2017-01-22T11:37:14+0100</time></trkpt>
203<trkpt lat="48.455997" lon="18.872190"><ele>871</ele><time>2017-01-22T11:37:20+0100</time></trkpt>
204<trkpt lat="48.456009" lon="18.872039"><ele>879</ele><time>2017-01-22T11:37:24+0100</time></trkpt>
205<trkpt lat="48.455954" lon="18.871888"><ele>880</ele><time>2017-01-22T11:37:28+0100</time></trkpt>
206<trkpt lat="48.455830" lon="18.871695"><ele>879</ele><time>2017-01-22T11:37:33+0100</time></trkpt>
207<trkpt lat="48.455690" lon="18.871508"><ele>879</ele><time>2017-01-22T11:37:37+0100</time></trkpt>
208<trkpt lat="48.455633" lon="18.871402"><ele>879</ele><time>2017-01-22T11:37:39+0100</time></trkpt>
209<trkpt lat="48.455582" lon="18.871212"><ele>882</ele><time>2017-01-22T11:37:43+0100</time></trkpt>
210<trkpt lat="48.455560" lon="18.871000"><ele>882</ele><time>2017-01-22T11:37:47+0100</time></trkpt>
211<trkpt lat="48.455470" lon="18.870863"><ele>879</ele><time>2017-01-22T11:37:51+0100</time></trkpt>
212<trkpt lat="48.455361" lon="18.870757"><ele>873</ele><time>2017-01-22T11:37:55+0100</time></trkpt>
213<trkpt lat="48.455211" lon="18.870721"><ele>868</ele><time>2017-01-22T11:38:00+0100</time></trkpt>
214<trkpt lat="48.455062" lon="18.870721"><ele>863</ele><time>2017-01-22T11:38:04+0100</time></trkpt>
215<trkpt lat="48.454936" lon="18.870713"><ele>862</ele><time>2017-01-22T11:38:08+0100</time></trkpt>
216<trkpt lat="48.454840" lon="18.870700"><ele>860</ele><time>2017-01-22T11:38:10+0100</time></trkpt>
217<trkpt lat="48.454740" lon="18.870671"><ele>860</ele><time>2017-01-22T11:38:16+0100</time></trkpt>
218<trkpt lat="48.454644" lon="18.870596"><ele>864</ele><time>2017-01-22T11:38:22+0100</time></trkpt>
219<trkpt lat="48.454557" lon="18.870515"><ele>864</ele><time>2017-01-22T11:38:29+0100</time></trkpt>
220<trkpt lat="48.454456" lon="18.870466"><ele>863</ele><time>2017-01-22T11:38:33+0100</time></trkpt>
221<trkpt lat="48.454346" lon="18.870410"><ele>862</ele><time>2017-01-22T11:38:39+0100</time></trkpt>
222<trkpt lat="48.454246" lon="18.870371"><ele>864</ele><time>2017-01-22T11:38:46+0100</time></trkpt>
223<trkpt lat="48.454152" lon="18.870305"><ele>867</ele><time>2017-01-22T11:38:52+0100</time></trkpt>
224<trkpt lat="48.454067" lon="18.870242"><ele>864</ele><time>2017-01-22T11:38:58+0100</time></trkpt>
225<trkpt lat="48.453975" lon="18.870205"><ele>858</ele><time>2017-01-22T11:39:07+0100</time></trkpt>
226<trkpt lat="48.453818" lon="18.870062"><ele>863</ele><time>2017-01-22T11:39:13+0100</time></trkpt>
227<trkpt lat="48.453749" lon="18.869940"><ele>861</ele><time>2017-01-22T11:39:19+0100</time></trkpt>
228<trkpt lat="48.453683" lon="18.869831"><ele>864</ele><time>2017-01-22T11:39:23+0100</time></trkpt>
229<trkpt lat="48.453622" lon="18.869719"><ele>863</ele><time>2017-01-22T11:39:28+0100</time></trkpt>
230<trkpt lat="48.453516" lon="18.869535"><ele>867</ele><time>2017-01-22T11:39:32+0100</time></trkpt>
231<trkpt lat="48.453455" lon="18.869421"><ele>873</ele><time>2017-01-22T11:39:38+0100</time></trkpt>
232<trkpt lat="48.453360" lon="18.869289"><ele>868</ele><time>2017-01-22T11:39:44+0100</time></trkpt>
233<trkpt lat="48.453273" lon="18.869175"><ele>867</ele><time>2017-01-22T11:39:51+0100</time></trkpt>
234<trkpt lat="48.453196" lon="18.869064"><ele>870</ele><time>2017-01-22T11:39:55+0100</time></trkpt>
235<trkpt lat="48.453131" lon="18.868961"><ele>869</ele><time>2017-01-22T11:39:59+0100</time></trkpt>
236<trkpt lat="48.453043" lon="18.868854"><ele>871</ele><time>2017-01-22T11:40:03+0100</time></trkpt>
237<trkpt lat="48.452936" lon="18.868758"><ele>866</ele><time>2017-01-22T11:40:10+0100</time></trkpt>
238<trkpt lat="48.452841" lon="18.868619"><ele>868</ele><time>2017-01-22T11:40:12+0100</time></trkpt>
239<trkpt lat="48.452769" lon="18.868440"><ele>868</ele><time>2017-01-22T11:40:16+0100</time></trkpt>
240<trkpt lat="48.452730" lon="18.868288"><ele>867</ele><time>2017-01-22T11:40:20+0100</time></trkpt>
241<trkpt lat="48.452643" lon="18.868163"><ele>865</ele><time>2017-01-22T11:40:24+0100</time></trkpt>
242<trkpt lat="48.452564" lon="18.868043"><ele>868</ele><time>2017-01-22T11:40:28+0100</time></trkpt>
243<trkpt lat="48.452478" lon="18.867919"><ele>866</ele><time>2017-01-22T11:40:33+0100</time></trkpt>
244<trkpt lat="48.452417" lon="18.867790"><ele>861</ele><time>2017-01-22T11:40:37+0100</time></trkpt>
245<trkpt lat="48.452363" lon="18.867637"><ele>862</ele><time>2017-01-22T11:40:41+0100</time></trkpt>
246<trkpt lat="48.452308" lon="18.867486"><ele>863</ele><time>2017-01-22T11:40:45+0100</time></trkpt>
247<trkpt lat="48.452238" lon="18.867347"><ele>860</ele><time>2017-01-22T11:40:49+0100</time></trkpt>
248<trkpt lat="48.452110" lon="18.867230"><ele>857</ele><time>2017-01-22T11:40:54+0100</time></trkpt>
249<trkpt lat="48.452000" lon="18.867208"><ele>853</ele><time>2017-01-22T11:40:58+0100</time></trkpt>
250<trkpt lat="48.451880" lon="18.867219"><ele>853</ele><time>2017-01-22T11:41:02+0100</time></trkpt>
251<trkpt lat="48.451770" lon="18.867241"><ele>850</ele><time>2017-01-22T11:41:06+0100</time></trkpt>
252<trkpt lat="48.451674" lon="18.867289"><ele>850</ele><time>2017-01-22T11:41:10+0100</time></trkpt>
253<trkpt lat="48.451561" lon="18.867329"><ele>850</ele><time>2017-01-22T11:41:16+0100</time></trkpt>
254<trkpt lat="48.451459" lon="18.867391"><ele>849</ele><time>2017-01-22T11:41:23+0100</time></trkpt>
255<trkpt lat="48.451353" lon="18.867340"><ele>851</ele><time>2017-01-22T11:41:27+0100</time></trkpt>
256<trkpt lat="48.451258" lon="18.867275"><ele>850</ele><time>2017-01-22T11:41:33+0100</time></trkpt>
257<trkpt lat="48.451182" lon="18.867162"><ele>849</ele><time>2017-01-22T11:41:39+0100</time></trkpt>
258<trkpt lat="48.451131" lon="18.866994"><ele>852</ele><time>2017-01-22T11:41:43+0100</time></trkpt>
259<trkpt lat="48.451048" lon="18.866818"><ele>856</ele><time>2017-01-22T11:41:48+0100</time></trkpt>
260<trkpt lat="48.450971" lon="18.866664"><ele>855</ele><time>2017-01-22T11:41:52+0100</time></trkpt>
261<trkpt lat="48.450884" lon="18.866462"><ele>852</ele><time>2017-01-22T11:41:56+0100</time></trkpt>
262<trkpt lat="48.450788" lon="18.866288"><ele>852</ele><time>2017-01-22T11:42:00+0100</time></trkpt>
263<trkpt lat="48.450598" lon="18.866158"><ele>844</ele><time>2017-01-22T11:42:04+0100</time></trkpt>
264<trkpt lat="48.450504" lon="18.866131"><ele>839</ele><time>2017-01-22T11:42:07+0100</time></trkpt>
265<trkpt lat="48.450371" lon="18.866107"><ele>836</ele><time>2017-01-22T11:42:11+0100</time></trkpt>
266<trkpt lat="48.450239" lon="18.866065"><ele>835</ele><time>2017-01-22T11:42:15+0100</time></trkpt>
267<trkpt lat="48.450153" lon="18.866011"><ele>838</ele><time>2017-01-22T11:42:19+0100</time></trkpt>
268<trkpt lat="48.450046" lon="18.865965"><ele>837</ele><time>2017-01-22T11:42:23+0100</time></trkpt>
269<trkpt lat="48.449930" lon="18.865904"><ele>840</ele><time>2017-01-22T11:42:30+0100</time></trkpt>
270<trkpt lat="48.449827" lon="18.865859"><ele>839</ele><time>2017-01-22T11:42:36+0100</time></trkpt>
271<trkpt lat="48.449723" lon="18.865868"><ele>836</ele><time>2017-01-22T11:42:42+0100</time></trkpt>
272<trkpt lat="48.449598" lon="18.865894"><ele>832</ele><time>2017-01-22T11:42:49+0100</time></trkpt>
273<trkpt lat="48.449430" lon="18.865914"><ele>830</ele><time>2017-01-22T11:42:53+0100</time></trkpt>
274<trkpt lat="48.449323" lon="18.865928"><ele>828</ele><time>2017-01-22T11:42:57+0100</time></trkpt>
275<trkpt lat="48.449223" lon="18.865946"><ele>827</ele><time>2017-01-22T11:43:01+0100</time></trkpt>
276<trkpt lat="48.449115" lon="18.865990"><ele>826</ele><time>2017-01-22T11:43:10+0100</time></trkpt>
277<trkpt lat="48.449011" lon="18.865978"><ele>831</ele><time>2017-01-22T11:43:16+0100</time></trkpt>
278<trkpt lat="48.448917" lon="18.865948"><ele>834</ele><time>2017-01-22T11:43:24+0100</time></trkpt>
279<trkpt lat="48.448821" lon="18.865936"><ele>837</ele><time>2017-01-22T11:43:31+0100</time></trkpt>
280<trkpt lat="48.448670" lon="18.865938"><ele>835</ele><time>2017-01-22T11:43:35+0100</time></trkpt>
281<trkpt lat="48.448544" lon="18.865977"><ele>835</ele><time>2017-01-22T11:43:39+0100</time></trkpt>
282<trkpt lat="48.448419" lon="18.865963"><ele>833</ele><time>2017-01-22T11:43:43+0100</time></trkpt>
283<trkpt lat="48.448267" lon="18.865963"><ele>831</ele><time>2017-01-22T11:43:47+0100</time></trkpt>
284<trkpt lat="48.448161" lon="18.865953"><ele>833</ele><time>2017-01-22T11:43:52+0100</time></trkpt>
285<trkpt lat="48.448107" lon="18.865813"><ele>834</ele><time>2017-01-22T11:44:00+0100</time></trkpt>
286<trkpt lat="48.448042" lon="18.865710"><ele>835</ele><time>2017-01-22T11:44:06+0100</time></trkpt>
287<trkpt lat="48.447988" lon="18.865540"><ele>836</ele><time>2017-01-22T11:44:10+0100</time></trkpt>
288<trkpt lat="48.447920" lon="18.865422"><ele>834</ele><time>2017-01-22T11:44:17+0100</time></trkpt>
289<trkpt lat="48.447822" lon="18.865327"><ele>844</ele><time>2017-01-22T11:45:17+0100</time></trkpt>
290<trkpt lat="48.447704" lon="18.865273"><ele>846</ele><time>2017-01-22T11:45:24+0100</time></trkpt>
291<trkpt lat="48.447609" lon="18.865190"><ele>845</ele><time>2017-01-22T11:45:32+0100</time></trkpt>
292<trkpt lat="48.447506" lon="18.865176"><ele>844</ele><time>2017-01-22T11:45:36+0100</time></trkpt>
293<trkpt lat="48.447363" lon="18.865178"><ele>841</ele><time>2017-01-22T11:45:40+0100</time></trkpt>
294<trkpt lat="48.447255" lon="18.865147"><ele>839</ele><time>2017-01-22T11:45:47+0100</time></trkpt>
295<trkpt lat="48.447150" lon="18.865133"><ele>838</ele><time>2017-01-22T11:45:53+0100</time></trkpt>
296<trkpt lat="48.447045" lon="18.865087"><ele>837</ele><time>2017-01-22T11:46:01+0100</time></trkpt>
297<trkpt lat="48.446948" lon="18.865032"><ele>839</ele><time>2017-01-22T11:46:06+0100</time></trkpt>
298<trkpt lat="48.446851" lon="18.865000"><ele>840</ele><time>2017-01-22T11:46:12+0100</time></trkpt>
299<trkpt lat="48.446747" lon="18.864974"><ele>840</ele><time>2017-01-22T11:46:20+0100</time></trkpt>
300<trkpt lat="48.446654" lon="18.864897"><ele>840</ele><time>2017-01-22T11:46:31+0100</time></trkpt>
301<trkpt lat="48.446561" lon="18.864830"><ele>844</ele><time>2017-01-22T11:46:54+0100</time></trkpt>
302<trkpt lat="48.446445" lon="18.864770"><ele>838</ele><time>2017-01-22T11:47:00+0100</time></trkpt>
303<trkpt lat="48.446362" lon="18.864685"><ele>839</ele><time>2017-01-22T11:47:06+0100</time></trkpt>
304<trkpt lat="48.446281" lon="18.864583"><ele>838</ele><time>2017-01-22T11:47:13+0100</time></trkpt>
305<trkpt lat="48.446231" lon="18.864406"><ele>838</ele><time>2017-01-22T11:47:17+0100</time></trkpt>
306<trkpt lat="48.446179" lon="18.864290"><ele>838</ele><time>2017-01-22T11:47:44+0100</time></trkpt>
307<trkpt lat="48.446139" lon="18.864090"><ele>837</ele><time>2017-01-22T11:47:51+0100</time></trkpt>
308<trkpt lat="48.446116" lon="18.863920"><ele>836</ele><time>2017-01-22T11:47:55+0100</time></trkpt>
309<trkpt lat="48.446117" lon="18.863770"><ele>832</ele><time>2017-01-22T11:47:59+0100</time></trkpt>
310<trkpt lat="48.446001" lon="18.863857"><ele>828</ele><time>2017-01-22T11:48:18+0100</time></trkpt>
311<trkpt lat="48.445879" lon="18.863985"><ele>830</ele><time>2017-01-22T11:48:22+0100</time></trkpt>
312<trkpt lat="48.445763" lon="18.864109"><ele>825</ele><time>2017-01-22T11:48:26+0100</time></trkpt>
313<trkpt lat="48.445666" lon="18.864269"><ele>824</ele><time>2017-01-22T11:48:30+0100</time></trkpt>
314<trkpt lat="48.445602" lon="18.864458"><ele>821</ele><time>2017-01-22T11:48:34+0100</time></trkpt>
315<trkpt lat="48.445504" lon="18.864436"><ele>819</ele><time>2017-01-22T11:48:47+0100</time></trkpt>
316<trkpt lat="48.445422" lon="18.864255"><ele>820</ele><time>2017-01-22T11:48:51+0100</time></trkpt>
317<trkpt lat="48.445342" lon="18.864080"><ele>815</ele><time>2017-01-22T11:48:55+0100</time></trkpt>
318<trkpt lat="48.445245" lon="18.863910"><ele>812</ele><time>2017-01-22T11:48:59+0100</time></trkpt>
319<trkpt lat="48.445139" lon="18.863755"><ele>810</ele><time>2017-01-22T11:49:03+0100</time></trkpt>
320<trkpt lat="48.445090" lon="18.863620"><ele>811</ele><time>2017-01-22T11:49:12+0100</time></trkpt>
321<trkpt lat="48.445098" lon="18.863475"><ele>814</ele><time>2017-01-22T11:49:22+0100</time></trkpt>
322<trkpt lat="48.445106" lon="18.863303"><ele>814</ele><time>2017-01-22T11:49:30+0100</time></trkpt>
323<trkpt lat="48.445087" lon="18.863128"><ele>814</ele><time>2017-01-22T11:49:35+0100</time></trkpt>
324<trkpt lat="48.445082" lon="18.862959"><ele>810</ele><time>2017-01-22T11:49:41+0100</time></trkpt>
325<trkpt lat="48.445077" lon="18.862766"><ele>812</ele><time>2017-01-22T11:49:47+0100</time></trkpt>
326<trkpt lat="48.445070" lon="18.862623"><ele>810</ele><time>2017-01-22T11:49:52+0100</time></trkpt>
327<trkpt lat="48.445077" lon="18.862461"><ele>810</ele><time>2017-01-22T11:49:56+0100</time></trkpt>
328<trkpt lat="48.445102" lon="18.862305"><ele>813</ele><time>2017-01-22T11:50:02+0100</time></trkpt>
329<trkpt lat="48.445131" lon="18.862168"><ele>811</ele><time>2017-01-22T11:50:08+0100</time></trkpt>
330<trkpt lat="48.445190" lon="18.862010"><ele>815</ele><time>2017-01-22T11:50:15+0100</time></trkpt>
331<trkpt lat="48.445235" lon="18.861863"><ele>814</ele><time>2017-01-22T11:50:21+0100</time></trkpt>
332<trkpt lat="48.445282" lon="18.861711"><ele>815</ele><time>2017-01-22T11:50:25+0100</time></trkpt>
333<trkpt lat="48.445329" lon="18.861554"><ele>815</ele><time>2017-01-22T11:50:34+0100</time></trkpt>
334<trkpt lat="48.445306" lon="18.861400"><ele>813</ele><time>2017-01-22T11:50:55+0100</time></trkpt>
335<trkpt lat="48.445292" lon="18.861237"><ele>816</ele><time>2017-01-22T11:51:03+0100</time></trkpt>
336<trkpt lat="48.445290" lon="18.861080"><ele>818</ele><time>2017-01-22T11:51:11+0100</time></trkpt>
337<trkpt lat="48.445281" lon="18.860935"><ele>820</ele><time>2017-01-22T11:51:19+0100</time></trkpt>
338<trkpt lat="48.445296" lon="18.860795"><ele>819</ele><time>2017-01-22T11:51:30+0100</time></trkpt>
339<trkpt lat="48.445282" lon="18.860644"><ele>815</ele><time>2017-01-22T11:51:40+0100</time></trkpt>
340<trkpt lat="48.445251" lon="18.860514"><ele>819</ele><time>2017-01-22T11:51:49+0100</time></trkpt>
341<trkpt lat="48.445221" lon="18.860364"><ele>821</ele><time>2017-01-22T11:51:57+0100</time></trkpt>
342<trkpt lat="48.445180" lon="18.860203"><ele>825</ele><time>2017-01-22T11:52:06+0100</time></trkpt>
343<trkpt lat="48.445117" lon="18.860048"><ele>823</ele><time>2017-01-22T11:52:10+0100</time></trkpt>
344<trkpt lat="48.445051" lon="18.859885"><ele>820</ele><time>2017-01-22T11:52:12+0100</time></trkpt>
345<trkpt lat="48.444998" lon="18.859756"><ele>817</ele><time>2017-01-22T11:52:14+0100</time></trkpt>
346<trkpt lat="48.444916" lon="18.859620"><ele>816</ele><time>2017-01-22T11:52:16+0100</time></trkpt>
347<trkpt lat="48.444851" lon="18.859500"><ele>815</ele><time>2017-01-22T11:52:18+0100</time></trkpt>
348<trkpt lat="48.444768" lon="18.859337"><ele>817</ele><time>2017-01-22T11:52:22+0100</time></trkpt>
349<trkpt lat="48.444723" lon="18.859111"><ele>814</ele><time>2017-01-22T11:52:27+0100</time></trkpt>
350<trkpt lat="48.444641" lon="18.858887"><ele>815</ele><time>2017-01-22T11:52:29+0100</time></trkpt>
351<trkpt lat="48.444555" lon="18.858640"><ele>814</ele><time>2017-01-22T11:52:33+0100</time></trkpt>
352<trkpt lat="48.444490" lon="18.858465"><ele>814</ele><time>2017-01-22T11:52:37+0100</time></trkpt>
353<trkpt lat="48.444403" lon="18.858260"><ele>810</ele><time>2017-01-22T11:52:41+0100</time></trkpt>
354<trkpt lat="48.444330" lon="18.858044"><ele>808</ele><time>2017-01-22T11:52:46+0100</time></trkpt>
355<trkpt lat="48.444292" lon="18.857920"><ele>805</ele><time>2017-01-22T11:52:50+0100</time></trkpt>
356<trkpt lat="48.444194" lon="18.857772"><ele>802</ele><time>2017-01-22T11:52:52+0100</time></trkpt>
357<trkpt lat="48.444115" lon="18.857600"><ele>801</ele><time>2017-01-22T11:52:56+0100</time></trkpt>
358<trkpt lat="48.444047" lon="18.857485"><ele>804</ele><time>2017-01-22T11:53:04+0100</time></trkpt>
359<trkpt lat="48.443969" lon="18.857368"><ele>800</ele><time>2017-01-22T11:53:21+0100</time></trkpt>
360<trkpt lat="48.443892" lon="18.857272"><ele>802</ele><time>2017-01-22T11:53:27+0100</time></trkpt>
361<trkpt lat="48.443798" lon="18.857175"><ele>803</ele><time>2017-01-22T11:53:34+0100</time></trkpt>
362<trkpt lat="48.443697" lon="18.857120"><ele>798</ele><time>2017-01-22T11:53:48+0100</time></trkpt>
363<trkpt lat="48.443576" lon="18.857068"><ele>799</ele><time>2017-01-22T11:53:55+0100</time></trkpt>
364<trkpt lat="48.443462" lon="18.857036"><ele>801</ele><time>2017-01-22T11:54:01+0100</time></trkpt>
365<trkpt lat="48.443363" lon="18.856989"><ele>803</ele><time>2017-01-22T11:54:07+0100</time></trkpt>
366<trkpt lat="48.443261" lon="18.856946"><ele>802</ele><time>2017-01-22T11:54:13+0100</time></trkpt>
367<trkpt lat="48.443158" lon="18.856916"><ele>805</ele><time>2017-01-22T11:54:19+0100</time></trkpt>
368<trkpt lat="48.443041" lon="18.856870"><ele>806</ele><time>2017-01-22T11:54:26+0100</time></trkpt>
369<trkpt lat="48.442912" lon="18.856859"><ele>803</ele><time>2017-01-22T11:54:30+0100</time></trkpt>
370<trkpt lat="48.442801" lon="18.856881"><ele>804</ele><time>2017-01-22T11:54:36+0100</time></trkpt>
371<trkpt lat="48.442710" lon="18.856918"><ele>805</ele><time>2017-01-22T11:54:43+0100</time></trkpt>
372<trkpt lat="48.442610" lon="18.856930"><ele>807</ele><time>2017-01-22T11:54:49+0100</time></trkpt>
373<trkpt lat="48.442511" lon="18.856976"><ele>811</ele><time>2017-01-22T11:54:57+0100</time></trkpt>
374<trkpt lat="48.442430" lon="18.857049"><ele>809</ele><time>2017-01-22T11:55:06+0100</time></trkpt>
375<trkpt lat="48.442330" lon="18.857113"><ele>809</ele><time>2017-01-22T11:55:12+0100</time></trkpt>
376<trkpt lat="48.442225" lon="18.857142"><ele>810</ele><time>2017-01-22T11:55:20+0100</time></trkpt>
377<trkpt lat="48.442123" lon="18.857118"><ele>808</ele><time>2017-01-22T11:55:29+0100</time></trkpt>
378<trkpt lat="48.442016" lon="18.857126"><ele>807</ele><time>2017-01-22T11:55:35+0100</time></trkpt>
379<trkpt lat="48.441902" lon="18.857139"><ele>807</ele><time>2017-01-22T11:55:39+0100</time></trkpt>
380<trkpt lat="48.441793" lon="18.857136"><ele>808</ele><time>2017-01-22T11:55:45+0100</time></trkpt>
381<trkpt lat="48.441674" lon="18.857122"><ele>805</ele><time>2017-01-22T11:55:52+0100</time></trkpt>
382<trkpt lat="48.441569" lon="18.857089"><ele>805</ele><time>2017-01-22T11:55:58+0100</time></trkpt>
383<trkpt lat="48.441469" lon="18.857014"><ele>803</ele><time>2017-01-22T11:56:02+0100</time></trkpt>
384<trkpt lat="48.441358" lon="18.856929"><ele>802</ele><time>2017-01-22T11:56:08+0100</time></trkpt>
385<trkpt lat="48.441351" lon="18.856789"><ele>806</ele><time>2017-01-22T11:56:16+0100</time></trkpt>
386<trkpt lat="48.441424" lon="18.856635"><ele>808</ele><time>2017-01-22T11:57:08+0100</time></trkpt>
387<trkpt lat="48.441460" lon="18.856493"><ele>810</ele><time>2017-01-22T11:57:13+0100</time></trkpt>
388<trkpt lat="48.441513" lon="18.856346"><ele>809</ele><time>2017-01-22T11:57:17+0100</time></trkpt>
389<trkpt lat="48.441563" lon="18.856173"><ele>809</ele><time>2017-01-22T11:57:23+0100</time></trkpt>
390<trkpt lat="48.441624" lon="18.856038"><ele>808</ele><time>2017-01-22T11:57:29+0100</time></trkpt>
391<trkpt lat="48.441663" lon="18.855894"><ele>812</ele><time>2017-01-22T11:57:36+0100</time></trkpt>
392<trkpt lat="48.441697" lon="18.855709"><ele>813</ele><time>2017-01-22T11:57:48+0100</time></trkpt>
393<trkpt lat="48.441749" lon="18.855572"><ele>814</ele><time>2017-01-22T11:57:54+0100</time></trkpt>
394<trkpt lat="48.441793" lon="18.855441"><ele>813</ele><time>2017-01-22T11:57:58+0100</time></trkpt>
395<trkpt lat="48.441845" lon="18.855271"><ele>808</ele><time>2017-01-22T11:58:03+0100</time></trkpt>
396<trkpt lat="48.441909" lon="18.855095"><ele>810</ele><time>2017-01-22T11:58:07+0100</time></trkpt>
397<trkpt lat="48.441960" lon="18.854923"><ele>807</ele><time>2017-01-22T11:58:11+0100</time></trkpt>
398<trkpt lat="48.441980" lon="18.854777"><ele>808</ele><time>2017-01-22T11:58:15+0100</time></trkpt>
399<trkpt lat="48.441975" lon="18.854583"><ele>808</ele><time>2017-01-22T11:58:22+0100</time></trkpt>
400<trkpt lat="48.441952" lon="18.854419"><ele>808</ele><time>2017-01-22T11:58:26+0100</time></trkpt>
401<trkpt lat="48.441882" lon="18.854295"><ele>811</ele><time>2017-01-22T11:58:30+0100</time></trkpt>
402<trkpt lat="48.441809" lon="18.854200"><ele>812</ele><time>2017-01-22T11:58:34+0100</time></trkpt>
403<trkpt lat="48.441740" lon="18.854094"><ele>812</ele><time>2017-01-22T11:58:38+0100</time></trkpt>
404<trkpt lat="48.441690" lon="18.853948"><ele>814</ele><time>2017-01-22T11:58:42+0100</time></trkpt>
405<trkpt lat="48.441657" lon="18.853756"><ele>810</ele><time>2017-01-22T11:58:46+0100</time></trkpt>
406<trkpt lat="48.441642" lon="18.853546"><ele>807</ele><time>2017-01-22T11:58:51+0100</time></trkpt>
407<trkpt lat="48.441661" lon="18.853337"><ele>807</ele><time>2017-01-22T11:58:55+0100</time></trkpt>
408<trkpt lat="48.441686" lon="18.853149"><ele>806</ele><time>2017-01-22T11:58:59+0100</time></trkpt>
409<trkpt lat="48.441699" lon="18.852963"><ele>807</ele><time>2017-01-22T11:59:03+0100</time></trkpt>
410<trkpt lat="48.441690" lon="18.852809"><ele>809</ele><time>2017-01-22T11:59:07+0100</time></trkpt>
411<trkpt lat="48.441645" lon="18.852668"><ele>810</ele><time>2017-01-22T11:59:14+0100</time></trkpt>
412<trkpt lat="48.441572" lon="18.852495"><ele>810</ele><time>2017-01-22T11:59:18+0100</time></trkpt>
413<trkpt lat="48.441541" lon="18.852340"><ele>807</ele><time>2017-01-22T11:59:22+0100</time></trkpt>
414<trkpt lat="48.441530" lon="18.852194"><ele>806</ele><time>2017-01-22T11:59:26+0100</time></trkpt>
415<trkpt lat="48.441528" lon="18.852036"><ele>808</ele><time>2017-01-22T11:59:31+0100</time></trkpt>
416<trkpt lat="48.441546" lon="18.851883"><ele>808</ele><time>2017-01-22T11:59:33+0100</time></trkpt>
417<trkpt lat="48.441576" lon="18.851731"><ele>810</ele><time>2017-01-22T11:59:37+0100</time></trkpt>
418<trkpt lat="48.441584" lon="18.851571"><ele>812</ele><time>2017-01-22T11:59:41+0100</time></trkpt>
419<trkpt lat="48.441598" lon="18.851376"><ele>810</ele><time>2017-01-22T11:59:45+0100</time></trkpt>
420<trkpt lat="48.441588" lon="18.851176"><ele>806</ele><time>2017-01-22T11:59:49+0100</time></trkpt>
421<trkpt lat="48.441548" lon="18.851039"><ele>806</ele><time>2017-01-22T11:59:54+0100</time></trkpt>
422<trkpt lat="48.441454" lon="18.850996"><ele>807</ele><time>2017-01-22T12:00:00+0100</time></trkpt>
423<trkpt lat="48.441356" lon="18.851016"><ele>806</ele><time>2017-01-22T12:00:07+0100</time></trkpt>
424<trkpt lat="48.441249" lon="18.851052"><ele>810</ele><time>2017-01-22T12:00:11+0100</time></trkpt>
425<trkpt lat="48.441120" lon="18.851114"><ele>809</ele><time>2017-01-22T12:00:15+0100</time></trkpt>
426<trkpt lat="48.440994" lon="18.851231"><ele>808</ele><time>2017-01-22T12:00:19+0100</time></trkpt>
427<trkpt lat="48.440870" lon="18.851355"><ele>807</ele><time>2017-01-22T12:00:23+0100</time></trkpt>
428<trkpt lat="48.440730" lon="18.851422"><ele>809</ele><time>2017-01-22T12:00:27+0100</time></trkpt>
429<trkpt lat="48.440608" lon="18.851448"><ele>806</ele><time>2017-01-22T12:00:31+0100</time></trkpt>
430<trkpt lat="48.440500" lon="18.851441"><ele>804</ele><time>2017-01-22T12:00:38+0100</time></trkpt>
431<trkpt lat="48.440378" lon="18.851427"><ele>802</ele><time>2017-01-22T12:00:42+0100</time></trkpt>
432<trkpt lat="48.440262" lon="18.851414"><ele>801</ele><time>2017-01-22T12:00:46+0100</time></trkpt>
433<trkpt lat="48.440129" lon="18.851426"><ele>800</ele><time>2017-01-22T12:00:50+0100</time></trkpt>
434<trkpt lat="48.440004" lon="18.851456"><ele>800</ele><time>2017-01-22T12:00:55+0100</time></trkpt>
435<trkpt lat="48.439876" lon="18.851495"><ele>795</ele><time>2017-01-22T12:00:59+0100</time></trkpt>
436<trkpt lat="48.439749" lon="18.851504"><ele>792</ele><time>2017-01-22T12:01:03+0100</time></trkpt>
437<trkpt lat="48.439630" lon="18.851489"><ele>790</ele><time>2017-01-22T12:01:05+0100</time></trkpt>
438<trkpt lat="48.439534" lon="18.851456"><ele>789</ele><time>2017-01-22T12:01:07+0100</time></trkpt>
439<trkpt lat="48.439412" lon="18.851394"><ele>788</ele><time>2017-01-22T12:01:09+0100</time></trkpt>
440<trkpt lat="48.439299" lon="18.851321"><ele>787</ele><time>2017-01-22T12:01:11+0100</time></trkpt>
441<trkpt lat="48.439205" lon="18.851320"><ele>785</ele><time>2017-01-22T12:01:13+0100</time></trkpt>
442<trkpt lat="48.439114" lon="18.851258"><ele>783</ele><time>2017-01-22T12:01:16+0100</time></trkpt>
443<trkpt lat="48.438943" lon="18.851188"><ele>778</ele><time>2017-01-22T12:01:18+0100</time></trkpt>
444<trkpt lat="48.438852" lon="18.850821"><ele>775</ele><time>2017-01-22T12:01:22+0100</time></trkpt>
445<trkpt lat="48.438791" lon="18.850670"><ele>774</ele><time>2017-01-22T12:01:24+0100</time></trkpt>
446<trkpt lat="48.438607" lon="18.850496"><ele>775</ele><time>2017-01-22T12:01:28+0100</time></trkpt>
447<trkpt lat="48.438502" lon="18.850434"><ele>776</ele><time>2017-01-22T12:01:32+0100</time></trkpt>
448<trkpt lat="48.438352" lon="18.850302"><ele>770</ele><time>2017-01-22T12:01:43+0100</time></trkpt>
449<trkpt lat="48.438239" lon="18.850221"><ele>767</ele><time>2017-01-22T12:01:47+0100</time></trkpt>
450<trkpt lat="48.438141" lon="18.850142"><ele>769</ele><time>2017-01-22T12:01:51+0100</time></trkpt>
451<trkpt lat="48.438070" lon="18.850013"><ele>772</ele><time>2017-01-22T12:01:58+0100</time></trkpt>
452<trkpt lat="48.438000" lon="18.849879"><ele>773</ele><time>2017-01-22T12:02:04+0100</time></trkpt>
453<trkpt lat="48.437907" lon="18.849769"><ele>776</ele><time>2017-01-22T12:02:08+0100</time></trkpt>
454<trkpt lat="48.437810" lon="18.849654"><ele>775</ele><time>2017-01-22T12:02:14+0100</time></trkpt>
455<trkpt lat="48.437724" lon="18.849589"><ele>773</ele><time>2017-01-22T12:02:21+0100</time></trkpt>
456<trkpt lat="48.437639" lon="18.849503"><ele>777</ele><time>2017-01-22T12:02:25+0100</time></trkpt>
457<trkpt lat="48.437549" lon="18.849407"><ele>783</ele><time>2017-01-22T12:02:31+0100</time></trkpt>
458<trkpt lat="48.437492" lon="18.849278"><ele>787</ele><time>2017-01-22T12:02:35+0100</time></trkpt>
459<trkpt lat="48.437431" lon="18.849167"><ele>783</ele><time>2017-01-22T12:02:40+0100</time></trkpt>
460<trkpt lat="48.437346" lon="18.848975"><ele>781</ele><time>2017-01-22T12:02:44+0100</time></trkpt>
461<trkpt lat="48.437299" lon="18.848848"><ele>778</ele><time>2017-01-22T12:02:48+0100</time></trkpt>
462<trkpt lat="48.437235" lon="18.848740"><ele>775</ele><time>2017-01-22T12:02:52+0100</time></trkpt>
463<trkpt lat="48.437182" lon="18.848605"><ele>776</ele><time>2017-01-22T12:02:58+0100</time></trkpt>
464<trkpt lat="48.437107" lon="18.848493"><ele>776</ele><time>2017-01-22T12:03:03+0100</time></trkpt>
465<trkpt lat="48.437019" lon="18.848378"><ele>776</ele><time>2017-01-22T12:03:07+0100</time></trkpt>
466<trkpt lat="48.436941" lon="18.848280"><ele>777</ele><time>2017-01-22T12:03:11+0100</time></trkpt>
467<trkpt lat="48.436884" lon="18.848145"><ele>776</ele><time>2017-01-22T12:03:15+0100</time></trkpt>
468<trkpt lat="48.436826" lon="18.848013"><ele>773</ele><time>2017-01-22T12:03:23+0100</time></trkpt>
469<trkpt lat="48.436744" lon="18.847904"><ele>771</ele><time>2017-01-22T12:03:30+0100</time></trkpt>
470<trkpt lat="48.436646" lon="18.847533"><ele>771</ele><time>2017-01-22T12:03:34+0100</time></trkpt>
471<trkpt lat="48.436607" lon="18.847329"><ele>773</ele><time>2017-01-22T12:03:38+0100</time></trkpt>
472<trkpt lat="48.436596" lon="18.847131"><ele>774</ele><time>2017-01-22T12:03:42+0100</time></trkpt>
473<trkpt lat="48.436591" lon="18.846926"><ele>774</ele><time>2017-01-22T12:03:46+0100</time></trkpt>
474<trkpt lat="48.436568" lon="18.846743"><ele>772</ele><time>2017-01-22T12:03:50+0100</time></trkpt>
475<trkpt lat="48.436532" lon="18.846564"><ele>774</ele><time>2017-01-22T12:03:55+0100</time></trkpt>
476<trkpt lat="48.436508" lon="18.846404"><ele>774</ele><time>2017-01-22T12:03:59+0100</time></trkpt>
477<trkpt lat="48.436504" lon="18.846230"><ele>773</ele><time>2017-01-22T12:04:03+0100</time></trkpt>
478<trkpt lat="48.436465" lon="18.846087"><ele>772</ele><time>2017-01-22T12:04:07+0100</time></trkpt>
479<trkpt lat="48.436414" lon="18.845974"><ele>772</ele><time>2017-01-22T12:04:11+0100</time></trkpt>
480<trkpt lat="48.436359" lon="18.845823"><ele>774</ele><time>2017-01-22T12:04:15+0100</time></trkpt>
481<trkpt lat="48.436352" lon="18.845676"><ele>773</ele><time>2017-01-22T12:04:22+0100</time></trkpt>
482<trkpt lat="48.436343" lon="18.845528"><ele>775</ele><time>2017-01-22T12:04:30+0100</time></trkpt>
483<trkpt lat="48.436302" lon="18.845398"><ele>775</ele><time>2017-01-22T12:04:36+0100</time></trkpt>
484<trkpt lat="48.436259" lon="18.845200"><ele>771</ele><time>2017-01-22T12:05:10+0100</time></trkpt>
485<trkpt lat="48.436177" lon="18.845124"><ele>770</ele><time>2017-01-22T12:09:59+0100</time></trkpt>
486<trkpt lat="48.436102" lon="18.845002"><ele>771</ele><time>2017-01-22T12:10:05+0100</time></trkpt>
487<trkpt lat="48.436043" lon="18.844867"><ele>779</ele><time>2017-01-22T12:10:12+0100</time></trkpt>
488<trkpt lat="48.435986" lon="18.844751"><ele>781</ele><time>2017-01-22T12:10:18+0100</time></trkpt>
489<trkpt lat="48.435925" lon="18.844643"><ele>784</ele><time>2017-01-22T12:10:28+0100</time></trkpt>
490<trkpt lat="48.435864" lon="18.844527"><ele>786</ele><time>2017-01-22T12:10:37+0100</time></trkpt>
491<trkpt lat="48.435823" lon="18.844398"><ele>785</ele><time>2017-01-22T12:10:52+0100</time></trkpt>
492<trkpt lat="48.435751" lon="18.844222"><ele>791</ele><time>2017-01-22T12:11:10+0100</time></trkpt>
493<trkpt lat="48.435675" lon="18.844125"><ele>793</ele><time>2017-01-22T12:11:23+0100</time></trkpt>
494<trkpt lat="48.435627" lon="18.843994"><ele>794</ele><time>2017-01-22T12:11:42+0100</time></trkpt>
495<trkpt lat="48.435539" lon="18.843930"><ele>794</ele><time>2017-01-22T12:11:52+0100</time></trkpt>
496<trkpt lat="48.435455" lon="18.843855"><ele>793</ele><time>2017-01-22T12:12:01+0100</time></trkpt>
497<trkpt lat="48.435371" lon="18.843756"><ele>796</ele><time>2017-01-22T12:12:09+0100</time></trkpt>
498<trkpt lat="48.435302" lon="18.843640"><ele>794</ele><time>2017-01-22T12:12:18+0100</time></trkpt>
499<trkpt lat="48.435280" lon="18.843484"><ele>794</ele><time>2017-01-22T12:12:24+0100</time></trkpt>
500<trkpt lat="48.435261" lon="18.843322"><ele>793</ele><time>2017-01-22T12:12:30+0100</time></trkpt>
501<trkpt lat="48.435280" lon="18.843147"><ele>793</ele><time>2017-01-22T12:12:36+0100</time></trkpt>
502<trkpt lat="48.435314" lon="18.843000"><ele>791</ele><time>2017-01-22T12:12:41+0100</time></trkpt>
503<trkpt lat="48.435334" lon="18.842848"><ele>792</ele><time>2017-01-22T12:12:49+0100</time></trkpt>
504<trkpt lat="48.435337" lon="18.842694"><ele>786</ele><time>2017-01-22T12:12:58+0100</time></trkpt>
505<trkpt lat="48.435336" lon="18.842530"><ele>786</ele><time>2017-01-22T12:13:04+0100</time></trkpt>
506<trkpt lat="48.435341" lon="18.842384"><ele>788</ele><time>2017-01-22T12:13:10+0100</time></trkpt>
507<trkpt lat="48.435328" lon="18.842240"><ele>790</ele><time>2017-01-22T12:13:25+0100</time></trkpt>
508<trkpt lat="48.435325" lon="18.842085"><ele>793</ele><time>2017-01-22T12:13:37+0100</time></trkpt>
509<trkpt lat="48.435274" lon="18.841952"><ele>795</ele><time>2017-01-22T12:13:45+0100</time></trkpt>
510<trkpt lat="48.435208" lon="18.841850"><ele>795</ele><time>2017-01-22T12:13:54+0100</time></trkpt>
511<trkpt lat="48.435169" lon="18.841706"><ele>792</ele><time>2017-01-22T12:14:04+0100</time></trkpt>
512<trkpt lat="48.435094" lon="18.841609"><ele>792</ele><time>2017-01-22T12:14:15+0100</time></trkpt>
513<trkpt lat="48.435085" lon="18.841467"><ele>800</ele><time>2017-01-22T12:14:27+0100</time></trkpt>
514<trkpt lat="48.435037" lon="18.841343"><ele>804</ele><time>2017-01-22T12:14:40+0100</time></trkpt>
515<trkpt lat="48.435005" lon="18.841198"><ele>804</ele><time>2017-01-22T12:14:52+0100</time></trkpt>
516<trkpt lat="48.435000" lon="18.841057"><ele>806</ele><time>2017-01-22T12:15:09+0100</time></trkpt>
517<trkpt lat="48.434983" lon="18.840910"><ele>805</ele><time>2017-01-22T12:15:18+0100</time></trkpt>
518<trkpt lat="48.434966" lon="18.840737"><ele>801</ele><time>2017-01-22T12:15:24+0100</time></trkpt>
519<trkpt lat="48.434970" lon="18.840595"><ele>806</ele><time>2017-01-22T12:15:34+0100</time></trkpt>
520<trkpt lat="48.434960" lon="18.840449"><ele>808</ele><time>2017-01-22T12:15:43+0100</time></trkpt>
521<trkpt lat="48.434944" lon="18.840306"><ele>810</ele><time>2017-01-22T12:15:51+0100</time></trkpt>
522<trkpt lat="48.434936" lon="18.840158"><ele>811</ele><time>2017-01-22T12:15:58+0100</time></trkpt>
523<trkpt lat="48.434924" lon="18.840010"><ele>807</ele><time>2017-01-22T12:17:31+0100</time></trkpt>
524<trkpt lat="48.434906" lon="18.839843"><ele>806</ele><time>2017-01-22T12:17:37+0100</time></trkpt>
525<trkpt lat="48.434908" lon="18.839693"><ele>808</ele><time>2017-01-22T12:17:41+0100</time></trkpt>
526<trkpt lat="48.434900" lon="18.839534"><ele>807</ele><time>2017-01-22T12:17:50+0100</time></trkpt>
527<trkpt lat="48.434899" lon="18.839375"><ele>805</ele><time>2017-01-22T12:17:56+0100</time></trkpt>
528<trkpt lat="48.434892" lon="18.839218"><ele>807</ele><time>2017-01-22T12:18:06+0100</time></trkpt>
529<trkpt lat="48.434881" lon="18.839075"><ele>807</ele><time>2017-01-22T12:18:13+0100</time></trkpt>
530<trkpt lat="48.434865" lon="18.838930"><ele>806</ele><time>2017-01-22T12:18:19+0100</time></trkpt>
531<trkpt lat="48.434844" lon="18.838720"><ele>804</ele><time>2017-01-22T12:19:46+0100</time></trkpt>
532<trkpt lat="48.434844" lon="18.838562"><ele>802</ele><time>2017-01-22T12:19:50+0100</time></trkpt>
533<trkpt lat="48.434859" lon="18.838386"><ele>801</ele><time>2017-01-22T12:19:57+0100</time></trkpt>
534<trkpt lat="48.434712" lon="18.838342"><ele>810</ele><time>2017-01-22T12:20:14+0100</time></trkpt>
535<trkpt lat="48.434465" lon="18.838335"><ele>803</ele><time>2017-01-22T12:20:18+0100</time></trkpt>
536<trkpt lat="48.434373" lon="18.838325"><ele>798</ele><time>2017-01-22T12:20:20+0100</time></trkpt>
537<trkpt lat="48.434228" lon="18.838291"><ele>794</ele><time>2017-01-22T12:20:24+0100</time></trkpt>
538<trkpt lat="48.434099" lon="18.838251"><ele>793</ele><time>2017-01-22T12:20:28+0100</time></trkpt>
539<trkpt lat="48.434014" lon="18.838174"><ele>791</ele><time>2017-01-22T12:20:32+0100</time></trkpt>
540<trkpt lat="48.433932" lon="18.838069"><ele>787</ele><time>2017-01-22T12:20:39+0100</time></trkpt>
541<trkpt lat="48.434064" lon="18.838040"><ele>787</ele><time>2017-01-22T12:21:45+0100</time></trkpt>
542<trkpt lat="48.434182" lon="18.837959"><ele>789</ele><time>2017-01-22T12:21:58+0100</time></trkpt>
543<trkpt lat="48.434288" lon="18.837912"><ele>788</ele><time>2017-01-22T12:22:04+0100</time></trkpt>
544<trkpt lat="48.434396" lon="18.837843"><ele>789</ele><time>2017-01-22T12:22:10+0100</time></trkpt>
545<trkpt lat="48.434488" lon="18.837791"><ele>790</ele><time>2017-01-22T12:22:16+0100</time></trkpt>
546<trkpt lat="48.434583" lon="18.837751"><ele>790</ele><time>2017-01-22T12:22:23+0100</time></trkpt>
547<trkpt lat="48.434669" lon="18.837661"><ele>790</ele><time>2017-01-22T12:22:31+0100</time></trkpt>
548<trkpt lat="48.434747" lon="18.837552"><ele>788</ele><time>2017-01-22T12:22:40+0100</time></trkpt>
549<trkpt lat="48.434849" lon="18.837537"><ele>788</ele><time>2017-01-22T12:22:46+0100</time></trkpt>
550<trkpt lat="48.434957" lon="18.837570"><ele>788</ele><time>2017-01-22T12:22:52+0100</time></trkpt>
551<trkpt lat="48.435044" lon="18.837613"><ele>785</ele><time>2017-01-22T12:22:58+0100</time></trkpt>
552<trkpt lat="48.435140" lon="18.837638"><ele>783</ele><time>2017-01-22T12:23:05+0100</time></trkpt>
553<trkpt lat="48.435242" lon="18.837662"><ele>783</ele><time>2017-01-22T12:23:09+0100</time></trkpt>
554<trkpt lat="48.435369" lon="18.837661"><ele>780</ele><time>2017-01-22T12:23:15+0100</time></trkpt>
555<trkpt lat="48.435483" lon="18.837690"><ele>782</ele><time>2017-01-22T12:23:17+0100</time></trkpt>
556<trkpt lat="48.435583" lon="18.837677"><ele>782</ele><time>2017-01-22T12:23:22+0100</time></trkpt>
557<trkpt lat="48.435760" lon="18.837551"><ele>786</ele><time>2017-01-22T12:23:26+0100</time></trkpt>
558<trkpt lat="48.435841" lon="18.837468"><ele>788</ele><time>2017-01-22T12:23:30+0100</time></trkpt>
559<trkpt lat="48.435915" lon="18.837363"><ele>786</ele><time>2017-01-22T12:23:38+0100</time></trkpt>
560<trkpt lat="48.435988" lon="18.837255"><ele>781</ele><time>2017-01-22T12:23:43+0100</time></trkpt>
561<trkpt lat="48.436089" lon="18.837097"><ele>775</ele><time>2017-01-22T12:24:43+0100</time></trkpt>
562<trkpt lat="48.436164" lon="18.836982"><ele>776</ele><time>2017-01-22T12:24:51+0100</time></trkpt>
563<trkpt lat="48.436243" lon="18.836870"><ele>779</ele><time>2017-01-22T12:24:57+0100</time></trkpt>
564<trkpt lat="48.436323" lon="18.836769"><ele>783</ele><time>2017-01-22T12:25:06+0100</time></trkpt>
565<trkpt lat="48.436396" lon="18.836684"><ele>786</ele><time>2017-01-22T12:25:12+0100</time></trkpt>
566<trkpt lat="48.436451" lon="18.836541"><ele>785</ele><time>2017-01-22T12:25:20+0100</time></trkpt>
567<trkpt lat="48.436506" lon="18.836419"><ele>787</ele><time>2017-01-22T12:25:29+0100</time></trkpt>
568<trkpt lat="48.436541" lon="18.836281"><ele>787</ele><time>2017-01-22T12:25:37+0100</time></trkpt>
569<trkpt lat="48.436570" lon="18.836133"><ele>789</ele><time>2017-01-22T12:25:48+0100</time></trkpt>
570<trkpt lat="48.436556" lon="18.835948"><ele>789</ele><time>2017-01-22T12:25:52+0100</time></trkpt>
571<trkpt lat="48.436570" lon="18.835787"><ele>787</ele><time>2017-01-22T12:26:00+0100</time></trkpt>
572<trkpt lat="48.436604" lon="18.835661"><ele>786</ele><time>2017-01-22T12:26:06+0100</time></trkpt>
573<trkpt lat="48.436625" lon="18.835502"><ele>786</ele><time>2017-01-22T12:26:13+0100</time></trkpt>
574<trkpt lat="48.436615" lon="18.835347"><ele>788</ele><time>2017-01-22T12:26:21+0100</time></trkpt>
575<trkpt lat="48.436566" lon="18.835208"><ele>787</ele><time>2017-01-22T12:26:32+0100</time></trkpt>
576<trkpt lat="48.436481" lon="18.835081"><ele>783</ele><time>2017-01-22T12:26:38+0100</time></trkpt>
577<trkpt lat="48.436426" lon="18.834921"><ele>780</ele><time>2017-01-22T12:26:44+0100</time></trkpt>
578<trkpt lat="48.436333" lon="18.834817"><ele>778</ele><time>2017-01-22T12:26:50+0100</time></trkpt>
579<trkpt lat="48.436251" lon="18.834687"><ele>778</ele><time>2017-01-22T12:26:57+0100</time></trkpt>
580<trkpt lat="48.436240" lon="18.834472"><ele>775</ele><time>2017-01-22T12:27:05+0100</time></trkpt>
581<trkpt lat="48.436175" lon="18.834378"><ele>774</ele><time>2017-01-22T12:27:46+0100</time></trkpt>
582<trkpt lat="48.436090" lon="18.834275"><ele>766</ele><time>2017-01-22T12:27:53+0100</time></trkpt>
583<trkpt lat="48.436041" lon="18.834135"><ele>764</ele><time>2017-01-22T12:27:55+0100</time></trkpt>
584<trkpt lat="48.435978" lon="18.833967"><ele>760</ele><time>2017-01-22T12:27:59+0100</time></trkpt>
585<trkpt lat="48.435920" lon="18.833788"><ele>755</ele><time>2017-01-22T12:28:03+0100</time></trkpt>
586<trkpt lat="48.435809" lon="18.833645"><ele>753</ele><time>2017-01-22T12:28:07+0100</time></trkpt>
587<trkpt lat="48.435738" lon="18.833486"><ele>752</ele><time>2017-01-22T12:28:12+0100</time></trkpt>
588<trkpt lat="48.435679" lon="18.833340"><ele>750</ele><time>2017-01-22T12:28:16+0100</time></trkpt>
589<trkpt lat="48.435678" lon="18.833166"><ele>750</ele><time>2017-01-22T12:28:20+0100</time></trkpt>
590<trkpt lat="48.435654" lon="18.833002"><ele>750</ele><time>2017-01-22T12:28:26+0100</time></trkpt>
591<trkpt lat="48.435583" lon="18.832837"><ele>752</ele><time>2017-01-22T12:28:33+0100</time></trkpt>
592<trkpt lat="48.435500" lon="18.832744"><ele>755</ele><time>2017-01-22T12:28:35+0100</time></trkpt>
593<trkpt lat="48.435443" lon="18.832576"><ele>753</ele><time>2017-01-22T12:28:41+0100</time></trkpt>
594<trkpt lat="48.435399" lon="18.832404"><ele>759</ele><time>2017-01-22T12:28:45+0100</time></trkpt>
595<trkpt lat="48.435353" lon="18.832283"><ele>765</ele><time>2017-01-22T12:28:54+0100</time></trkpt>
596<trkpt lat="48.435330" lon="18.832135"><ele>764</ele><time>2017-01-22T12:28:58+0100</time></trkpt>
597<trkpt lat="48.435304" lon="18.831997"><ele>766</ele><time>2017-01-22T12:29:02+0100</time></trkpt>
598<trkpt lat="48.435292" lon="18.831843"><ele>767</ele><time>2017-01-22T12:29:08+0100</time></trkpt>
599<trkpt lat="48.435252" lon="18.831690"><ele>766</ele><time>2017-01-22T12:29:15+0100</time></trkpt>
600<trkpt lat="48.435179" lon="18.831576"><ele>769</ele><time>2017-01-22T12:29:21+0100</time></trkpt>
601<trkpt lat="48.435187" lon="18.831392"><ele>766</ele><time>2017-01-22T12:29:31+0100</time></trkpt>
602<trkpt lat="48.435235" lon="18.831266"><ele>765</ele><time>2017-01-22T12:29:38+0100</time></trkpt>
603<trkpt lat="48.435245" lon="18.831071"><ele>768</ele><time>2017-01-22T12:29:57+0100</time></trkpt>
604<trkpt lat="48.435329" lon="18.830978"><ele>772</ele><time>2017-01-22T12:30:16+0100</time></trkpt>
605<trkpt lat="48.435438" lon="18.830952"><ele>780</ele><time>2017-01-22T12:30:32+0100</time></trkpt>
606<trkpt lat="48.435544" lon="18.830867"><ele>776</ele><time>2017-01-22T12:31:45+0100</time></trkpt>
607<trkpt lat="48.435645" lon="18.830772"><ele>776</ele><time>2017-01-22T12:31:52+0100</time></trkpt>
608<trkpt lat="48.435764" lon="18.830736"><ele>767</ele><time>2017-01-22T12:31:58+0100</time></trkpt>
609<trkpt lat="48.435870" lon="18.830727"><ele>763</ele><time>2017-01-22T12:32:04+0100</time></trkpt>
610<trkpt lat="48.435957" lon="18.830649"><ele>771</ele><time>2017-01-22T12:32:13+0100</time></trkpt>
611<trkpt lat="48.436042" lon="18.830600"><ele>773</ele><time>2017-01-22T12:32:23+0100</time></trkpt>
612<trkpt lat="48.436119" lon="18.830476"><ele>769</ele><time>2017-01-22T12:32:38+0100</time></trkpt>
613<trkpt lat="48.436185" lon="18.830367"><ele>770</ele><time>2017-01-22T12:32:42+0100</time></trkpt>
614<trkpt lat="48.436246" lon="18.830262"><ele>774</ele><time>2017-01-22T12:32:46+0100</time></trkpt>
615<trkpt lat="48.436312" lon="18.830148"><ele>773</ele><time>2017-01-22T12:32:50+0100</time></trkpt>
616<trkpt lat="48.436360" lon="18.830020"><ele>777</ele><time>2017-01-22T12:32:59+0100</time></trkpt>
617<trkpt lat="48.436377" lon="18.829887"><ele>786</ele><time>2017-01-22T12:33:24+0100</time></trkpt>
618<trkpt lat="48.436473" lon="18.829863"><ele>780</ele><time>2017-01-22T12:34:29+0100</time></trkpt>
619<trkpt lat="48.436588" lon="18.829854"><ele>787</ele><time>2017-01-22T12:35:00+0100</time></trkpt>
620<trkpt lat="48.436684" lon="18.829904"><ele>790</ele><time>2017-01-22T12:35:08+0100</time></trkpt>
621<trkpt lat="48.436778" lon="18.829947"><ele>792</ele><time>2017-01-22T12:35:15+0100</time></trkpt>
622<trkpt lat="48.436884" lon="18.829956"><ele>801</ele><time>2017-01-22T12:35:23+0100</time></trkpt>
623<trkpt lat="48.436955" lon="18.830049"><ele>795</ele><time>2017-01-22T12:35:29+0100</time></trkpt>
624<trkpt lat="48.437079" lon="18.830116"><ele>798</ele><time>2017-01-22T12:36:40+0100</time></trkpt>
625<trkpt lat="48.437186" lon="18.830086"><ele>791</ele><time>2017-01-22T12:36:46+0100</time></trkpt>
626<trkpt lat="48.437280" lon="18.830068"><ele>791</ele><time>2017-01-22T12:36:51+0100</time></trkpt>
627<trkpt lat="48.437390" lon="18.830083"><ele>796</ele><time>2017-01-22T12:36:59+0100</time></trkpt>
628<trkpt lat="48.437505" lon="18.829986"><ele>800</ele><time>2017-01-22T12:37:51+0100</time></trkpt>
629<trkpt lat="48.437618" lon="18.829876"><ele>789</ele><time>2017-01-22T12:37:57+0100</time></trkpt>
630<trkpt lat="48.437697" lon="18.829770"><ele>787</ele><time>2017-01-22T12:38:01+0100</time></trkpt>
631<trkpt lat="48.437808" lon="18.829667"><ele>784</ele><time>2017-01-22T12:38:07+0100</time></trkpt>
632<trkpt lat="48.437891" lon="18.829578"><ele>779</ele><time>2017-01-22T12:38:14+0100</time></trkpt>
633<trkpt lat="48.437976" lon="18.829484"><ele>779</ele><time>2017-01-22T12:38:18+0100</time></trkpt>
634<trkpt lat="48.438049" lon="18.829329"><ele>781</ele><time>2017-01-22T12:38:22+0100</time></trkpt>
635<trkpt lat="48.438103" lon="18.829165"><ele>783</ele><time>2017-01-22T12:38:26+0100</time></trkpt>
636<trkpt lat="48.438144" lon="18.828941"><ele>783</ele><time>2017-01-22T12:38:31+0100</time></trkpt>
637<trkpt lat="48.438197" lon="18.828784"><ele>787</ele><time>2017-01-22T12:38:35+0100</time></trkpt>
638<trkpt lat="48.438276" lon="18.828631"><ele>781</ele><time>2017-01-22T12:38:41+0100</time></trkpt>
639<trkpt lat="48.438357" lon="18.828525"><ele>780</ele><time>2017-01-22T12:38:46+0100</time></trkpt>
640<trkpt lat="48.438315" lon="18.828379"><ele>774</ele><time>2017-01-22T12:38:50+0100</time></trkpt>
641<trkpt lat="48.438207" lon="18.828385"><ele>770</ele><time>2017-01-22T12:38:56+0100</time></trkpt>
642<trkpt lat="48.438334" lon="18.828348"><ele>778</ele><time>2017-01-22T12:39:29+0100</time></trkpt>
643<trkpt lat="48.438419" lon="18.828399"><ele>772</ele><time>2017-01-22T12:39:33+0100</time></trkpt>
644<trkpt lat="48.438514" lon="18.828493"><ele>773</ele><time>2017-01-22T12:39:42+0100</time></trkpt>
645<trkpt lat="48.438640" lon="18.828579"><ele>770</ele><time>2017-01-22T12:39:46+0100</time></trkpt>
646<trkpt lat="48.438824" lon="18.828560"><ele>771</ele><time>2017-01-22T12:39:54+0100</time></trkpt>
647<trkpt lat="48.439098" lon="18.828652"><ele>769</ele><time>2017-01-22T12:39:56+0100</time></trkpt>
648<trkpt lat="48.439071" lon="18.828423"><ele>772</ele><time>2017-01-22T12:40:00+0100</time></trkpt>
649<trkpt lat="48.438991" lon="18.828499"><ele>771</ele><time>2017-01-22T12:40:02+0100</time></trkpt>
650<trkpt lat="48.438948" lon="18.828686"><ele>769</ele><time>2017-01-22T12:40:07+0100</time></trkpt>
651<trkpt lat="48.439016" lon="18.828787"><ele>764</ele><time>2017-01-22T12:40:17+0100</time></trkpt>
652<trkpt lat="48.439103" lon="18.828857"><ele>756</ele><time>2017-01-22T12:40:30+0100</time></trkpt>
653<trkpt lat="48.439196" lon="18.828865"><ele>757</ele><time>2017-01-22T12:41:28+0100</time></trkpt>
654<trkpt lat="48.439301" lon="18.828932"><ele>745</ele><time>2017-01-22T12:41:32+0100</time></trkpt>
655<trkpt lat="48.439419" lon="18.829002"><ele>744</ele><time>2017-01-22T12:41:37+0100</time></trkpt>
656<trkpt lat="48.439536" lon="18.829009"><ele>749</ele><time>2017-01-22T12:41:41+0100</time></trkpt>
657<trkpt lat="48.439626" lon="18.829066"><ele>748</ele><time>2017-01-22T12:41:45+0100</time></trkpt>
658<trkpt lat="48.439738" lon="18.829091"><ele>749</ele><time>2017-01-22T12:41:51+0100</time></trkpt>
659<trkpt lat="48.439839" lon="18.829114"><ele>750</ele><time>2017-01-22T12:41:58+0100</time></trkpt>
660<trkpt lat="48.439924" lon="18.829060"><ele>751</ele><time>2017-01-22T12:42:02+0100</time></trkpt>
661<trkpt lat="48.440032" lon="18.829018"><ele>755</ele><time>2017-01-22T12:42:06+0100</time></trkpt>
662<trkpt lat="48.440124" lon="18.828956"><ele>758</ele><time>2017-01-22T12:42:16+0100</time></trkpt>
663<trkpt lat="48.440238" lon="18.828881"><ele>757</ele><time>2017-01-22T12:42:54+0100</time></trkpt>
664<trkpt lat="48.440340" lon="18.828805"><ele>754</ele><time>2017-01-22T12:42:58+0100</time></trkpt>
665<trkpt lat="48.440438" lon="18.828740"><ele>752</ele><time>2017-01-22T12:43:02+0100</time></trkpt>
666<trkpt lat="48.440532" lon="18.828664"><ele>753</ele><time>2017-01-22T12:43:09+0100</time></trkpt>
667<trkpt lat="48.440611" lon="18.828584"><ele>762</ele><time>2017-01-22T12:43:17+0100</time></trkpt>
668<trkpt lat="48.440692" lon="18.828450"><ele>763</ele><time>2017-01-22T12:43:23+0100</time></trkpt>
669<trkpt lat="48.440752" lon="18.828339"><ele>764</ele><time>2017-01-22T12:43:30+0100</time></trkpt>
670<trkpt lat="48.440738" lon="18.828196"><ele>765</ele><time>2017-01-22T12:43:38+0100</time></trkpt>
671<trkpt lat="48.440810" lon="18.828063"><ele>754</ele><time>2017-01-22T12:43:42+0100</time></trkpt>
672<trkpt lat="48.440826" lon="18.827900"><ele>756</ele><time>2017-01-22T12:44:20+0100</time></trkpt>
673<trkpt lat="48.440844" lon="18.827733"><ele>751</ele><time>2017-01-22T12:44:24+0100</time></trkpt>
674<trkpt lat="48.440881" lon="18.827499"><ele>740</ele><time>2017-01-22T12:44:32+0100</time></trkpt>
675<trkpt lat="48.440944" lon="18.827392"><ele>733</ele><time>2017-01-22T12:45:39+0100</time></trkpt>
676<trkpt lat="48.441038" lon="18.827362"><ele>741</ele><time>2017-01-22T12:45:54+0100</time></trkpt>
677<trkpt lat="48.441137" lon="18.827366"><ele>745</ele><time>2017-01-22T12:46:11+0100</time></trkpt>
678<trkpt lat="48.441231" lon="18.827407"><ele>748</ele><time>2017-01-22T12:46:25+0100</time></trkpt>
679<trkpt lat="48.441324" lon="18.827367"><ele>751</ele><time>2017-01-22T12:46:34+0100</time></trkpt>
680<trkpt lat="48.441417" lon="18.827293"><ele>752</ele><time>2017-01-22T12:46:40+0100</time></trkpt>
681<trkpt lat="48.441520" lon="18.827243"><ele>762</ele><time>2017-01-22T12:46:46+0100</time></trkpt>
682<trkpt lat="48.441596" lon="18.827160"><ele>764</ele><time>2017-01-22T12:46:57+0100</time></trkpt>
683<trkpt lat="48.441664" lon="18.827040"><ele>760</ele><time>2017-01-22T12:47:24+0100</time></trkpt>
684<trkpt lat="48.441711" lon="18.826897"><ele>760</ele><time>2017-01-22T12:47:28+0100</time></trkpt>
685<trkpt lat="48.441765" lon="18.826750"><ele>757</ele><time>2017-01-22T12:47:32+0100</time></trkpt>
686<trkpt lat="48.441795" lon="18.826614"><ele>758</ele><time>2017-01-22T12:47:37+0100</time></trkpt>
687<trkpt lat="48.441819" lon="18.826448"><ele>765</ele><time>2017-01-22T12:47:41+0100</time></trkpt>
688<trkpt lat="48.441837" lon="18.826309"><ele>765</ele><time>2017-01-22T12:47:49+0100</time></trkpt>
689<trkpt lat="48.441854" lon="18.826166"><ele>766</ele><time>2017-01-22T12:47:58+0100</time></trkpt>
690<trkpt lat="48.441849" lon="18.826005"><ele>759</ele><time>2017-01-22T12:48:04+0100</time></trkpt>
691<trkpt lat="48.441869" lon="18.825821"><ele>760</ele><time>2017-01-22T12:48:10+0100</time></trkpt>
692<trkpt lat="48.441915" lon="18.825672"><ele>759</ele><time>2017-01-22T12:48:14+0100</time></trkpt>
693<trkpt lat="48.441929" lon="18.825499"><ele>760</ele><time>2017-01-22T12:48:23+0100</time></trkpt>
694<trkpt lat="48.441931" lon="18.825346"><ele>759</ele><time>2017-01-22T12:48:29+0100</time></trkpt>
695<trkpt lat="48.441977" lon="18.825199"><ele>759</ele><time>2017-01-22T12:48:37+0100</time></trkpt>
696<trkpt lat="48.442013" lon="18.825056"><ele>759</ele><time>2017-01-22T12:48:48+0100</time></trkpt>
697<trkpt lat="48.442083" lon="18.824888"><ele>749</ele><time>2017-01-22T12:49:09+0100</time></trkpt>
698<trkpt lat="48.442179" lon="18.824872"><ele>742</ele><time>2017-01-22T12:50:13+0100</time></trkpt>
699<trkpt lat="48.442275" lon="18.824979"><ele>741</ele><time>2017-01-22T12:50:20+0100</time></trkpt>
700<trkpt lat="48.442360" lon="18.825090"><ele>737</ele><time>2017-01-22T12:50:24+0100</time></trkpt>
701<trkpt lat="48.442442" lon="18.825185"><ele>733</ele><time>2017-01-22T12:50:32+0100</time></trkpt>
702<trkpt lat="48.442528" lon="18.825252"><ele>732</ele><time>2017-01-22T12:50:45+0100</time></trkpt>
703<trkpt lat="48.442609" lon="18.825314"><ele>731</ele><time>2017-01-22T12:51:31+0100</time></trkpt>
704<trkpt lat="48.442654" lon="18.825457"><ele>724</ele><time>2017-01-22T12:51:37+0100</time></trkpt>
705<trkpt lat="48.442743" lon="18.825525"><ele>728</ele><time>2017-01-22T12:51:46+0100</time></trkpt>
706<trkpt lat="48.442869" lon="18.825529"><ele>729</ele><time>2017-01-22T12:51:52+0100</time></trkpt>
707<trkpt lat="48.442976" lon="18.825589"><ele>729</ele><time>2017-01-22T12:51:58+0100</time></trkpt>
708<trkpt lat="48.443081" lon="18.825605"><ele>727</ele><time>2017-01-22T12:52:04+0100</time></trkpt>
709<trkpt lat="48.443184" lon="18.825685"><ele>719</ele><time>2017-01-22T12:52:11+0100</time></trkpt>
710<trkpt lat="48.443292" lon="18.825680"><ele>727</ele><time>2017-01-22T12:52:19+0100</time></trkpt>
711<trkpt lat="48.443386" lon="18.825701"><ele>737</ele><time>2017-01-22T12:52:32+0100</time></trkpt>
712<trkpt lat="48.443473" lon="18.825780"><ele>738</ele><time>2017-01-22T12:52:40+0100</time></trkpt>
713<trkpt lat="48.443569" lon="18.825826"><ele>742</ele><time>2017-01-22T12:52:49+0100</time></trkpt>
714<trkpt lat="48.443656" lon="18.825895"><ele>745</ele><time>2017-01-22T12:52:59+0100</time></trkpt>
715<trkpt lat="48.443753" lon="18.825946"><ele>746</ele><time>2017-01-22T12:53:07+0100</time></trkpt>
716<trkpt lat="48.443854" lon="18.826017"><ele>743</ele><time>2017-01-22T12:53:13+0100</time></trkpt>
717<trkpt lat="48.443844" lon="18.826165"><ele>741</ele><time>2017-01-22T12:53:24+0100</time></trkpt>
718<trkpt lat="48.443825" lon="18.826302"><ele>740</ele><time>2017-01-22T12:53:38+0100</time></trkpt>
719<trkpt lat="48.443856" lon="18.826446"><ele>738</ele><time>2017-01-22T12:53:49+0100</time></trkpt>
720<trkpt lat="48.443883" lon="18.826592"><ele>742</ele><time>2017-01-22T12:54:01+0100</time></trkpt>
721<trkpt lat="48.443861" lon="18.826740"><ele>753</ele><time>2017-01-22T12:54:14+0100</time></trkpt>
722<trkpt lat="48.443824" lon="18.826864"><ele>748</ele><time>2017-01-22T12:54:24+0100</time></trkpt>
723<trkpt lat="48.443789" lon="18.827030"><ele>753</ele><time>2017-01-22T12:55:02+0100</time></trkpt>
724<trkpt lat="48.443738" lon="18.827162"><ele>757</ele><time>2017-01-22T12:55:10+0100</time></trkpt>
725<trkpt lat="48.443685" lon="18.827291"><ele>749</ele><time>2017-01-22T12:55:16+0100</time></trkpt>
726<trkpt lat="48.443655" lon="18.827440"><ele>746</ele><time>2017-01-22T12:55:25+0100</time></trkpt>
727<trkpt lat="48.443606" lon="18.827570"><ele>754</ele><time>2017-01-22T12:55:33+0100</time></trkpt>
728<trkpt lat="48.443551" lon="18.827711"><ele>757</ele><time>2017-01-22T12:55:42+0100</time></trkpt>
729<trkpt lat="48.443514" lon="18.827861"><ele>764</ele><time>2017-01-22T12:55:46+0100</time></trkpt>
730<trkpt lat="48.443489" lon="18.828009"><ele>769</ele><time>2017-01-22T12:55:54+0100</time></trkpt>
731<trkpt lat="48.443461" lon="18.828150"><ele>773</ele><time>2017-01-22T12:56:03+0100</time></trkpt>
732<trkpt lat="48.443401" lon="18.828261"><ele>775</ele><time>2017-01-22T12:56:23+0100</time></trkpt>
733<trkpt lat="48.443303" lon="18.828367"><ele>768</ele><time>2017-01-22T12:56:44+0100</time></trkpt>
734<trkpt lat="48.443211" lon="18.828412"><ele>761</ele><time>2017-01-22T12:56:53+0100</time></trkpt>
735<trkpt lat="48.443144" lon="18.828511"><ele>769</ele><time>2017-01-22T12:57:03+0100</time></trkpt>
736<trkpt lat="48.443080" lon="18.828626"><ele>766</ele><time>2017-01-22T12:57:12+0100</time></trkpt>
737<trkpt lat="48.443009" lon="18.828732"><ele>774</ele><time>2017-01-22T12:57:22+0100</time></trkpt>
738<trkpt lat="48.442936" lon="18.828902"><ele>779</ele><time>2017-01-22T12:57:39+0100</time></trkpt>
739<trkpt lat="48.442899" lon="18.829027"><ele>792</ele><time>2017-01-22T12:57:54+0100</time></trkpt>
740<trkpt lat="48.442845" lon="18.829155"><ele>800</ele><time>2017-01-22T12:58:02+0100</time></trkpt>
741<trkpt lat="48.442778" lon="18.829284"><ele>801</ele><time>2017-01-22T12:58:10+0100</time></trkpt>
742<trkpt lat="48.442712" lon="18.829383"><ele>797</ele><time>2017-01-22T12:58:17+0100</time></trkpt>
743<trkpt lat="48.442642" lon="18.829486"><ele>800</ele><time>2017-01-22T12:58:23+0100</time></trkpt>
744<trkpt lat="48.442575" lon="18.829602"><ele>803</ele><time>2017-01-22T12:58:33+0100</time></trkpt>
745<trkpt lat="48.442588" lon="18.829745"><ele>802</ele><time>2017-01-22T12:58:42+0100</time></trkpt>
746<trkpt lat="48.442572" lon="18.829886"><ele>803</ele><time>2017-01-22T12:58:50+0100</time></trkpt>
747<trkpt lat="48.442604" lon="18.830038"><ele>803</ele><time>2017-01-22T12:58:58+0100</time></trkpt>
748<trkpt lat="48.442631" lon="18.830198"><ele>792</ele><time>2017-01-22T12:59:07+0100</time></trkpt>
749<trkpt lat="48.442665" lon="18.830327"><ele>789</ele><time>2017-01-22T12:59:09+0100</time></trkpt>
750<trkpt lat="48.442702" lon="18.830497"><ele>781</ele><time>2017-01-22T12:59:17+0100</time></trkpt>
751<trkpt lat="48.442675" lon="18.830670"><ele>774</ele><time>2017-01-22T12:59:23+0100</time></trkpt>
752<trkpt lat="48.442711" lon="18.830802"><ele>773</ele><time>2017-01-22T12:59:32+0100</time></trkpt>
753<trkpt lat="48.442752" lon="18.830936"><ele>767</ele><time>2017-01-22T12:59:38+0100</time></trkpt>
754<trkpt lat="48.442736" lon="18.831130"><ele>753</ele><time>2017-01-22T12:59:55+0100</time></trkpt>
755<trkpt lat="48.442677" lon="18.831248"><ele>751</ele><time>2017-01-22T13:00:07+0100</time></trkpt>
756<trkpt lat="48.442659" lon="18.831394"><ele>756</ele><time>2017-01-22T13:00:16+0100</time></trkpt>
757<trkpt lat="48.442585" lon="18.831521"><ele>751</ele><time>2017-01-22T13:00:24+0100</time></trkpt>
758<trkpt lat="48.442502" lon="18.831589"><ele>760</ele><time>2017-01-22T13:00:41+0100</time></trkpt>
759<trkpt lat="48.442448" lon="18.831722"><ele>760</ele><time>2017-01-22T13:00:51+0100</time></trkpt>
760<trkpt lat="48.442391" lon="18.831845"><ele>763</ele><time>2017-01-22T13:01:00+0100</time></trkpt>
761<trkpt lat="48.442384" lon="18.831987"><ele>765</ele><time>2017-01-22T13:01:08+0100</time></trkpt>
762<trkpt lat="48.442339" lon="18.832106"><ele>764</ele><time>2017-01-22T13:01:16+0100</time></trkpt>
763<trkpt lat="48.442258" lon="18.832194"><ele>760</ele><time>2017-01-22T13:01:25+0100</time></trkpt>
764<trkpt lat="48.442191" lon="18.832299"><ele>764</ele><time>2017-01-22T13:01:35+0100</time></trkpt>
765<trkpt lat="48.442126" lon="18.832420"><ele>763</ele><time>2017-01-22T13:01:46+0100</time></trkpt>
766<trkpt lat="48.442045" lon="18.832495"><ele>762</ele><time>2017-01-22T13:01:54+0100</time></trkpt>
767<trkpt lat="48.441951" lon="18.832550"><ele>753</ele><time>2017-01-22T13:02:03+0100</time></trkpt>
768<trkpt lat="48.441863" lon="18.832648"><ele>751</ele><time>2017-01-22T13:02:11+0100</time></trkpt>
769<trkpt lat="48.441807" lon="18.832776"><ele>754</ele><time>2017-01-22T13:02:22+0100</time></trkpt>
770<trkpt lat="48.441731" lon="18.832890"><ele>765</ele><time>2017-01-22T13:02:30+0100</time></trkpt>
771<trkpt lat="48.441643" lon="18.832934"><ele>772</ele><time>2017-01-22T13:02:45+0100</time></trkpt>
772<trkpt lat="48.441536" lon="18.832946"><ele>761</ele><time>2017-01-22T13:02:53+0100</time></trkpt>
773<trkpt lat="48.441439" lon="18.832916"><ele>759</ele><time>2017-01-22T13:03:04+0100</time></trkpt>
774<trkpt lat="48.441341" lon="18.832908"><ele>761</ele><time>2017-01-22T13:03:16+0100</time></trkpt>
775<trkpt lat="48.441246" lon="18.832858"><ele>758</ele><time>2017-01-22T13:03:27+0100</time></trkpt>
776<trkpt lat="48.441153" lon="18.832749"><ele>756</ele><time>2017-01-22T13:03:31+0100</time></trkpt>
777<trkpt lat="48.441045" lon="18.832732"><ele>753</ele><time>2017-01-22T13:03:41+0100</time></trkpt>
778<trkpt lat="48.440953" lon="18.832743"><ele>756</ele><time>2017-01-22T13:03:48+0100</time></trkpt>
779<trkpt lat="48.440848" lon="18.832818"><ele>758</ele><time>2017-01-22T13:03:56+0100</time></trkpt>
780<trkpt lat="48.440750" lon="18.832883"><ele>759</ele><time>2017-01-22T13:04:00+0100</time></trkpt>
781<trkpt lat="48.440648" lon="18.832975"><ele>756</ele><time>2017-01-22T13:04:07+0100</time></trkpt>
782<trkpt lat="48.440570" lon="18.833092"><ele>753</ele><time>2017-01-22T13:04:13+0100</time></trkpt>
783<trkpt lat="48.440532" lon="18.833216"><ele>762</ele><time>2017-01-22T13:04:23+0100</time></trkpt>
784<trkpt lat="48.440486" lon="18.833375"><ele>764</ele><time>2017-01-22T13:04:32+0100</time></trkpt>
785<trkpt lat="48.440425" lon="18.833486"><ele>761</ele><time>2017-01-22T13:04:46+0100</time></trkpt>
786<trkpt lat="48.440389" lon="18.833641"><ele>761</ele><time>2017-01-22T13:04:55+0100</time></trkpt>
787<trkpt lat="48.440320" lon="18.833743"><ele>763</ele><time>2017-01-22T13:05:03+0100</time></trkpt>
788<trkpt lat="48.440248" lon="18.833849"><ele>762</ele><time>2017-01-22T13:05:12+0100</time></trkpt>
789<trkpt lat="48.440226" lon="18.834024"><ele>760</ele><time>2017-01-22T13:05:16+0100</time></trkpt>
790<trkpt lat="48.440206" lon="18.834172"><ele>761</ele><time>2017-01-22T13:05:22+0100</time></trkpt>
791<trkpt lat="48.440128" lon="18.834245"><ele>769</ele><time>2017-01-22T13:05:33+0100</time></trkpt>
792<trkpt lat="48.440058" lon="18.834349"><ele>774</ele><time>2017-01-22T13:05:45+0100</time></trkpt>
793<trkpt lat="48.439993" lon="18.834456"><ele>774</ele><time>2017-01-22T13:05:56+0100</time></trkpt>
794<trkpt lat="48.439995" lon="18.834652"><ele>779</ele><time>2017-01-22T13:06:19+0100</time></trkpt>
795<trkpt lat="48.440011" lon="18.834858"><ele>768</ele><time>2017-01-22T13:06:35+0100</time></trkpt>
796<trkpt lat="48.439952" lon="18.834973"><ele>761</ele><time>2017-01-22T13:06:42+0100</time></trkpt>
797<trkpt lat="48.439910" lon="18.835114"><ele>765</ele><time>2017-01-22T13:06:54+0100</time></trkpt>
798<trkpt lat="48.439889" lon="18.835292"><ele>768</ele><time>2017-01-22T13:07:00+0100</time></trkpt>
799<trkpt lat="48.439857" lon="18.835453"><ele>774</ele><time>2017-01-22T13:07:07+0100</time></trkpt>
800<trkpt lat="48.439788" lon="18.835548"><ele>774</ele><time>2017-01-22T13:07:15+0100</time></trkpt>
801<trkpt lat="48.439706" lon="18.835621"><ele>768</ele><time>2017-01-22T13:07:23+0100</time></trkpt>
802<trkpt lat="48.439601" lon="18.835658"><ele>763</ele><time>2017-01-22T13:07:32+0100</time></trkpt>
803<trkpt lat="48.439509" lon="18.835691"><ele>761</ele><time>2017-01-22T13:07:36+0100</time></trkpt>
804<trkpt lat="48.439403" lon="18.835721"><ele>761</ele><time>2017-01-22T13:07:44+0100</time></trkpt>
805<trkpt lat="48.439303" lon="18.835799"><ele>759</ele><time>2017-01-22T13:07:48+0100</time></trkpt>
806<trkpt lat="48.439206" lon="18.835861"><ele>763</ele><time>2017-01-22T13:07:56+0100</time></trkpt>
807<trkpt lat="48.439112" lon="18.835907"><ele>764</ele><time>2017-01-22T13:08:05+0100</time></trkpt>
808<trkpt lat="48.439005" lon="18.835922"><ele>760</ele><time>2017-01-22T13:08:11+0100</time></trkpt>
809<trkpt lat="48.438927" lon="18.836013"><ele>757</ele><time>2017-01-22T13:08:19+0100</time></trkpt>
810<trkpt lat="48.438834" lon="18.836070"><ele>760</ele><time>2017-01-22T13:08:28+0100</time></trkpt>
811<trkpt lat="48.438750" lon="18.836138"><ele>758</ele><time>2017-01-22T13:08:36+0100</time></trkpt>
812<trkpt lat="48.438657" lon="18.836204"><ele>761</ele><time>2017-01-22T13:08:45+0100</time></trkpt>
813<trkpt lat="48.438583" lon="18.836301"><ele>760</ele><time>2017-01-22T13:09:01+0100</time></trkpt>
814<trkpt lat="48.438486" lon="18.836355"><ele>758</ele><time>2017-01-22T13:09:10+0100</time></trkpt>
815<trkpt lat="48.438392" lon="18.836394"><ele>764</ele><time>2017-01-22T13:09:20+0100</time></trkpt>
816<trkpt lat="48.438285" lon="18.836407"><ele>768</ele><time>2017-01-22T13:09:28+0100</time></trkpt>
817<trkpt lat="48.438182" lon="18.836428"><ele>769</ele><time>2017-01-22T13:09:35+0100</time></trkpt>
818<trkpt lat="48.438106" lon="18.836504"><ele>777</ele><time>2017-01-22T13:09:45+0100</time></trkpt>
819<trkpt lat="48.438000" lon="18.836531"><ele>776</ele><time>2017-01-22T13:09:54+0100</time></trkpt>
820<trkpt lat="48.437908" lon="18.836610"><ele>778</ele><time>2017-01-22T13:10:00+0100</time></trkpt>
821<trkpt lat="48.437842" lon="18.836704"><ele>785</ele><time>2017-01-22T13:10:10+0100</time></trkpt>
822<trkpt lat="48.437797" lon="18.836835"><ele>789</ele><time>2017-01-22T13:10:19+0100</time></trkpt>
823<trkpt lat="48.437740" lon="18.836961"><ele>779</ele><time>2017-01-22T13:10:29+0100</time></trkpt>
824<trkpt lat="48.437648" lon="18.837021"><ele>778</ele><time>2017-01-22T13:10:42+0100</time></trkpt>
825<trkpt lat="48.437662" lon="18.837202"><ele>779</ele><time>2017-01-22T13:11:47+0100</time></trkpt>
826<trkpt lat="48.437606" lon="18.837330"><ele>783</ele><time>2017-01-22T13:11:55+0100</time></trkpt>
827<trkpt lat="48.437514" lon="18.837391"><ele>780</ele><time>2017-01-22T13:12:01+0100</time></trkpt>
828<trkpt lat="48.437445" lon="18.837489"><ele>775</ele><time>2017-01-22T13:12:08+0100</time></trkpt>
829<trkpt lat="48.437330" lon="18.837520"><ele>772</ele><time>2017-01-22T13:12:14+0100</time></trkpt>
830<trkpt lat="48.437286" lon="18.837661"><ele>779</ele><time>2017-01-22T13:12:22+0100</time></trkpt>
831<trkpt lat="48.437255" lon="18.837823"><ele>761</ele><time>2017-01-22T13:12:43+0100</time></trkpt>
832<trkpt lat="48.437214" lon="18.837963"><ele>763</ele><time>2017-01-22T13:15:10+0100</time></trkpt>
833<trkpt lat="48.437207" lon="18.838160"><ele>764</ele><time>2017-01-22T13:15:14+0100</time></trkpt>
834<trkpt lat="48.437164" lon="18.838301"><ele>767</ele><time>2017-01-22T13:15:18+0100</time></trkpt>
835<trkpt lat="48.437196" lon="18.838451"><ele>783</ele><time>2017-01-22T13:15:35+0100</time></trkpt>
836<trkpt lat="48.437224" lon="18.838587"><ele>770</ele><time>2017-01-22T13:15:43+0100</time></trkpt>
837<trkpt lat="48.437235" lon="18.838723"><ele>769</ele><time>2017-01-22T13:15:52+0100</time></trkpt>
838<trkpt lat="48.437195" lon="18.838861"><ele>767</ele><time>2017-01-22T13:16:07+0100</time></trkpt>
839<trkpt lat="48.437194" lon="18.839028"><ele>761</ele><time>2017-01-22T13:17:14+0100</time></trkpt>
840<trkpt lat="48.437202" lon="18.839189"><ele>758</ele><time>2017-01-22T13:17:18+0100</time></trkpt>
841<trkpt lat="48.437189" lon="18.839346"><ele>753</ele><time>2017-01-22T13:17:22+0100</time></trkpt>
842<trkpt lat="48.437143" lon="18.839478"><ele>759</ele><time>2017-01-22T13:17:34+0100</time></trkpt>
843<trkpt lat="48.437106" lon="18.839608"><ele>762</ele><time>2017-01-22T13:17:49+0100</time></trkpt>
844<trkpt lat="48.437067" lon="18.839732"><ele>764</ele><time>2017-01-22T13:18:04+0100</time></trkpt>
845<trkpt lat="48.437030" lon="18.839883"><ele>767</ele><time>2017-01-22T13:18:29+0100</time></trkpt>
846<trkpt lat="48.437013" lon="18.840034"><ele>769</ele><time>2017-01-22T13:18:40+0100</time></trkpt>
847<trkpt lat="48.436907" lon="18.840140"><ele>762</ele><time>2017-01-22T13:18:58+0100</time></trkpt>
848<trkpt lat="48.436842" lon="18.840254"><ele>763</ele><time>2017-01-22T13:19:07+0100</time></trkpt>
849<trkpt lat="48.436794" lon="18.840451"><ele>767</ele><time>2017-01-22T13:19:22+0100</time></trkpt>
850<trkpt lat="48.436722" lon="18.840559"><ele>764</ele><time>2017-01-22T13:19:32+0100</time></trkpt>
851<trkpt lat="48.436653" lon="18.840647"><ele>760</ele><time>2017-01-22T13:19:45+0100</time></trkpt>
852<trkpt lat="48.436598" lon="18.840765"><ele>760</ele><time>2017-01-22T13:19:53+0100</time></trkpt>
853<trkpt lat="48.436518" lon="18.840834"><ele>762</ele><time>2017-01-22T13:20:06+0100</time></trkpt>
854<trkpt lat="48.436454" lon="18.840942"><ele>767</ele><time>2017-01-22T13:20:14+0100</time></trkpt>
855<trkpt lat="48.436375" lon="18.841059"><ele>769</ele><time>2017-01-22T13:20:20+0100</time></trkpt>
856<trkpt lat="48.436302" lon="18.841167"><ele>762</ele><time>2017-01-22T13:20:29+0100</time></trkpt>
857<trkpt lat="48.436260" lon="18.841320"><ele>764</ele><time>2017-01-22T13:20:37+0100</time></trkpt>
858<trkpt lat="48.436244" lon="18.841472"><ele>771</ele><time>2017-01-22T13:20:43+0100</time></trkpt>
859<trkpt lat="48.436235" lon="18.841619"><ele>770</ele><time>2017-01-22T13:20:56+0100</time></trkpt>
860<trkpt lat="48.436195" lon="18.841800"><ele>775</ele><time>2017-01-22T13:21:48+0100</time></trkpt>
861<trkpt lat="48.436174" lon="18.841992"><ele>768</ele><time>2017-01-22T13:21:52+0100</time></trkpt>
862<trkpt lat="48.436121" lon="18.842109"><ele>767</ele><time>2017-01-22T13:21:59+0100</time></trkpt>
863<trkpt lat="48.436046" lon="18.842211"><ele>783</ele><time>2017-01-22T13:22:15+0100</time></trkpt>
864<trkpt lat="48.435968" lon="18.842286"><ele>787</ele><time>2017-01-22T13:22:26+0100</time></trkpt>
865<trkpt lat="48.435876" lon="18.842350"><ele>793</ele><time>2017-01-22T13:22:34+0100</time></trkpt>
866<trkpt lat="48.435780" lon="18.842388"><ele>799</ele><time>2017-01-22T13:22:47+0100</time></trkpt>
867<trkpt lat="48.435725" lon="18.842512"><ele>786</ele><time>2017-01-22T13:22:53+0100</time></trkpt>
868<trkpt lat="48.435636" lon="18.842706"><ele>778</ele><time>2017-01-22T13:23:10+0100</time></trkpt>
869<trkpt lat="48.435549" lon="18.842778"><ele>784</ele><time>2017-01-22T13:23:20+0100</time></trkpt>
870<trkpt lat="48.435480" lon="18.842915"><ele>781</ele><time>2017-01-22T13:23:26+0100</time></trkpt>
871<trkpt lat="48.435554" lon="18.843090"><ele>788</ele><time>2017-01-22T13:23:43+0100</time></trkpt>
872<trkpt lat="48.435640" lon="18.843149"><ele>790</ele><time>2017-01-22T13:23:52+0100</time></trkpt>
873<trkpt lat="48.435715" lon="18.843253"><ele>790</ele><time>2017-01-22T13:23:58+0100</time></trkpt>
874<trkpt lat="48.435772" lon="18.843370"><ele>791</ele><time>2017-01-22T13:24:04+0100</time></trkpt>
875<trkpt lat="48.435838" lon="18.843499"><ele>789</ele><time>2017-01-22T13:24:08+0100</time></trkpt>
876<trkpt lat="48.435925" lon="18.843607"><ele>789</ele><time>2017-01-22T13:24:13+0100</time></trkpt>
877<trkpt lat="48.435957" lon="18.843736"><ele>785</ele><time>2017-01-22T13:24:23+0100</time></trkpt>
878<trkpt lat="48.436023" lon="18.843850"><ele>783</ele><time>2017-01-22T13:24:27+0100</time></trkpt>
879<trkpt lat="48.436058" lon="18.844006"><ele>786</ele><time>2017-01-22T13:24:33+0100</time></trkpt>
880<trkpt lat="48.436155" lon="18.844205"><ele>783</ele><time>2017-01-22T13:24:38+0100</time></trkpt>
881<trkpt lat="48.436213" lon="18.844388"><ele>784</ele><time>2017-01-22T13:24:42+0100</time></trkpt>
882<trkpt lat="48.436251" lon="18.844598"><ele>787</ele><time>2017-01-22T13:24:44+0100</time></trkpt>
883<trkpt lat="48.436360" lon="18.844652"><ele>773</ele><time>2017-01-22T13:25:07+0100</time></trkpt>
884<trkpt lat="48.436456" lon="18.844593"><ele>775</ele><time>2017-01-22T13:25:15+0100</time></trkpt>
885<trkpt lat="48.436550" lon="18.844540"><ele>775</ele><time>2017-01-22T13:25:22+0100</time></trkpt>
886<trkpt lat="48.436655" lon="18.844531"><ele>776</ele><time>2017-01-22T13:25:28+0100</time></trkpt>
887<trkpt lat="48.436738" lon="18.844612"><ele>776</ele><time>2017-01-22T13:25:36+0100</time></trkpt>
888<trkpt lat="48.436833" lon="18.844616"><ele>777</ele><time>2017-01-22T13:25:55+0100</time></trkpt>
889<trkpt lat="48.436958" lon="18.844605"><ele>775</ele><time>2017-01-22T13:25:59+0100</time></trkpt>
890<trkpt lat="48.437063" lon="18.844536"><ele>771</ele><time>2017-01-22T13:26:03+0100</time></trkpt>
891<trkpt lat="48.437174" lon="18.844546"><ele>768</ele><time>2017-01-22T13:26:10+0100</time></trkpt>
892<trkpt lat="48.437316" lon="18.844594"><ele>771</ele><time>2017-01-22T13:26:14+0100</time></trkpt>
893<trkpt lat="48.437422" lon="18.844646"><ele>773</ele><time>2017-01-22T13:26:18+0100</time></trkpt>
894<trkpt lat="48.437526" lon="18.844653"><ele>775</ele><time>2017-01-22T13:26:26+0100</time></trkpt>
895<trkpt lat="48.437628" lon="18.844635"><ele>777</ele><time>2017-01-22T13:26:31+0100</time></trkpt>
896<trkpt lat="48.437720" lon="18.844625"><ele>780</ele><time>2017-01-22T13:26:37+0100</time></trkpt>
897<trkpt lat="48.437825" lon="18.844633"><ele>781</ele><time>2017-01-22T13:26:43+0100</time></trkpt>
898<trkpt lat="48.437928" lon="18.844691"><ele>779</ele><time>2017-01-22T13:26:52+0100</time></trkpt>
899<trkpt lat="48.438030" lon="18.844764"><ele>781</ele><time>2017-01-22T13:26:56+0100</time></trkpt>
900<trkpt lat="48.438132" lon="18.844863"><ele>777</ele><time>2017-01-22T13:27:00+0100</time></trkpt>
901<trkpt lat="48.438214" lon="18.844958"><ele>775</ele><time>2017-01-22T13:27:06+0100</time></trkpt>
902<trkpt lat="48.438302" lon="18.845014"><ele>778</ele><time>2017-01-22T13:27:10+0100</time></trkpt>
903<trkpt lat="48.438372" lon="18.845103"><ele>780</ele><time>2017-01-22T13:27:15+0100</time></trkpt>
904<trkpt lat="48.438505" lon="18.845188"><ele>785</ele><time>2017-01-22T13:27:19+0100</time></trkpt>
905<trkpt lat="48.438597" lon="18.845232"><ele>789</ele><time>2017-01-22T13:27:23+0100</time></trkpt>
906<trkpt lat="48.438684" lon="18.845304"><ele>785</ele><time>2017-01-22T13:27:27+0100</time></trkpt>
907<trkpt lat="48.438763" lon="18.845401"><ele>784</ele><time>2017-01-22T13:27:34+0100</time></trkpt>
908<trkpt lat="48.438823" lon="18.845528"><ele>785</ele><time>2017-01-22T13:27:40+0100</time></trkpt>
909<trkpt lat="48.438916" lon="18.845565"><ele>793</ele><time>2017-01-22T13:27:46+0100</time></trkpt>
910<trkpt lat="48.439026" lon="18.845585"><ele>799</ele><time>2017-01-22T13:27:53+0100</time></trkpt>
911<trkpt lat="48.439120" lon="18.845576"><ele>799</ele><time>2017-01-22T13:27:57+0100</time></trkpt>
912<trkpt lat="48.439211" lon="18.845537"><ele>803</ele><time>2017-01-22T13:28:05+0100</time></trkpt>
913<trkpt lat="48.439322" lon="18.845535"><ele>806</ele><time>2017-01-22T13:28:14+0100</time></trkpt>
914<trkpt lat="48.439419" lon="18.845503"><ele>809</ele><time>2017-01-22T13:28:20+0100</time></trkpt>
915<trkpt lat="48.439515" lon="18.845437"><ele>808</ele><time>2017-01-22T13:28:24+0100</time></trkpt>
916<trkpt lat="48.439628" lon="18.845334"><ele>807</ele><time>2017-01-22T13:28:28+0100</time></trkpt>
917<trkpt lat="48.439714" lon="18.845246"><ele>808</ele><time>2017-01-22T13:28:35+0100</time></trkpt>
918<trkpt lat="48.439811" lon="18.845189"><ele>807</ele><time>2017-01-22T13:28:43+0100</time></trkpt>
919<trkpt lat="48.439900" lon="18.845121"><ele>811</ele><time>2017-01-22T13:28:52+0100</time></trkpt>
920<trkpt lat="48.439984" lon="18.845018"><ele>814</ele><time>2017-01-22T13:28:56+0100</time></trkpt>
921<trkpt lat="48.440067" lon="18.844948"><ele>815</ele><time>2017-01-22T13:29:00+0100</time></trkpt>
922<trkpt lat="48.440168" lon="18.844858"><ele>808</ele><time>2017-01-22T13:29:06+0100</time></trkpt>
923<trkpt lat="48.440261" lon="18.844805"><ele>810</ele><time>2017-01-22T13:29:10+0100</time></trkpt>
924<trkpt lat="48.440354" lon="18.844742"><ele>810</ele><time>2017-01-22T13:29:15+0100</time></trkpt>
925<trkpt lat="48.440449" lon="18.844659"><ele>809</ele><time>2017-01-22T13:29:19+0100</time></trkpt>
926<trkpt lat="48.440579" lon="18.844580"><ele>794</ele><time>2017-01-22T13:29:25+0100</time></trkpt>
927<trkpt lat="48.440700" lon="18.844555"><ele>790</ele><time>2017-01-22T13:29:29+0100</time></trkpt>
928<trkpt lat="48.440793" lon="18.844603"><ele>785</ele><time>2017-01-22T13:30:11+0100</time></trkpt>
929<trkpt lat="48.440807" lon="18.844740"><ele>785</ele><time>2017-01-22T13:30:18+0100</time></trkpt>
930<trkpt lat="48.440784" lon="18.844915"><ele>779</ele><time>2017-01-22T13:30:22+0100</time></trkpt>
931<trkpt lat="48.440715" lon="18.845110"><ele>774</ele><time>2017-01-22T13:30:26+0100</time></trkpt>
932<trkpt lat="48.440772" lon="18.845244"><ele>775</ele><time>2017-01-22T13:30:30+0100</time></trkpt>
933<trkpt lat="48.440821" lon="18.845389"><ele>776</ele><time>2017-01-22T13:30:39+0100</time></trkpt>
934<trkpt lat="48.440886" lon="18.845534"><ele>781</ele><time>2017-01-22T13:30:43+0100</time></trkpt>
935<trkpt lat="48.440934" lon="18.845705"><ele>782</ele><time>2017-01-22T13:30:49+0100</time></trkpt>
936<trkpt lat="48.440948" lon="18.845847"><ele>780</ele><time>2017-01-22T13:30:55+0100</time></trkpt>
937<trkpt lat="48.440980" lon="18.845976"><ele>780</ele><time>2017-01-22T13:31:00+0100</time></trkpt>
938<trkpt lat="48.441034" lon="18.846135"><ele>780</ele><time>2017-01-22T13:31:06+0100</time></trkpt>
939<trkpt lat="48.441063" lon="18.846292"><ele>782</ele><time>2017-01-22T13:31:12+0100</time></trkpt>
940<trkpt lat="48.441086" lon="18.846445"><ele>780</ele><time>2017-01-22T13:31:16+0100</time></trkpt>
941<trkpt lat="48.441104" lon="18.846600"><ele>781</ele><time>2017-01-22T13:31:20+0100</time></trkpt>
942<trkpt lat="48.441129" lon="18.846768"><ele>782</ele><time>2017-01-22T13:31:25+0100</time></trkpt>
943<trkpt lat="48.441145" lon="18.846921"><ele>782</ele><time>2017-01-22T13:31:29+0100</time></trkpt>
944<trkpt lat="48.441175" lon="18.847053"><ele>783</ele><time>2017-01-22T13:31:31+0100</time></trkpt>
945<trkpt lat="48.441213" lon="18.847189"><ele>787</ele><time>2017-01-22T13:31:35+0100</time></trkpt>
946<trkpt lat="48.441275" lon="18.847294"><ele>790</ele><time>2017-01-22T13:31:39+0100</time></trkpt>
947<trkpt lat="48.441328" lon="18.847474"><ele>785</ele><time>2017-01-22T13:31:46+0100</time></trkpt>
948<trkpt lat="48.441398" lon="18.847613"><ele>779</ele><time>2017-01-22T13:31:52+0100</time></trkpt>
949<trkpt lat="48.441452" lon="18.847786"><ele>774</ele><time>2017-01-22T13:31:58+0100</time></trkpt>
950<trkpt lat="48.441510" lon="18.847914"><ele>776</ele><time>2017-01-22T13:32:04+0100</time></trkpt>
951<trkpt lat="48.441597" lon="18.848004"><ele>778</ele><time>2017-01-22T13:32:11+0100</time></trkpt>
952<trkpt lat="48.441690" lon="18.848105"><ele>780</ele><time>2017-01-22T13:32:15+0100</time></trkpt>
953<trkpt lat="48.441780" lon="18.848176"><ele>787</ele><time>2017-01-22T13:32:19+0100</time></trkpt>
954<trkpt lat="48.441870" lon="18.848258"><ele>789</ele><time>2017-01-22T13:32:23+0100</time></trkpt>
955<trkpt lat="48.441959" lon="18.848315"><ele>790</ele><time>2017-01-22T13:32:28+0100</time></trkpt>
956<trkpt lat="48.442053" lon="18.848376"><ele>789</ele><time>2017-01-22T13:32:32+0100</time></trkpt>
957<trkpt lat="48.442139" lon="18.848429"><ele>790</ele><time>2017-01-22T13:32:38+0100</time></trkpt>
958<trkpt lat="48.442225" lon="18.848364"><ele>794</ele><time>2017-01-22T13:32:44+0100</time></trkpt>
959<trkpt lat="48.442316" lon="18.848296"><ele>795</ele><time>2017-01-22T13:32:51+0100</time></trkpt>
960<trkpt lat="48.442424" lon="18.848213"><ele>799</ele><time>2017-01-22T13:32:57+0100</time></trkpt>
961<trkpt lat="48.442524" lon="18.848133"><ele>799</ele><time>2017-01-22T13:33:03+0100</time></trkpt>
962<trkpt lat="48.442638" lon="18.848137"><ele>803</ele><time>2017-01-22T13:33:10+0100</time></trkpt>
963<trkpt lat="48.442749" lon="18.848135"><ele>802</ele><time>2017-01-22T13:33:16+0100</time></trkpt>
964<trkpt lat="48.442856" lon="18.848059"><ele>802</ele><time>2017-01-22T13:33:20+0100</time></trkpt>
965<trkpt lat="48.442960" lon="18.848011"><ele>802</ele><time>2017-01-22T13:33:26+0100</time></trkpt>
966<trkpt lat="48.443080" lon="18.847951"><ele>800</ele><time>2017-01-22T13:33:31+0100</time></trkpt>
967<trkpt lat="48.443198" lon="18.847904"><ele>797</ele><time>2017-01-22T13:33:35+0100</time></trkpt>
968<trkpt lat="48.443303" lon="18.847884"><ele>793</ele><time>2017-01-22T13:33:37+0100</time></trkpt>
969<trkpt lat="48.443423" lon="18.847924"><ele>793</ele><time>2017-01-22T13:33:45+0100</time></trkpt>
970<trkpt lat="48.443446" lon="18.848111"><ele>785</ele><time>2017-01-22T13:33:54+0100</time></trkpt>
971<trkpt lat="48.443499" lon="18.848244"><ele>787</ele><time>2017-01-22T13:33:58+0100</time></trkpt>
972<trkpt lat="48.443564" lon="18.848383"><ele>787</ele><time>2017-01-22T13:34:04+0100</time></trkpt>
973<trkpt lat="48.443650" lon="18.848433"><ele>790</ele><time>2017-01-22T13:34:10+0100</time></trkpt>
974<trkpt lat="48.443756" lon="18.848467"><ele>789</ele><time>2017-01-22T13:34:19+0100</time></trkpt>
975<trkpt lat="48.443867" lon="18.848485"><ele>797</ele><time>2017-01-22T13:34:25+0100</time></trkpt>
976<trkpt lat="48.443963" lon="18.848507"><ele>795</ele><time>2017-01-22T13:34:29+0100</time></trkpt>
977<trkpt lat="48.444056" lon="18.848511"><ele>797</ele><time>2017-01-22T13:34:34+0100</time></trkpt>
978<trkpt lat="48.444152" lon="18.848509"><ele>799</ele><time>2017-01-22T13:34:38+0100</time></trkpt>
979<trkpt lat="48.444264" lon="18.848478"><ele>799</ele><time>2017-01-22T13:34:42+0100</time></trkpt>
980<trkpt lat="48.444346" lon="18.848339"><ele>806</ele><time>2017-01-22T13:34:48+0100</time></trkpt>
981<trkpt lat="48.444447" lon="18.848242"><ele>805</ele><time>2017-01-22T13:34:54+0100</time></trkpt>
982<trkpt lat="48.444538" lon="18.848175"><ele>801</ele><time>2017-01-22T13:34:58+0100</time></trkpt>
983<trkpt lat="48.444650" lon="18.848065"><ele>797</ele><time>2017-01-22T13:35:05+0100</time></trkpt>
984<trkpt lat="48.444737" lon="18.847983"><ele>802</ele><time>2017-01-22T13:35:09+0100</time></trkpt>
985<trkpt lat="48.444837" lon="18.847897"><ele>801</ele><time>2017-01-22T13:35:13+0100</time></trkpt>
986<trkpt lat="48.444937" lon="18.847838"><ele>801</ele><time>2017-01-22T13:35:17+0100</time></trkpt>
987<trkpt lat="48.445037" lon="18.847757"><ele>801</ele><time>2017-01-22T13:35:22+0100</time></trkpt>
988<trkpt lat="48.445164" lon="18.847679"><ele>799</ele><time>2017-01-22T13:35:24+0100</time></trkpt>
989<trkpt lat="48.445268" lon="18.847585"><ele>802</ele><time>2017-01-22T13:35:28+0100</time></trkpt>
990<trkpt lat="48.445375" lon="18.847491"><ele>797</ele><time>2017-01-22T13:35:34+0100</time></trkpt>
991<trkpt lat="48.445470" lon="18.847390"><ele>798</ele><time>2017-01-22T13:35:40+0100</time></trkpt>
992<trkpt lat="48.445554" lon="18.847286"><ele>797</ele><time>2017-01-22T13:35:46+0100</time></trkpt>
993<trkpt lat="48.445688" lon="18.847131"><ele>798</ele><time>2017-01-22T13:35:51+0100</time></trkpt>
994<trkpt lat="48.445772" lon="18.847024"><ele>796</ele><time>2017-01-22T13:35:55+0100</time></trkpt>
995<trkpt lat="48.445869" lon="18.846955"><ele>792</ele><time>2017-01-22T13:36:01+0100</time></trkpt>
996<trkpt lat="48.445964" lon="18.846892"><ele>791</ele><time>2017-01-22T13:36:10+0100</time></trkpt>
997<trkpt lat="48.446073" lon="18.846921"><ele>789</ele><time>2017-01-22T13:36:14+0100</time></trkpt>
998<trkpt lat="48.446195" lon="18.846967"><ele>790</ele><time>2017-01-22T13:36:18+0100</time></trkpt>
999<trkpt lat="48.446306" lon="18.846970"><ele>787</ele><time>2017-01-22T13:36:22+0100</time></trkpt>
1000<trkpt lat="48.446405" lon="18.846964"><ele>786</ele><time>2017-01-22T13:36:31+0100</time></trkpt>
1001<trkpt lat="48.446518" lon="18.847029"><ele>791</ele><time>2017-01-22T13:36:35+0100</time></trkpt>
1002<trkpt lat="48.446622" lon="18.847069"><ele>791</ele><time>2017-01-22T13:36:41+0100</time></trkpt>
1003<trkpt lat="48.446742" lon="18.847132"><ele>795</ele><time>2017-01-22T13:36:47+0100</time></trkpt>
1004<trkpt lat="48.446839" lon="18.847189"><ele>790</ele><time>2017-01-22T13:36:53+0100</time></trkpt>
1005<trkpt lat="48.446933" lon="18.847227"><ele>792</ele><time>2017-01-22T13:37:00+0100</time></trkpt>
1006<trkpt lat="48.447023" lon="18.847250"><ele>793</ele><time>2017-01-22T13:37:04+0100</time></trkpt>
1007<trkpt lat="48.447120" lon="18.847259"><ele>798</ele><time>2017-01-22T13:37:08+0100</time></trkpt>
1008<trkpt lat="48.447225" lon="18.847295"><ele>803</ele><time>2017-01-22T13:37:12+0100</time></trkpt>
1009<trkpt lat="48.447346" lon="18.847339"><ele>806</ele><time>2017-01-22T13:37:16+0100</time></trkpt>
1010<trkpt lat="48.447460" lon="18.847326"><ele>807</ele><time>2017-01-22T13:37:23+0100</time></trkpt>
1011<trkpt lat="48.447560" lon="18.847310"><ele>811</ele><time>2017-01-22T13:37:27+0100</time></trkpt>
1012<trkpt lat="48.447668" lon="18.847306"><ele>805</ele><time>2017-01-22T13:37:33+0100</time></trkpt>
1013<trkpt lat="48.447766" lon="18.847251"><ele>807</ele><time>2017-01-22T13:37:40+0100</time></trkpt>
1014<trkpt lat="48.447851" lon="18.847148"><ele>807</ele><time>2017-01-22T13:37:46+0100</time></trkpt>
1015<trkpt lat="48.447953" lon="18.847098"><ele>811</ele><time>2017-01-22T13:37:52+0100</time></trkpt>
1016<trkpt lat="48.448073" lon="18.847016"><ele>811</ele><time>2017-01-22T13:37:56+0100</time></trkpt>
1017<trkpt lat="48.448147" lon="18.846901"><ele>810</ele><time>2017-01-22T13:38:00+0100</time></trkpt>
1018<trkpt lat="48.448218" lon="18.846801"><ele>810</ele><time>2017-01-22T13:38:04+0100</time></trkpt>
1019<trkpt lat="48.448268" lon="18.846687"><ele>813</ele><time>2017-01-22T13:38:09+0100</time></trkpt>
1020<trkpt lat="48.448340" lon="18.846574"><ele>813</ele><time>2017-01-22T13:38:15+0100</time></trkpt>
1021<trkpt lat="48.448433" lon="18.846473"><ele>813</ele><time>2017-01-22T13:38:21+0100</time></trkpt>
1022<trkpt lat="48.448530" lon="18.846373"><ele>810</ele><time>2017-01-22T13:38:25+0100</time></trkpt>
1023<trkpt lat="48.448615" lon="18.846265"><ele>806</ele><time>2017-01-22T13:38:30+0100</time></trkpt>
1024<trkpt lat="48.448695" lon="18.846154"><ele>801</ele><time>2017-01-22T13:38:34+0100</time></trkpt>
1025<trkpt lat="48.448745" lon="18.846030"><ele>801</ele><time>2017-01-22T13:38:38+0100</time></trkpt>
1026<trkpt lat="48.448769" lon="18.845886"><ele>799</ele><time>2017-01-22T13:38:44+0100</time></trkpt>
1027<trkpt lat="48.448836" lon="18.845762"><ele>790</ele><time>2017-01-22T13:38:48+0100</time></trkpt>
1028<trkpt lat="48.448907" lon="18.845614"><ele>791</ele><time>2017-01-22T13:38:52+0100</time></trkpt>
1029<trkpt lat="48.448952" lon="18.845448"><ele>794</ele><time>2017-01-22T13:38:57+0100</time></trkpt>
1030<trkpt lat="48.448949" lon="18.845274"><ele>797</ele><time>2017-01-22T13:39:01+0100</time></trkpt>
1031<trkpt lat="48.448974" lon="18.845124"><ele>799</ele><time>2017-01-22T13:39:07+0100</time></trkpt>
1032<trkpt lat="48.449045" lon="18.845015"><ele>798</ele><time>2017-01-22T13:39:13+0100</time></trkpt>
1033<trkpt lat="48.449095" lon="18.844875"><ele>796</ele><time>2017-01-22T13:39:18+0100</time></trkpt>
1034<trkpt lat="48.449147" lon="18.844734"><ele>793</ele><time>2017-01-22T13:39:24+0100</time></trkpt>
1035<trkpt lat="48.449245" lon="18.844642"><ele>790</ele><time>2017-01-22T13:39:30+0100</time></trkpt>
1036<trkpt lat="48.449334" lon="18.844577"><ele>789</ele><time>2017-01-22T13:39:34+0100</time></trkpt>
1037<trkpt lat="48.449499" lon="18.844488"><ele>785</ele><time>2017-01-22T13:39:41+0100</time></trkpt>
1038<trkpt lat="48.449601" lon="18.844411"><ele>786</ele><time>2017-01-22T13:39:47+0100</time></trkpt>
1039<trkpt lat="48.449700" lon="18.844365"><ele>787</ele><time>2017-01-22T13:39:51+0100</time></trkpt>
1040<trkpt lat="48.449811" lon="18.844359"><ele>788</ele><time>2017-01-22T13:39:58+0100</time></trkpt>
1041<trkpt lat="48.449937" lon="18.844380"><ele>788</ele><time>2017-01-22T13:40:02+0100</time></trkpt>
1042<trkpt lat="48.450041" lon="18.844420"><ele>782</ele><time>2017-01-22T13:40:08+0100</time></trkpt>
1043<trkpt lat="48.450159" lon="18.844444"><ele>783</ele><time>2017-01-22T13:40:14+0100</time></trkpt>
1044<trkpt lat="48.450279" lon="18.844490"><ele>786</ele><time>2017-01-22T13:40:21+0100</time></trkpt>
1045<trkpt lat="48.450379" lon="18.844551"><ele>787</ele><time>2017-01-22T13:40:25+0100</time></trkpt>
1046<trkpt lat="48.450475" lon="18.844600"><ele>781</ele><time>2017-01-22T13:40:31+0100</time></trkpt>
1047<trkpt lat="48.450584" lon="18.844684"><ele>782</ele><time>2017-01-22T13:40:37+0100</time></trkpt>
1048<trkpt lat="48.450683" lon="18.844794"><ele>782</ele><time>2017-01-22T13:40:44+0100</time></trkpt>
1049<trkpt lat="48.450612" lon="18.844941"><ele>782</ele><time>2017-01-22T13:40:48+0100</time></trkpt>
1050<trkpt lat="48.450520" lon="18.845004"><ele>779</ele><time>2017-01-22T13:40:54+0100</time></trkpt>
1051<trkpt lat="48.450414" lon="18.845117"><ele>775</ele><time>2017-01-22T13:41:01+0100</time></trkpt>
1052<trkpt lat="48.450334" lon="18.845201"><ele>774</ele><time>2017-01-22T13:41:07+0100</time></trkpt>
1053<trkpt lat="48.450258" lon="18.845285"><ele>779</ele><time>2017-01-22T13:41:15+0100</time></trkpt>
1054<trkpt lat="48.450170" lon="18.845404"><ele>776</ele><time>2017-01-22T13:41:22+0100</time></trkpt>
1055<trkpt lat="48.450107" lon="18.845517"><ele>774</ele><time>2017-01-22T13:41:24+0100</time></trkpt>
1056<trkpt lat="48.450054" lon="18.845640"><ele>773</ele><time>2017-01-22T13:41:28+0100</time></trkpt>
1057<trkpt lat="48.450016" lon="18.845790"><ele>771</ele><time>2017-01-22T13:41:43+0100</time></trkpt>
1058<trkpt lat="48.450004" lon="18.845933"><ele>774</ele><time>2017-01-22T13:41:49+0100</time></trkpt>
1059<trkpt lat="48.450058" lon="18.846106"><ele>777</ele><time>2017-01-22T13:41:53+0100</time></trkpt>
1060<trkpt lat="48.450095" lon="18.846240"><ele>783</ele><time>2017-01-22T13:41:57+0100</time></trkpt>
1061<trkpt lat="48.450124" lon="18.846389"><ele>784</ele><time>2017-01-22T13:42:06+0100</time></trkpt>
1062<trkpt lat="48.450173" lon="18.846518"><ele>789</ele><time>2017-01-22T13:42:10+0100</time></trkpt>
1063<trkpt lat="48.450217" lon="18.846667"><ele>790</ele><time>2017-01-22T13:42:16+0100</time></trkpt>
1064<trkpt lat="48.450214" lon="18.846846"><ele>791</ele><time>2017-01-22T13:42:22+0100</time></trkpt>
1065<trkpt lat="48.450198" lon="18.847045"><ele>793</ele><time>2017-01-22T13:42:27+0100</time></trkpt>
1066<trkpt lat="48.450192" lon="18.847204"><ele>790</ele><time>2017-01-22T13:42:31+0100</time></trkpt>
1067<trkpt lat="48.450166" lon="18.847362"><ele>789</ele><time>2017-01-22T13:42:37+0100</time></trkpt>
1068<trkpt lat="48.450160" lon="18.847509"><ele>789</ele><time>2017-01-22T13:42:41+0100</time></trkpt>
1069<trkpt lat="48.450149" lon="18.847655"><ele>790</ele><time>2017-01-22T13:42:48+0100</time></trkpt>
1070<trkpt lat="48.450207" lon="18.847803"><ele>792</ele><time>2017-01-22T13:43:52+0100</time></trkpt>
1071<trkpt lat="48.450176" lon="18.847978"><ele>788</ele><time>2017-01-22T13:43:56+0100</time></trkpt>
1072<trkpt lat="48.450154" lon="18.848157"><ele>783</ele><time>2017-01-22T13:44:00+0100</time></trkpt>
1073<trkpt lat="48.450118" lon="18.848300"><ele>785</ele><time>2017-01-22T13:44:04+0100</time></trkpt>
1074<trkpt lat="48.450079" lon="18.848480"><ele>792</ele><time>2017-01-22T13:44:10+0100</time></trkpt>
1075<trkpt lat="48.450031" lon="18.848657"><ele>792</ele><time>2017-01-22T13:44:14+0100</time></trkpt>
1076<trkpt lat="48.449964" lon="18.848786"><ele>791</ele><time>2017-01-22T13:44:19+0100</time></trkpt>
1077<trkpt lat="48.449863" lon="18.848868"><ele>789</ele><time>2017-01-22T13:44:23+0100</time></trkpt>
1078<trkpt lat="48.449777" lon="18.848966"><ele>788</ele><time>2017-01-22T13:44:27+0100</time></trkpt>
1079<trkpt lat="48.449753" lon="18.849109"><ele>795</ele><time>2017-01-22T13:44:31+0100</time></trkpt>
1080<trkpt lat="48.449708" lon="18.849273"><ele>793</ele><time>2017-01-22T13:44:40+0100</time></trkpt>
1081<trkpt lat="48.449609" lon="18.849391"><ele>798</ele><time>2017-01-22T13:44:44+0100</time></trkpt>
1082<trkpt lat="48.449517" lon="18.849488"><ele>799</ele><time>2017-01-22T13:44:48+0100</time></trkpt>
1083<trkpt lat="48.449420" lon="18.849582"><ele>795</ele><time>2017-01-22T13:44:54+0100</time></trkpt>
1084<trkpt lat="48.449332" lon="18.849691"><ele>795</ele><time>2017-01-22T13:45:01+0100</time></trkpt>
1085<trkpt lat="48.449226" lon="18.849774"><ele>791</ele><time>2017-01-22T13:45:05+0100</time></trkpt>
1086<trkpt lat="48.449108" lon="18.849855"><ele>786</ele><time>2017-01-22T13:45:09+0100</time></trkpt>
1087<trkpt lat="48.449070" lon="18.850006"><ele>787</ele><time>2017-01-22T13:45:13+0100</time></trkpt>
1088<trkpt lat="48.449006" lon="18.850108"><ele>788</ele><time>2017-01-22T13:45:19+0100</time></trkpt>
1089<trkpt lat="48.448915" lon="18.850176"><ele>788</ele><time>2017-01-22T13:45:26+0100</time></trkpt>
1090<trkpt lat="48.448825" lon="18.850306"><ele>788</ele><time>2017-01-22T13:45:32+0100</time></trkpt>
1091<trkpt lat="48.448742" lon="18.850441"><ele>790</ele><time>2017-01-22T13:45:36+0100</time></trkpt>
1092<trkpt lat="48.448681" lon="18.850578"><ele>786</ele><time>2017-01-22T13:45:40+0100</time></trkpt>
1093<trkpt lat="48.448607" lon="18.850676"><ele>788</ele><time>2017-01-22T13:45:49+0100</time></trkpt>
1094<trkpt lat="48.448521" lon="18.850767"><ele>788</ele><time>2017-01-22T13:45:53+0100</time></trkpt>
1095<trkpt lat="48.448416" lon="18.850877"><ele>783</ele><time>2017-01-22T13:45:57+0100</time></trkpt>
1096<trkpt lat="48.448294" lon="18.850970"><ele>781</ele><time>2017-01-22T13:46:01+0100</time></trkpt>
1097<trkpt lat="48.448180" lon="18.851055"><ele>782</ele><time>2017-01-22T13:46:05+0100</time></trkpt>
1098<trkpt lat="48.448082" lon="18.851106"><ele>782</ele><time>2017-01-22T13:46:10+0100</time></trkpt>
1099<trkpt lat="48.447984" lon="18.851130"><ele>785</ele><time>2017-01-22T13:46:14+0100</time></trkpt>
1100<trkpt lat="48.447890" lon="18.851090"><ele>791</ele><time>2017-01-22T13:46:24+0100</time></trkpt>
1101<trkpt lat="48.447737" lon="18.851054"><ele>792</ele><time>2017-01-22T13:46:33+0100</time></trkpt>
1102<trkpt lat="48.447642" lon="18.851042"><ele>794</ele><time>2017-01-22T13:46:37+0100</time></trkpt>
1103<trkpt lat="48.447547" lon="18.851047"><ele>795</ele><time>2017-01-22T13:46:45+0100</time></trkpt>
1104<trkpt lat="48.447440" lon="18.851021"><ele>793</ele><time>2017-01-22T13:46:54+0100</time></trkpt>
1105<trkpt lat="48.447333" lon="18.851020"><ele>794</ele><time>2017-01-22T13:46:58+0100</time></trkpt>
1106<trkpt lat="48.447228" lon="18.851028"><ele>797</ele><time>2017-01-22T13:47:02+0100</time></trkpt>
1107<trkpt lat="48.447129" lon="18.851112"><ele>803</ele><time>2017-01-22T13:47:08+0100</time></trkpt>
1108<trkpt lat="48.447015" lon="18.851208"><ele>801</ele><time>2017-01-22T13:47:13+0100</time></trkpt>
1109<trkpt lat="48.446904" lon="18.851280"><ele>804</ele><time>2017-01-22T13:47:15+0100</time></trkpt>
1110<trkpt lat="48.446830" lon="18.851384"><ele>805</ele><time>2017-01-22T13:47:19+0100</time></trkpt>
1111<trkpt lat="48.446732" lon="18.851522"><ele>801</ele><time>2017-01-22T13:47:23+0100</time></trkpt>
1112<trkpt lat="48.446616" lon="18.851640"><ele>796</ele><time>2017-01-22T13:47:27+0100</time></trkpt>
1113<trkpt lat="48.446534" lon="18.851750"><ele>800</ele><time>2017-01-22T13:47:31+0100</time></trkpt>
1114<trkpt lat="48.446451" lon="18.851847"><ele>797</ele><time>2017-01-22T13:47:36+0100</time></trkpt>
1115<trkpt lat="48.446374" lon="18.851977"><ele>794</ele><time>2017-01-22T13:47:40+0100</time></trkpt>
1116<trkpt lat="48.446302" lon="18.852086"><ele>788</ele><time>2017-01-22T13:47:44+0100</time></trkpt>
1117<trkpt lat="48.446222" lon="18.852189"><ele>788</ele><time>2017-01-22T13:47:50+0100</time></trkpt>
1118<trkpt lat="48.446225" lon="18.852377"><ele>788</ele><time>2017-01-22T13:47:57+0100</time></trkpt>
1119<trkpt lat="48.446213" lon="18.852553"><ele>789</ele><time>2017-01-22T13:48:01+0100</time></trkpt>
1120<trkpt lat="48.446134" lon="18.852660"><ele>794</ele><time>2017-01-22T13:48:07+0100</time></trkpt>
1121<trkpt lat="48.446078" lon="18.852778"><ele>795</ele><time>2017-01-22T13:48:16+0100</time></trkpt>
1122<trkpt lat="48.445998" lon="18.852882"><ele>797</ele><time>2017-01-22T13:48:20+0100</time></trkpt>
1123<trkpt lat="48.445916" lon="18.852997"><ele>793</ele><time>2017-01-22T13:48:26+0100</time></trkpt>
1124<trkpt lat="48.445819" lon="18.853123"><ele>793</ele><time>2017-01-22T13:48:30+0100</time></trkpt>
1125<trkpt lat="48.445741" lon="18.853235"><ele>793</ele><time>2017-01-22T13:48:37+0100</time></trkpt>
1126<trkpt lat="48.445655" lon="18.853318"><ele>793</ele><time>2017-01-22T13:48:43+0100</time></trkpt>
1127<trkpt lat="48.445592" lon="18.853470"><ele>787</ele><time>2017-01-22T13:48:49+0100</time></trkpt>
1128<trkpt lat="48.445520" lon="18.853602"><ele>788</ele><time>2017-01-22T13:48:53+0100</time></trkpt>
1129<trkpt lat="48.445477" lon="18.853759"><ele>787</ele><time>2017-01-22T13:48:58+0100</time></trkpt>
1130<trkpt lat="48.445497" lon="18.853943"><ele>792</ele><time>2017-01-22T13:49:00+0100</time></trkpt>
1131<trkpt lat="48.445482" lon="18.854086"><ele>792</ele><time>2017-01-22T13:49:06+0100</time></trkpt>
1132<trkpt lat="48.445582" lon="18.854129"><ele>791</ele><time>2017-01-22T13:49:16+0100</time></trkpt>
1133<trkpt lat="48.445685" lon="18.854287"><ele>790</ele><time>2017-01-22T13:49:21+0100</time></trkpt>
1134<trkpt lat="48.445771" lon="18.854495"><ele>791</ele><time>2017-01-22T13:49:25+0100</time></trkpt>
1135<trkpt lat="48.445842" lon="18.854634"><ele>793</ele><time>2017-01-22T13:49:29+0100</time></trkpt>
1136<trkpt lat="48.445909" lon="18.854754"><ele>787</ele><time>2017-01-22T13:49:35+0100</time></trkpt>
1137<trkpt lat="48.445908" lon="18.854904"><ele>787</ele><time>2017-01-22T13:49:42+0100</time></trkpt>
1138<trkpt lat="48.445887" lon="18.855063"><ele>787</ele><time>2017-01-22T13:49:46+0100</time></trkpt>
1139<trkpt lat="48.445798" lon="18.855135"><ele>786</ele><time>2017-01-22T13:49:54+0100</time></trkpt>
1140<trkpt lat="48.445744" lon="18.855251"><ele>785</ele><time>2017-01-22T13:50:01+0100</time></trkpt>
1141<trkpt lat="48.445759" lon="18.855398"><ele>795</ele><time>2017-01-22T13:50:26+0100</time></trkpt>
1142<trkpt lat="48.445694" lon="18.855528"><ele>792</ele><time>2017-01-22T13:50:30+0100</time></trkpt>
1143<trkpt lat="48.445638" lon="18.855673"><ele>790</ele><time>2017-01-22T13:50:34+0100</time></trkpt>
1144<trkpt lat="48.445549" lon="18.855792"><ele>782</ele><time>2017-01-22T13:50:40+0100</time></trkpt>
1145<trkpt lat="48.445474" lon="18.855891"><ele>783</ele><time>2017-01-22T13:50:45+0100</time></trkpt>
1146<trkpt lat="48.445414" lon="18.856012"><ele>785</ele><time>2017-01-22T13:50:49+0100</time></trkpt>
1147<trkpt lat="48.445360" lon="18.856173"><ele>787</ele><time>2017-01-22T13:50:53+0100</time></trkpt>
1148<trkpt lat="48.445289" lon="18.856285"><ele>783</ele><time>2017-01-22T13:50:59+0100</time></trkpt>
1149<trkpt lat="48.445258" lon="18.856434"><ele>776</ele><time>2017-01-22T13:51:07+0100</time></trkpt>
1150<trkpt lat="48.445244" lon="18.856596"><ele>776</ele><time>2017-01-22T13:51:12+0100</time></trkpt>
1151<trkpt lat="48.445283" lon="18.856757"><ele>776</ele><time>2017-01-22T13:51:18+0100</time></trkpt>
1152<trkpt lat="48.445388" lon="18.856839"><ele>778</ele><time>2017-01-22T13:51:26+0100</time></trkpt>
1153<trkpt lat="48.445475" lon="18.856934"><ele>779</ele><time>2017-01-22T13:51:33+0100</time></trkpt>
1154<trkpt lat="48.445578" lon="18.857030"><ele>783</ele><time>2017-01-22T13:51:39+0100</time></trkpt>
1155<trkpt lat="48.445657" lon="18.857128"><ele>784</ele><time>2017-01-22T13:51:43+0100</time></trkpt>
1156<trkpt lat="48.445663" lon="18.857301"><ele>783</ele><time>2017-01-22T13:51:52+0100</time></trkpt>
1157<trkpt lat="48.445690" lon="18.857477"><ele>782</ele><time>2017-01-22T13:51:58+0100</time></trkpt>
1158<trkpt lat="48.445723" lon="18.857643"><ele>782</ele><time>2017-01-22T13:52:04+0100</time></trkpt>
1159<trkpt lat="48.445781" lon="18.857763"><ele>783</ele><time>2017-01-22T13:52:13+0100</time></trkpt>
1160<trkpt lat="48.445870" lon="18.857868"><ele>783</ele><time>2017-01-22T13:52:21+0100</time></trkpt>
1161<trkpt lat="48.445962" lon="18.857915"><ele>782</ele><time>2017-01-22T13:52:27+0100</time></trkpt>
1162<trkpt lat="48.446052" lon="18.857977"><ele>783</ele><time>2017-01-22T13:52:31+0100</time></trkpt>
1163<trkpt lat="48.446145" lon="18.858051"><ele>787</ele><time>2017-01-22T13:52:37+0100</time></trkpt>
1164<trkpt lat="48.446229" lon="18.858129"><ele>787</ele><time>2017-01-22T13:52:44+0100</time></trkpt>
1165<trkpt lat="48.446311" lon="18.858215"><ele>791</ele><time>2017-01-22T13:52:48+0100</time></trkpt>
1166<trkpt lat="48.446393" lon="18.858316"><ele>790</ele><time>2017-01-22T13:52:54+0100</time></trkpt>
1167<trkpt lat="48.446476" lon="18.858440"><ele>790</ele><time>2017-01-22T13:53:01+0100</time></trkpt>
1168<trkpt lat="48.446532" lon="18.858597"><ele>789</ele><time>2017-01-22T13:53:05+0100</time></trkpt>
1169<trkpt lat="48.446536" lon="18.858764"><ele>787</ele><time>2017-01-22T13:53:11+0100</time></trkpt>
1170<trkpt lat="48.446529" lon="18.858927"><ele>784</ele><time>2017-01-22T13:53:17+0100</time></trkpt>
1171<trkpt lat="48.446525" lon="18.859085"><ele>785</ele><time>2017-01-22T13:53:26+0100</time></trkpt>
1172<trkpt lat="48.446548" lon="18.859237"><ele>784</ele><time>2017-01-22T13:53:30+0100</time></trkpt>
1173<trkpt lat="48.446571" lon="18.859398"><ele>784</ele><time>2017-01-22T13:53:34+0100</time></trkpt>
1174<trkpt lat="48.446625" lon="18.859562"><ele>782</ele><time>2017-01-22T13:53:38+0100</time></trkpt>
1175<trkpt lat="48.446637" lon="18.859760"><ele>784</ele><time>2017-01-22T13:53:45+0100</time></trkpt>
1176<trkpt lat="48.446673" lon="18.859919"><ele>783</ele><time>2017-01-22T13:53:47+0100</time></trkpt>
1177<trkpt lat="48.446720" lon="18.860079"><ele>784</ele><time>2017-01-22T13:53:53+0100</time></trkpt>
1178<trkpt lat="48.446742" lon="18.860236"><ele>782</ele><time>2017-01-22T13:53:59+0100</time></trkpt>
1179<trkpt lat="48.446758" lon="18.860405"><ele>782</ele><time>2017-01-22T13:54:06+0100</time></trkpt>
1180<trkpt lat="48.446749" lon="18.860588"><ele>783</ele><time>2017-01-22T13:54:12+0100</time></trkpt>
1181<trkpt lat="48.446757" lon="18.860760"><ele>782</ele><time>2017-01-22T13:54:18+0100</time></trkpt>
1182<trkpt lat="48.446760" lon="18.860913"><ele>782</ele><time>2017-01-22T13:54:29+0100</time></trkpt>
1183<trkpt lat="48.446799" lon="18.861048"><ele>782</ele><time>2017-01-22T13:54:33+0100</time></trkpt>
1184<trkpt lat="48.446845" lon="18.861205"><ele>781</ele><time>2017-01-22T13:54:37+0100</time></trkpt>
1185<trkpt lat="48.446918" lon="18.861323"><ele>782</ele><time>2017-01-22T13:54:43+0100</time></trkpt>
1186<trkpt lat="48.447049" lon="18.861359"><ele>776</ele><time>2017-01-22T13:55:04+0100</time></trkpt>
1187<trkpt lat="48.447170" lon="18.861382"><ele>782</ele><time>2017-01-22T13:55:11+0100</time></trkpt>
1188<trkpt lat="48.447287" lon="18.861400"><ele>780</ele><time>2017-01-22T13:55:15+0100</time></trkpt>
1189<trkpt lat="48.447391" lon="18.861380"><ele>782</ele><time>2017-01-22T13:55:19+0100</time></trkpt>
1190<trkpt lat="48.447487" lon="18.861368"><ele>785</ele><time>2017-01-22T13:55:23+0100</time></trkpt>
1191<trkpt lat="48.447587" lon="18.861357"><ele>787</ele><time>2017-01-22T13:55:28+0100</time></trkpt>
1192<trkpt lat="48.447697" lon="18.861342"><ele>789</ele><time>2017-01-22T13:55:32+0100</time></trkpt>
1193<trkpt lat="48.447817" lon="18.861284"><ele>791</ele><time>2017-01-22T13:55:38+0100</time></trkpt>
1194<trkpt lat="48.447886" lon="18.861173"><ele>790</ele><time>2017-01-22T13:55:44+0100</time></trkpt>
1195<trkpt lat="48.447887" lon="18.861018"><ele>792</ele><time>2017-01-22T13:55:50+0100</time></trkpt>
1196<trkpt lat="48.447876" lon="18.860871"><ele>797</ele><time>2017-01-22T13:55:57+0100</time></trkpt>
1197<trkpt lat="48.447942" lon="18.860727"><ele>797</ele><time>2017-01-22T13:56:03+0100</time></trkpt>
1198<trkpt lat="48.448038" lon="18.860640"><ele>796</ele><time>2017-01-22T13:56:09+0100</time></trkpt>
1199<trkpt lat="48.448153" lon="18.860596"><ele>795</ele><time>2017-01-22T13:56:16+0100</time></trkpt>
1200<trkpt lat="48.448261" lon="18.860568"><ele>798</ele><time>2017-01-22T13:56:22+0100</time></trkpt>
1201<trkpt lat="48.448361" lon="18.860479"><ele>793</ele><time>2017-01-22T13:56:28+0100</time></trkpt>
1202<trkpt lat="48.448429" lon="18.860308"><ele>795</ele><time>2017-01-22T13:56:34+0100</time></trkpt>
1203<trkpt lat="48.448444" lon="18.860147"><ele>788</ele><time>2017-01-22T13:56:41+0100</time></trkpt>
1204<trkpt lat="48.448491" lon="18.859985"><ele>790</ele><time>2017-01-22T13:56:43+0100</time></trkpt>
1205<trkpt lat="48.448530" lon="18.859813"><ele>790</ele><time>2017-01-22T13:56:47+0100</time></trkpt>
1206<trkpt lat="48.448559" lon="18.859661"><ele>790</ele><time>2017-01-22T13:56:53+0100</time></trkpt>
1207<trkpt lat="48.448607" lon="18.859537"><ele>797</ele><time>2017-01-22T13:57:00+0100</time></trkpt>
1208<trkpt lat="48.448664" lon="18.859397"><ele>799</ele><time>2017-01-22T13:57:06+0100</time></trkpt>
1209<trkpt lat="48.448761" lon="18.859288"><ele>799</ele><time>2017-01-22T13:57:12+0100</time></trkpt>
1210<trkpt lat="48.448874" lon="18.859173"><ele>798</ele><time>2017-01-22T13:57:16+0100</time></trkpt>
1211<trkpt lat="48.448993" lon="18.859096"><ele>801</ele><time>2017-01-22T13:57:21+0100</time></trkpt>
1212<trkpt lat="48.449132" lon="18.858994"><ele>797</ele><time>2017-01-22T13:57:25+0100</time></trkpt>
1213<trkpt lat="48.449148" lon="18.858841"><ele>804</ele><time>2017-01-22T13:57:31+0100</time></trkpt>
1214<trkpt lat="48.449180" lon="18.858696"><ele>807</ele><time>2017-01-22T13:57:40+0100</time></trkpt>
1215<trkpt lat="48.449263" lon="18.858586"><ele>796</ele><time>2017-01-22T13:57:44+0100</time></trkpt>
1216<trkpt lat="48.449366" lon="18.858540"><ele>795</ele><time>2017-01-22T13:57:50+0100</time></trkpt>
1217<trkpt lat="48.449466" lon="18.858608"><ele>795</ele><time>2017-01-22T13:57:58+0100</time></trkpt>
1218<trkpt lat="48.449540" lon="18.858715"><ele>793</ele><time>2017-01-22T13:58:03+0100</time></trkpt>
1219<trkpt lat="48.449598" lon="18.858847"><ele>785</ele><time>2017-01-22T13:58:09+0100</time></trkpt>
1220<trkpt lat="48.449642" lon="18.859033"><ele>781</ele><time>2017-01-22T13:58:13+0100</time></trkpt>
1221<trkpt lat="48.449606" lon="18.859185"><ele>782</ele><time>2017-01-22T13:58:19+0100</time></trkpt>
1222<trkpt lat="48.449644" lon="18.859344"><ele>781</ele><time>2017-01-22T13:58:26+0100</time></trkpt>
1223<trkpt lat="48.449656" lon="18.859544"><ele>785</ele><time>2017-01-22T13:58:30+0100</time></trkpt>
1224<trkpt lat="48.449637" lon="18.859723"><ele>785</ele><time>2017-01-22T13:58:36+0100</time></trkpt>
1225<trkpt lat="48.449619" lon="18.859881"><ele>784</ele><time>2017-01-22T13:58:47+0100</time></trkpt>
1226<trkpt lat="48.449568" lon="18.860004"><ele>781</ele><time>2017-01-22T13:58:51+0100</time></trkpt>
1227<trkpt lat="48.449495" lon="18.860088"><ele>782</ele><time>2017-01-22T13:58:55+0100</time></trkpt>
1228<trkpt lat="48.449448" lon="18.860249"><ele>783</ele><time>2017-01-22T13:58:59+0100</time></trkpt>
1229<trkpt lat="48.449381" lon="18.860383"><ele>780</ele><time>2017-01-22T13:59:04+0100</time></trkpt>
1230<trkpt lat="48.449310" lon="18.860504"><ele>784</ele><time>2017-01-22T13:59:10+0100</time></trkpt>
1231<trkpt lat="48.449299" lon="18.860651"><ele>782</ele><time>2017-01-22T13:59:18+0100</time></trkpt>
1232<trkpt lat="48.449359" lon="18.860797"><ele>778</ele><time>2017-01-22T13:59:27+0100</time></trkpt>
1233<trkpt lat="48.449430" lon="18.860901"><ele>778</ele><time>2017-01-22T13:59:31+0100</time></trkpt>
1234<trkpt lat="48.449534" lon="18.860959"><ele>783</ele><time>2017-01-22T13:59:37+0100</time></trkpt>
1235<trkpt lat="48.449622" lon="18.861075"><ele>781</ele><time>2017-01-22T13:59:43+0100</time></trkpt>
1236<trkpt lat="48.449644" lon="18.861212"><ele>781</ele><time>2017-01-22T13:59:52+0100</time></trkpt>
1237<trkpt lat="48.449581" lon="18.861333"><ele>780</ele><time>2017-01-22T13:59:58+0100</time></trkpt>
1238<trkpt lat="48.449484" lon="18.861404"><ele>783</ele><time>2017-01-22T14:00:04+0100</time></trkpt>
1239<trkpt lat="48.449444" lon="18.861555"><ele>782</ele><time>2017-01-22T14:00:10+0100</time></trkpt>
1240<trkpt lat="48.449442" lon="18.861730"><ele>782</ele><time>2017-01-22T14:00:15+0100</time></trkpt>
1241<trkpt lat="48.449444" lon="18.861874"><ele>785</ele><time>2017-01-22T14:00:19+0100</time></trkpt>
1242<trkpt lat="48.449462" lon="18.862036"><ele>785</ele><time>2017-01-22T14:00:23+0100</time></trkpt>
1243<trkpt lat="48.449460" lon="18.862182"><ele>785</ele><time>2017-01-22T14:00:27+0100</time></trkpt>
1244<trkpt lat="48.449462" lon="18.862344"><ele>786</ele><time>2017-01-22T14:00:31+0100</time></trkpt>
1245<trkpt lat="48.449446" lon="18.862578"><ele>789</ele><time>2017-01-22T14:00:38+0100</time></trkpt>
1246<trkpt lat="48.449420" lon="18.862730"><ele>786</ele><time>2017-01-22T14:00:44+0100</time></trkpt>
1247<trkpt lat="48.449346" lon="18.862892"><ele>790</ele><time>2017-01-22T14:00:59+0100</time></trkpt>
1248<trkpt lat="48.449377" lon="18.863021"><ele>784</ele><time>2017-01-22T14:01:05+0100</time></trkpt>
1249<trkpt lat="48.449468" lon="18.863144"><ele>784</ele><time>2017-01-22T14:01:11+0100</time></trkpt>
1250<trkpt lat="48.449570" lon="18.863191"><ele>785</ele><time>2017-01-22T14:01:16+0100</time></trkpt>
1251<trkpt lat="48.449668" lon="18.863227"><ele>786</ele><time>2017-01-22T14:01:20+0100</time></trkpt>
1252<trkpt lat="48.449775" lon="18.863249"><ele>788</ele><time>2017-01-22T14:01:24+0100</time></trkpt>
1253<trkpt lat="48.449872" lon="18.863239"><ele>787</ele><time>2017-01-22T14:01:30+0100</time></trkpt>
1254<trkpt lat="48.449957" lon="18.863306"><ele>792</ele><time>2017-01-22T14:01:39+0100</time></trkpt>
1255<trkpt lat="48.450026" lon="18.863411"><ele>795</ele><time>2017-01-22T14:01:47+0100</time></trkpt>
1256<trkpt lat="48.450125" lon="18.863497"><ele>795</ele><time>2017-01-22T14:01:55+0100</time></trkpt>
1257<trkpt lat="48.450221" lon="18.863584"><ele>795</ele><time>2017-01-22T14:02:00+0100</time></trkpt>
1258<trkpt lat="48.450316" lon="18.863659"><ele>797</ele><time>2017-01-22T14:02:04+0100</time></trkpt>
1259<trkpt lat="48.450404" lon="18.863733"><ele>800</ele><time>2017-01-22T14:02:10+0100</time></trkpt>
1260<trkpt lat="48.450483" lon="18.863834"><ele>799</ele><time>2017-01-22T14:02:27+0100</time></trkpt>
1261<trkpt lat="48.450574" lon="18.863904"><ele>798</ele><time>2017-01-22T14:02:35+0100</time></trkpt>
1262<trkpt lat="48.450662" lon="18.863958"><ele>795</ele><time>2017-01-22T14:02:52+0100</time></trkpt>
1263<trkpt lat="48.450752" lon="18.864008"><ele>795</ele><time>2017-01-22T14:02:56+0100</time></trkpt>
1264<trkpt lat="48.450849" lon="18.864086"><ele>793</ele><time>2017-01-22T14:03:04+0100</time></trkpt>
1265<trkpt lat="48.450944" lon="18.864168"><ele>792</ele><time>2017-01-22T14:03:09+0100</time></trkpt>
1266<trkpt lat="48.451031" lon="18.864277"><ele>793</ele><time>2017-01-22T14:03:13+0100</time></trkpt>
1267<trkpt lat="48.451103" lon="18.864373"><ele>794</ele><time>2017-01-22T14:03:21+0100</time></trkpt>
1268<trkpt lat="48.451183" lon="18.864470"><ele>797</ele><time>2017-01-22T14:03:30+0100</time></trkpt>
1269<trkpt lat="48.451245" lon="18.864606"><ele>798</ele><time>2017-01-22T14:03:36+0100</time></trkpt>
1270<trkpt lat="48.451309" lon="18.864747"><ele>800</ele><time>2017-01-22T14:03:40+0100</time></trkpt>
1271<trkpt lat="48.451386" lon="18.864912"><ele>799</ele><time>2017-01-22T14:03:44+0100</time></trkpt>
1272<trkpt lat="48.451477" lon="18.865032"><ele>800</ele><time>2017-01-22T14:03:49+0100</time></trkpt>
1273<trkpt lat="48.451571" lon="18.865101"><ele>802</ele><time>2017-01-22T14:03:53+0100</time></trkpt>
1274<trkpt lat="48.451681" lon="18.865171"><ele>804</ele><time>2017-01-22T14:03:59+0100</time></trkpt>
1275<trkpt lat="48.451784" lon="18.865212"><ele>819</ele><time>2017-01-22T14:04:10+0100</time></trkpt>
1276<trkpt lat="48.451868" lon="18.865138"><ele>820</ele><time>2017-01-22T14:04:16+0100</time></trkpt>
1277<trkpt lat="48.451964" lon="18.865065"><ele>818</ele><time>2017-01-22T14:04:22+0100</time></trkpt>
1278<trkpt lat="48.452099" lon="18.865016"><ele>808</ele><time>2017-01-22T14:05:48+0100</time></trkpt>
1279<trkpt lat="48.452193" lon="18.864923"><ele>804</ele><time>2017-01-22T14:05:54+0100</time></trkpt>
1280<trkpt lat="48.452283" lon="18.864812"><ele>806</ele><time>2017-01-22T14:05:58+0100</time></trkpt>
1281<trkpt lat="48.452365" lon="18.864709"><ele>809</ele><time>2017-01-22T14:06:02+0100</time></trkpt>
1282<trkpt lat="48.452466" lon="18.864587"><ele>808</ele><time>2017-01-22T14:06:09+0100</time></trkpt>
1283<trkpt lat="48.452550" lon="18.864533"><ele>805</ele><time>2017-01-22T14:06:13+0100</time></trkpt>
1284<trkpt lat="48.452667" lon="18.864518"><ele>801</ele><time>2017-01-22T14:06:17+0100</time></trkpt>
1285<trkpt lat="48.452767" lon="18.864511"><ele>802</ele><time>2017-01-22T14:06:21+0100</time></trkpt>
1286<trkpt lat="48.452867" lon="18.864458"><ele>806</ele><time>2017-01-22T14:06:28+0100</time></trkpt>
1287<trkpt lat="48.452985" lon="18.864533"><ele>789</ele><time>2017-01-22T14:06:42+0100</time></trkpt>
1288<trkpt lat="48.453020" lon="18.864680"><ele>789</ele><time>2017-01-22T14:06:46+0100</time></trkpt>
1289<trkpt lat="48.453074" lon="18.864871"><ele>793</ele><time>2017-01-22T14:06:59+0100</time></trkpt>
1290<trkpt lat="48.453097" lon="18.865028"><ele>794</ele><time>2017-01-22T14:07:05+0100</time></trkpt>
1291<trkpt lat="48.453109" lon="18.865193"><ele>792</ele><time>2017-01-22T14:07:12+0100</time></trkpt>
1292<trkpt lat="48.453135" lon="18.865357"><ele>793</ele><time>2017-01-22T14:07:16+0100</time></trkpt>
1293<trkpt lat="48.453162" lon="18.865501"><ele>795</ele><time>2017-01-22T14:07:22+0100</time></trkpt>
1294<trkpt lat="48.453189" lon="18.865649"><ele>796</ele><time>2017-01-22T14:07:28+0100</time></trkpt>
1295<trkpt lat="48.453243" lon="18.865853"><ele>796</ele><time>2017-01-22T14:07:32+0100</time></trkpt>
1296<trkpt lat="48.453296" lon="18.866018"><ele>795</ele><time>2017-01-22T14:07:37+0100</time></trkpt>
1297<trkpt lat="48.453393" lon="18.866103"><ele>797</ele><time>2017-01-22T14:07:41+0100</time></trkpt>
1298<trkpt lat="48.453488" lon="18.866187"><ele>798</ele><time>2017-01-22T14:07:47+0100</time></trkpt>
1299<trkpt lat="48.453567" lon="18.866300"><ele>798</ele><time>2017-01-22T14:07:51+0100</time></trkpt>
1300<trkpt lat="48.453637" lon="18.866421"><ele>802</ele><time>2017-01-22T14:07:58+0100</time></trkpt>
1301<trkpt lat="48.453722" lon="18.866534"><ele>806</ele><time>2017-01-22T14:08:06+0100</time></trkpt>
1302<trkpt lat="48.453818" lon="18.866601"><ele>810</ele><time>2017-01-22T14:08:12+0100</time></trkpt>
1303<trkpt lat="48.453915" lon="18.866681"><ele>807</ele><time>2017-01-22T14:08:19+0100</time></trkpt>
1304<trkpt lat="48.453996" lon="18.866768"><ele>807</ele><time>2017-01-22T14:08:23+0100</time></trkpt>
1305<trkpt lat="48.454095" lon="18.866890"><ele>808</ele><time>2017-01-22T14:08:29+0100</time></trkpt>
1306<trkpt lat="48.454186" lon="18.866969"><ele>809</ele><time>2017-01-22T14:08:33+0100</time></trkpt>
1307<trkpt lat="48.454279" lon="18.867046"><ele>808</ele><time>2017-01-22T14:08:37+0100</time></trkpt>
1308<trkpt lat="48.454383" lon="18.867122"><ele>808</ele><time>2017-01-22T14:08:42+0100</time></trkpt>
1309<trkpt lat="48.454497" lon="18.867130"><ele>812</ele><time>2017-01-22T14:08:48+0100</time></trkpt>
1310<trkpt lat="48.454625" lon="18.867242"><ele>809</ele><time>2017-01-22T14:08:52+0100</time></trkpt>
1311<trkpt lat="48.454733" lon="18.867340"><ele>804</ele><time>2017-01-22T14:08:56+0100</time></trkpt>
1312<trkpt lat="48.454827" lon="18.867413"><ele>801</ele><time>2017-01-22T14:09:01+0100</time></trkpt>
1313<trkpt lat="48.454931" lon="18.867471"><ele>800</ele><time>2017-01-22T14:09:05+0100</time></trkpt>
1314<trkpt lat="48.455033" lon="18.867527"><ele>807</ele><time>2017-01-22T14:09:09+0100</time></trkpt>
1315<trkpt lat="48.455133" lon="18.867616"><ele>809</ele><time>2017-01-22T14:09:15+0100</time></trkpt>
1316<trkpt lat="48.455203" lon="18.867733"><ele>805</ele><time>2017-01-22T14:09:22+0100</time></trkpt>
1317<trkpt lat="48.455274" lon="18.867834"><ele>800</ele><time>2017-01-22T14:09:32+0100</time></trkpt>
1318<trkpt lat="48.455303" lon="18.867972"><ele>800</ele><time>2017-01-22T14:09:40+0100</time></trkpt>
1319<trkpt lat="48.455381" lon="18.868203"><ele>797</ele><time>2017-01-22T14:09:47+0100</time></trkpt>
1320<trkpt lat="48.455484" lon="18.868288"><ele>797</ele><time>2017-01-22T14:09:51+0100</time></trkpt>
1321<trkpt lat="48.455588" lon="18.868411"><ele>805</ele><time>2017-01-22T14:09:57+0100</time></trkpt>
1322<trkpt lat="48.455670" lon="18.868509"><ele>802</ele><time>2017-01-22T14:10:01+0100</time></trkpt>
1323<trkpt lat="48.455745" lon="18.868606"><ele>803</ele><time>2017-01-22T14:10:06+0100</time></trkpt>
1324<trkpt lat="48.455798" lon="18.868744"><ele>798</ele><time>2017-01-22T14:10:12+0100</time></trkpt>
1325<trkpt lat="48.455836" lon="18.868888"><ele>796</ele><time>2017-01-22T14:10:16+0100</time></trkpt>
1326<trkpt lat="48.455843" lon="18.869072"><ele>794</ele><time>2017-01-22T14:10:22+0100</time></trkpt>
1327<trkpt lat="48.455849" lon="18.869233"><ele>791</ele><time>2017-01-22T14:10:27+0100</time></trkpt>
1328<trkpt lat="48.455907" lon="18.869439"><ele>786</ele><time>2017-01-22T14:10:33+0100</time></trkpt>
1329<trkpt lat="48.455970" lon="18.869580"><ele>788</ele><time>2017-01-22T14:10:39+0100</time></trkpt>
1330<trkpt lat="48.455947" lon="18.869716"><ele>788</ele><time>2017-01-22T14:10:43+0100</time></trkpt>
1331<trkpt lat="48.455954" lon="18.869903"><ele>787</ele><time>2017-01-22T14:10:52+0100</time></trkpt>
1332<trkpt lat="48.455971" lon="18.870074"><ele>783</ele><time>2017-01-22T14:10:58+0100</time></trkpt>
1333<trkpt lat="48.456036" lon="18.870203"><ele>786</ele><time>2017-01-22T14:11:04+0100</time></trkpt>
1334<trkpt lat="48.456172" lon="18.870254"><ele>790</ele><time>2017-01-22T14:11:09+0100</time></trkpt>
1335<trkpt lat="48.456283" lon="18.870351"><ele>793</ele><time>2017-01-22T14:11:13+0100</time></trkpt>
1336<trkpt lat="48.456373" lon="18.870458"><ele>794</ele><time>2017-01-22T14:11:17+0100</time></trkpt>
1337<trkpt lat="48.456445" lon="18.870575"><ele>799</ele><time>2017-01-22T14:11:23+0100</time></trkpt>
1338<trkpt lat="48.456552" lon="18.870640"><ele>803</ele><time>2017-01-22T14:11:30+0100</time></trkpt>
1339<trkpt lat="48.456669" lon="18.870676"><ele>805</ele><time>2017-01-22T14:11:34+0100</time></trkpt>
1340<trkpt lat="48.456771" lon="18.870715"><ele>802</ele><time>2017-01-22T14:11:38+0100</time></trkpt>
1341<trkpt lat="48.456874" lon="18.870807"><ele>796</ele><time>2017-01-22T14:11:44+0100</time></trkpt>
1342<trkpt lat="48.456979" lon="18.870924"><ele>792</ele><time>2017-01-22T14:11:51+0100</time></trkpt>
1343<trkpt lat="48.457069" lon="18.870993"><ele>794</ele><time>2017-01-22T14:11:57+0100</time></trkpt>
1344<trkpt lat="48.457170" lon="18.871086"><ele>793</ele><time>2017-01-22T14:12:03+0100</time></trkpt>
1345<trkpt lat="48.457278" lon="18.871126"><ele>797</ele><time>2017-01-22T14:12:10+0100</time></trkpt>
1346<trkpt lat="48.457394" lon="18.871150"><ele>799</ele><time>2017-01-22T14:12:16+0100</time></trkpt>
1347<trkpt lat="48.457505" lon="18.871123"><ele>804</ele><time>2017-01-22T14:12:22+0100</time></trkpt>
1348<trkpt lat="48.457629" lon="18.871161"><ele>796</ele><time>2017-01-22T14:12:28+0100</time></trkpt>
1349<trkpt lat="48.457679" lon="18.871285"><ele>795</ele><time>2017-01-22T14:12:37+0100</time></trkpt>
1350<trkpt lat="48.457744" lon="18.871390"><ele>794</ele><time>2017-01-22T14:12:45+0100</time></trkpt>
1351<trkpt lat="48.457842" lon="18.871426"><ele>795</ele><time>2017-01-22T14:13:02+0100</time></trkpt>
1352<trkpt lat="48.457942" lon="18.871344"><ele>798</ele><time>2017-01-22T14:13:17+0100</time></trkpt>
1353<trkpt lat="48.457984" lon="18.871213"><ele>799</ele><time>2017-01-22T14:13:21+0100</time></trkpt>
1354<trkpt lat="48.458030" lon="18.871057"><ele>808</ele><time>2017-01-22T14:13:27+0100</time></trkpt>
1355<trkpt lat="48.458069" lon="18.870894"><ele>811</ele><time>2017-01-22T14:13:34+0100</time></trkpt>
1356<trkpt lat="48.458097" lon="18.870742"><ele>812</ele><time>2017-01-22T14:13:38+0100</time></trkpt>
1357<trkpt lat="48.458117" lon="18.870595"><ele>810</ele><time>2017-01-22T14:13:40+0100</time></trkpt>
1358<trkpt lat="48.458163" lon="18.870427"><ele>811</ele><time>2017-01-22T14:13:44+0100</time></trkpt>
1359<trkpt lat="48.458191" lon="18.870277"><ele>810</ele><time>2017-01-22T14:13:48+0100</time></trkpt>
1360<trkpt lat="48.458219" lon="18.870119"><ele>813</ele><time>2017-01-22T14:13:54+0100</time></trkpt>
1361<trkpt lat="48.458250" lon="18.869985"><ele>813</ele><time>2017-01-22T14:13:58+0100</time></trkpt>
1362<trkpt lat="48.458314" lon="18.869801"><ele>809</ele><time>2017-01-22T14:14:05+0100</time></trkpt>
1363<trkpt lat="48.458324" lon="18.869639"><ele>808</ele><time>2017-01-22T14:14:11+0100</time></trkpt>
1364<trkpt lat="48.458338" lon="18.869478"><ele>812</ele><time>2017-01-22T14:14:17+0100</time></trkpt>
1365<trkpt lat="48.458351" lon="18.869291"><ele>813</ele><time>2017-01-22T14:14:24+0100</time></trkpt>
1366<trkpt lat="48.458383" lon="18.869044"><ele>813</ele><time>2017-01-22T14:14:28+0100</time></trkpt>
1367<trkpt lat="48.458435" lon="18.868838"><ele>806</ele><time>2017-01-22T14:14:32+0100</time></trkpt>
1368<trkpt lat="48.458487" lon="18.868656"><ele>803</ele><time>2017-01-22T14:14:36+0100</time></trkpt>
1369<trkpt lat="48.458516" lon="18.868489"><ele>801</ele><time>2017-01-22T14:14:40+0100</time></trkpt>
1370<trkpt lat="48.458549" lon="18.868309"><ele>803</ele><time>2017-01-22T14:14:47+0100</time></trkpt>
1371<trkpt lat="48.458551" lon="18.868162"><ele>808</ele><time>2017-01-22T14:14:53+0100</time></trkpt>
1372<trkpt lat="48.458589" lon="18.868019"><ele>806</ele><time>2017-01-22T14:14:59+0100</time></trkpt>
1373<trkpt lat="48.458646" lon="18.867899"><ele>802</ele><time>2017-01-22T14:15:04+0100</time></trkpt>
1374<trkpt lat="48.458718" lon="18.867774"><ele>801</ele><time>2017-01-22T14:15:08+0100</time></trkpt>
1375<trkpt lat="48.458801" lon="18.867623"><ele>803</ele><time>2017-01-22T14:15:10+0100</time></trkpt>
1376<trkpt lat="48.458881" lon="18.867476"><ele>801</ele><time>2017-01-22T14:15:14+0100</time></trkpt>
1377<trkpt lat="48.458961" lon="18.867364"><ele>801</ele><time>2017-01-22T14:15:20+0100</time></trkpt>
1378<trkpt lat="48.459046" lon="18.867275"><ele>802</ele><time>2017-01-22T14:15:27+0100</time></trkpt>
1379<trkpt lat="48.459149" lon="18.867215"><ele>805</ele><time>2017-01-22T14:15:31+0100</time></trkpt>
1380<trkpt lat="48.459252" lon="18.867218"><ele>812</ele><time>2017-01-22T14:15:41+0100</time></trkpt>
1381<trkpt lat="48.459356" lon="18.867267"><ele>807</ele><time>2017-01-22T14:15:48+0100</time></trkpt>
1382<trkpt lat="48.459453" lon="18.867323"><ele>809</ele><time>2017-01-22T14:15:52+0100</time></trkpt>
1383<trkpt lat="48.459561" lon="18.867389"><ele>807</ele><time>2017-01-22T14:15:58+0100</time></trkpt>
1384<trkpt lat="48.459668" lon="18.867447"><ele>804</ele><time>2017-01-22T14:16:04+0100</time></trkpt>
1385<trkpt lat="48.459840" lon="18.867498"><ele>799</ele><time>2017-01-22T14:16:11+0100</time></trkpt>
1386<trkpt lat="48.459925" lon="18.867611"><ele>795</ele><time>2017-01-22T14:16:15+0100</time></trkpt>
1387<trkpt lat="48.460040" lon="18.867676"><ele>794</ele><time>2017-01-22T14:16:21+0100</time></trkpt>
1388<trkpt lat="48.460118" lon="18.867762"><ele>791</ele><time>2017-01-22T14:16:25+0100</time></trkpt>
1389<trkpt lat="48.460191" lon="18.867871"><ele>790</ele><time>2017-01-22T14:16:32+0100</time></trkpt>
1390<trkpt lat="48.460280" lon="18.868002"><ele>784</ele><time>2017-01-22T14:16:34+0100</time></trkpt>
1391<trkpt lat="48.460314" lon="18.868149"><ele>787</ele><time>2017-01-22T14:16:40+0100</time></trkpt>
1392<trkpt lat="48.460340" lon="18.868286"><ele>783</ele><time>2017-01-22T14:16:51+0100</time></trkpt>
1393<trkpt lat="48.460442" lon="18.868349"><ele>781</ele><time>2017-01-22T14:16:55+0100</time></trkpt>
1394<trkpt lat="48.460572" lon="18.868301"><ele>788</ele><time>2017-01-22T14:17:01+0100</time></trkpt>
1395<trkpt lat="48.460673" lon="18.868248"><ele>793</ele><time>2017-01-22T14:17:07+0100</time></trkpt>
1396<trkpt lat="48.460766" lon="18.868145"><ele>783</ele><time>2017-01-22T14:17:16+0100</time></trkpt>
1397<trkpt lat="48.460852" lon="18.868048"><ele>790</ele><time>2017-01-22T14:17:24+0100</time></trkpt>
1398<trkpt lat="48.460910" lon="18.867935"><ele>796</ele><time>2017-01-22T14:17:33+0100</time></trkpt>
1399<trkpt lat="48.460997" lon="18.867859"><ele>797</ele><time>2017-01-22T14:17:39+0100</time></trkpt>
1400<trkpt lat="48.461114" lon="18.867815"><ele>800</ele><time>2017-01-22T14:17:45+0100</time></trkpt>
1401<trkpt lat="48.461205" lon="18.867782"><ele>800</ele><time>2017-01-22T14:17:52+0100</time></trkpt>
1402<trkpt lat="48.461264" lon="18.867674"><ele>797</ele><time>2017-01-22T14:17:58+0100</time></trkpt>
1403<trkpt lat="48.461291" lon="18.867503"><ele>799</ele><time>2017-01-22T14:18:04+0100</time></trkpt>
1404<trkpt lat="48.461300" lon="18.867333"><ele>794</ele><time>2017-01-22T14:18:10+0100</time></trkpt>
1405<trkpt lat="48.461335" lon="18.867169"><ele>794</ele><time>2017-01-22T14:18:16+0100</time></trkpt>
1406<trkpt lat="48.461353" lon="18.866995"><ele>793</ele><time>2017-01-22T14:18:23+0100</time></trkpt>
1407<trkpt lat="48.461386" lon="18.866819"><ele>789</ele><time>2017-01-22T14:18:27+0100</time></trkpt>
1408<trkpt lat="48.461396" lon="18.866656"><ele>788</ele><time>2017-01-22T14:18:31+0100</time></trkpt>
1409<trkpt lat="48.461384" lon="18.866481"><ele>790</ele><time>2017-01-22T14:18:35+0100</time></trkpt>
1410<trkpt lat="48.461412" lon="18.866347"><ele>798</ele><time>2017-01-22T14:18:44+0100</time></trkpt>
1411<trkpt lat="48.461438" lon="18.866213"><ele>796</ele><time>2017-01-22T14:18:52+0100</time></trkpt>
1412<trkpt lat="48.461474" lon="18.866055"><ele>795</ele><time>2017-01-22T14:19:00+0100</time></trkpt>
1413<trkpt lat="48.461534" lon="18.865929"><ele>790</ele><time>2017-01-22T14:19:07+0100</time></trkpt>
1414<trkpt lat="48.461579" lon="18.865798"><ele>791</ele><time>2017-01-22T14:19:15+0100</time></trkpt>
1415<trkpt lat="48.461644" lon="18.865664"><ele>797</ele><time>2017-01-22T14:19:23+0100</time></trkpt>
1416<trkpt lat="48.461701" lon="18.865532"><ele>797</ele><time>2017-01-22T14:19:34+0100</time></trkpt>
1417<trkpt lat="48.461775" lon="18.865392"><ele>787</ele><time>2017-01-22T14:19:40+0100</time></trkpt>
1418<trkpt lat="48.461782" lon="18.865245"><ele>791</ele><time>2017-01-22T14:19:46+0100</time></trkpt>
1419<trkpt lat="48.461750" lon="18.865096"><ele>794</ele><time>2017-01-22T14:19:53+0100</time></trkpt>
1420<trkpt lat="48.461692" lon="18.864932"><ele>798</ele><time>2017-01-22T14:19:59+0100</time></trkpt>
1421<trkpt lat="48.461654" lon="18.864777"><ele>794</ele><time>2017-01-22T14:20:03+0100</time></trkpt>
1422<trkpt lat="48.461632" lon="18.864622"><ele>798</ele><time>2017-01-22T14:20:09+0100</time></trkpt>
1423<trkpt lat="48.461594" lon="18.864428"><ele>802</ele><time>2017-01-22T14:20:16+0100</time></trkpt>
1424<trkpt lat="48.461596" lon="18.864248"><ele>799</ele><time>2017-01-22T14:20:20+0100</time></trkpt>
1425<trkpt lat="48.461566" lon="18.864085"><ele>796</ele><time>2017-01-22T14:20:24+0100</time></trkpt>
1426<trkpt lat="48.461591" lon="18.863942"><ele>796</ele><time>2017-01-22T14:20:32+0100</time></trkpt>
1427<trkpt lat="48.461685" lon="18.863983"><ele>804</ele><time>2017-01-22T14:20:41+0100</time></trkpt>
1428<trkpt lat="48.461752" lon="18.864108"><ele>797</ele><time>2017-01-22T14:20:49+0100</time></trkpt>
1429<trkpt lat="48.461825" lon="18.864196"><ele>803</ele><time>2017-01-22T14:20:55+0100</time></trkpt>
1430<trkpt lat="48.461922" lon="18.864277"><ele>805</ele><time>2017-01-22T14:21:02+0100</time></trkpt>
1431<trkpt lat="48.462026" lon="18.864343"><ele>810</ele><time>2017-01-22T14:21:08+0100</time></trkpt>
1432<trkpt lat="48.462127" lon="18.864430"><ele>809</ele><time>2017-01-22T14:21:12+0100</time></trkpt>
1433<trkpt lat="48.462241" lon="18.864581"><ele>807</ele><time>2017-01-22T14:21:17+0100</time></trkpt>
1434<trkpt lat="48.462336" lon="18.864692"><ele>808</ele><time>2017-01-22T14:21:21+0100</time></trkpt>
1435<trkpt lat="48.462441" lon="18.864761"><ele>809</ele><time>2017-01-22T14:21:25+0100</time></trkpt>
1436<trkpt lat="48.462533" lon="18.864805"><ele>807</ele><time>2017-01-22T14:21:31+0100</time></trkpt>
1437<trkpt lat="48.462636" lon="18.864819"><ele>808</ele><time>2017-01-22T14:21:40+0100</time></trkpt>
1438<trkpt lat="48.462727" lon="18.864844"><ele>809</ele><time>2017-01-22T14:21:44+0100</time></trkpt>
1439<trkpt lat="48.462826" lon="18.864842"><ele>805</ele><time>2017-01-22T14:21:48+0100</time></trkpt>
1440<trkpt lat="48.462928" lon="18.864848"><ele>807</ele><time>2017-01-22T14:21:52+0100</time></trkpt>
1441<trkpt lat="48.463043" lon="18.864842"><ele>803</ele><time>2017-01-22T14:21:56+0100</time></trkpt>
1442<trkpt lat="48.463148" lon="18.864804"><ele>806</ele><time>2017-01-22T14:22:01+0100</time></trkpt>
1443<trkpt lat="48.463254" lon="18.864787"><ele>808</ele><time>2017-01-22T14:22:07+0100</time></trkpt>
1444<trkpt lat="48.463350" lon="18.864763"><ele>813</ele><time>2017-01-22T14:22:13+0100</time></trkpt>
1445<trkpt lat="48.463431" lon="18.864823"><ele>806</ele><time>2017-01-22T14:22:24+0100</time></trkpt>
1446<trkpt lat="48.463510" lon="18.864923"><ele>801</ele><time>2017-01-22T14:22:34+0100</time></trkpt>
1447<trkpt lat="48.463585" lon="18.865012"><ele>805</ele><time>2017-01-22T14:22:40+0100</time></trkpt>
1448<trkpt lat="48.463675" lon="18.865132"><ele>804</ele><time>2017-01-22T14:22:46+0100</time></trkpt>
1449<trkpt lat="48.463742" lon="18.865266"><ele>802</ele><time>2017-01-22T14:22:51+0100</time></trkpt>
1450<trkpt lat="48.463810" lon="18.865406"><ele>806</ele><time>2017-01-22T14:22:55+0100</time></trkpt>
1451<trkpt lat="48.463887" lon="18.865507"><ele>805</ele><time>2017-01-22T14:22:59+0100</time></trkpt>
1452<trkpt lat="48.463986" lon="18.865627"><ele>808</ele><time>2017-01-22T14:23:03+0100</time></trkpt>
1453<trkpt lat="48.464098" lon="18.865744"><ele>808</ele><time>2017-01-22T14:23:07+0100</time></trkpt>
1454<trkpt lat="48.464237" lon="18.865892"><ele>803</ele><time>2017-01-22T14:23:12+0100</time></trkpt>
1455<trkpt lat="48.464310" lon="18.865995"><ele>804</ele><time>2017-01-22T14:23:16+0100</time></trkpt>
1456<trkpt lat="48.464369" lon="18.866152"><ele>806</ele><time>2017-01-22T14:23:24+0100</time></trkpt>
1457<trkpt lat="48.464395" lon="18.866313"><ele>804</ele><time>2017-01-22T14:23:33+0100</time></trkpt>
1458<trkpt lat="48.464441" lon="18.866482"><ele>798</ele><time>2017-01-22T14:23:39+0100</time></trkpt>
1459<trkpt lat="48.464463" lon="18.866656"><ele>798</ele><time>2017-01-22T14:23:43+0100</time></trkpt>
1460<trkpt lat="48.464497" lon="18.866812"><ele>798</ele><time>2017-01-22T14:23:47+0100</time></trkpt>
1461<trkpt lat="48.464470" lon="18.866972"><ele>790</ele><time>2017-01-22T14:23:54+0100</time></trkpt>
1462<trkpt lat="48.464450" lon="18.867144"><ele>794</ele><time>2017-01-22T14:23:58+0100</time></trkpt>
1463<trkpt lat="48.464443" lon="18.867298"><ele>796</ele><time>2017-01-22T14:24:04+0100</time></trkpt>
1464<trkpt lat="48.464430" lon="18.867436"><ele>794</ele><time>2017-01-22T14:24:08+0100</time></trkpt>
1465<trkpt lat="48.464409" lon="18.867576"><ele>793</ele><time>2017-01-22T14:24:13+0100</time></trkpt>
1466<trkpt lat="48.464362" lon="18.867717"><ele>793</ele><time>2017-01-22T14:24:17+0100</time></trkpt>
1467<trkpt lat="48.464373" lon="18.867883"><ele>799</ele><time>2017-01-22T14:24:21+0100</time></trkpt>
1468<trkpt lat="48.464461" lon="18.868035"><ele>804</ele><time>2017-01-22T14:24:27+0100</time></trkpt>
1469<trkpt lat="48.464539" lon="18.868153"><ele>805</ele><time>2017-01-22T14:24:36+0100</time></trkpt>
1470<trkpt lat="48.464595" lon="18.868283"><ele>807</ele><time>2017-01-22T14:24:40+0100</time></trkpt>
1471<trkpt lat="48.464647" lon="18.868452"><ele>806</ele><time>2017-01-22T14:24:46+0100</time></trkpt>
1472<trkpt lat="48.464730" lon="18.868589"><ele>802</ele><time>2017-01-22T14:24:50+0100</time></trkpt>
1473<trkpt lat="48.464797" lon="18.868714"><ele>801</ele><time>2017-01-22T14:24:55+0100</time></trkpt>
1474<trkpt lat="48.464835" lon="18.868872"><ele>800</ele><time>2017-01-22T14:25:01+0100</time></trkpt>
1475<trkpt lat="48.464861" lon="18.869028"><ele>797</ele><time>2017-01-22T14:25:07+0100</time></trkpt>
1476<trkpt lat="48.464916" lon="18.869197"><ele>799</ele><time>2017-01-22T14:25:13+0100</time></trkpt>
1477<trkpt lat="48.464945" lon="18.869363"><ele>797</ele><time>2017-01-22T14:25:20+0100</time></trkpt>
1478<trkpt lat="48.464977" lon="18.869530"><ele>796</ele><time>2017-01-22T14:25:24+0100</time></trkpt>
1479<trkpt lat="48.464956" lon="18.869669"><ele>801</ele><time>2017-01-22T14:25:30+0100</time></trkpt>
1480<trkpt lat="48.465089" lon="18.869711"><ele>806</ele><time>2017-01-22T14:25:45+0100</time></trkpt>
1481<trkpt lat="48.465181" lon="18.869680"><ele>802</ele><time>2017-01-22T14:25:49+0100</time></trkpt>
1482<trkpt lat="48.465296" lon="18.869674"><ele>800</ele><time>2017-01-22T14:25:53+0100</time></trkpt>
1483<trkpt lat="48.465395" lon="18.869588"><ele>804</ele><time>2017-01-22T14:26:00+0100</time></trkpt>
1484<trkpt lat="48.465495" lon="18.869508"><ele>802</ele><time>2017-01-22T14:26:04+0100</time></trkpt>
1485<trkpt lat="48.465560" lon="18.869393"><ele>801</ele><time>2017-01-22T14:26:10+0100</time></trkpt>
1486<trkpt lat="48.465621" lon="18.869280"><ele>803</ele><time>2017-01-22T14:26:16+0100</time></trkpt>
1487<trkpt lat="48.465719" lon="18.869179"><ele>801</ele><time>2017-01-22T14:26:22+0100</time></trkpt>
1488<trkpt lat="48.465796" lon="18.869032"><ele>795</ele><time>2017-01-22T14:26:29+0100</time></trkpt>
1489<trkpt lat="48.465886" lon="18.868873"><ele>790</ele><time>2017-01-22T14:26:35+0100</time></trkpt>
1490<trkpt lat="48.465950" lon="18.868726"><ele>789</ele><time>2017-01-22T14:26:39+0100</time></trkpt>
1491<trkpt lat="48.466017" lon="18.868604"><ele>791</ele><time>2017-01-22T14:26:45+0100</time></trkpt>
1492<trkpt lat="48.466119" lon="18.868505"><ele>793</ele><time>2017-01-22T14:26:52+0100</time></trkpt>
1493<trkpt lat="48.466211" lon="18.868394"><ele>795</ele><time>2017-01-22T14:26:56+0100</time></trkpt>
1494<trkpt lat="48.466290" lon="18.868253"><ele>795</ele><time>2017-01-22T14:27:00+0100</time></trkpt>
1495<trkpt lat="48.466366" lon="18.868084"><ele>797</ele><time>2017-01-22T14:27:04+0100</time></trkpt>
1496<trkpt lat="48.466456" lon="18.867975"><ele>799</ele><time>2017-01-22T14:27:09+0100</time></trkpt>
1497<trkpt lat="48.466570" lon="18.867945"><ele>801</ele><time>2017-01-22T14:27:15+0100</time></trkpt>
1498<trkpt lat="48.466665" lon="18.868011"><ele>799</ele><time>2017-01-22T14:27:21+0100</time></trkpt>
1499<trkpt lat="48.466760" lon="18.868103"><ele>800</ele><time>2017-01-22T14:27:27+0100</time></trkpt>
1500<trkpt lat="48.466835" lon="18.868202"><ele>803</ele><time>2017-01-22T14:27:32+0100</time></trkpt>
1501<trkpt lat="48.466904" lon="18.868328"><ele>805</ele><time>2017-01-22T14:27:38+0100</time></trkpt>
1502<trkpt lat="48.466974" lon="18.868434"><ele>807</ele><time>2017-01-22T14:27:42+0100</time></trkpt>
1503<trkpt lat="48.467046" lon="18.868532"><ele>806</ele><time>2017-01-22T14:27:46+0100</time></trkpt>
1504<trkpt lat="48.467126" lon="18.868636"><ele>805</ele><time>2017-01-22T14:27:51+0100</time></trkpt>
1505<trkpt lat="48.467233" lon="18.868782"><ele>803</ele><time>2017-01-22T14:27:55+0100</time></trkpt>
1506<trkpt lat="48.467304" lon="18.868901"><ele>799</ele><time>2017-01-22T14:27:59+0100</time></trkpt>
1507<trkpt lat="48.467361" lon="18.869023"><ele>800</ele><time>2017-01-22T14:28:03+0100</time></trkpt>
1508<trkpt lat="48.467432" lon="18.869153"><ele>800</ele><time>2017-01-22T14:28:09+0100</time></trkpt>
1509<trkpt lat="48.467485" lon="18.869294"><ele>799</ele><time>2017-01-22T14:28:14+0100</time></trkpt>
1510<trkpt lat="48.467525" lon="18.869434"><ele>800</ele><time>2017-01-22T14:28:18+0100</time></trkpt>
1511<trkpt lat="48.467567" lon="18.869583"><ele>801</ele><time>2017-01-22T14:28:24+0100</time></trkpt>
1512<trkpt lat="48.467599" lon="18.869755"><ele>799</ele><time>2017-01-22T14:28:28+0100</time></trkpt>
1513<trkpt lat="48.467641" lon="18.869884"><ele>799</ele><time>2017-01-22T14:28:32+0100</time></trkpt>
1514<trkpt lat="48.467698" lon="18.870006"><ele>803</ele><time>2017-01-22T14:28:36+0100</time></trkpt>
1515<trkpt lat="48.467751" lon="18.870140"><ele>803</ele><time>2017-01-22T14:28:41+0100</time></trkpt>
1516<trkpt lat="48.467802" lon="18.870288"><ele>800</ele><time>2017-01-22T14:28:45+0100</time></trkpt>
1517<trkpt lat="48.467852" lon="18.870425"><ele>798</ele><time>2017-01-22T14:28:49+0100</time></trkpt>
1518<trkpt lat="48.467904" lon="18.870564"><ele>800</ele><time>2017-01-22T14:28:53+0100</time></trkpt>
1519<trkpt lat="48.467961" lon="18.870692"><ele>800</ele><time>2017-01-22T14:28:57+0100</time></trkpt>
1520<trkpt lat="48.468026" lon="18.870804"><ele>800</ele><time>2017-01-22T14:29:01+0100</time></trkpt>
1521<trkpt lat="48.468081" lon="18.870917"><ele>801</ele><time>2017-01-22T14:29:05+0100</time></trkpt>
1522<trkpt lat="48.468126" lon="18.871077"><ele>806</ele><time>2017-01-22T14:29:12+0100</time></trkpt>
1523<trkpt lat="48.468177" lon="18.871213"><ele>806</ele><time>2017-01-22T14:29:18+0100</time></trkpt>
1524<trkpt lat="48.468222" lon="18.871366"><ele>806</ele><time>2017-01-22T14:29:24+0100</time></trkpt>
1525<trkpt lat="48.468257" lon="18.871572"><ele>802</ele><time>2017-01-22T14:29:28+0100</time></trkpt>
1526<trkpt lat="48.468260" lon="18.871754"><ele>797</ele><time>2017-01-22T14:29:33+0100</time></trkpt>
1527<trkpt lat="48.468245" lon="18.871947"><ele>796</ele><time>2017-01-22T14:29:43+0100</time></trkpt>
1528<trkpt lat="48.468285" lon="18.872099"><ele>797</ele><time>2017-01-22T14:29:47+0100</time></trkpt>
1529<trkpt lat="48.468312" lon="18.872247"><ele>794</ele><time>2017-01-22T14:29:54+0100</time></trkpt>
1530<trkpt lat="48.468305" lon="18.872408"><ele>792</ele><time>2017-01-22T14:30:00+0100</time></trkpt>
1531<trkpt lat="48.468328" lon="18.872577"><ele>796</ele><time>2017-01-22T14:30:06+0100</time></trkpt>
1532<trkpt lat="48.468327" lon="18.872747"><ele>799</ele><time>2017-01-22T14:30:12+0100</time></trkpt>
1533<trkpt lat="48.468314" lon="18.872896"><ele>799</ele><time>2017-01-22T14:30:17+0100</time></trkpt>
1534<trkpt lat="48.468288" lon="18.873060"><ele>797</ele><time>2017-01-22T14:30:25+0100</time></trkpt>
1535<trkpt lat="48.468248" lon="18.873205"><ele>798</ele><time>2017-01-22T14:30:33+0100</time></trkpt>
1536<trkpt lat="48.468212" lon="18.873358"><ele>799</ele><time>2017-01-22T14:30:40+0100</time></trkpt>
1537<trkpt lat="48.468234" lon="18.873522"><ele>798</ele><time>2017-01-22T14:30:44+0100</time></trkpt>
1538<trkpt lat="48.468207" lon="18.873679"><ele>792</ele><time>2017-01-22T14:30:50+0100</time></trkpt>
1539<trkpt lat="48.468203" lon="18.873820"><ele>794</ele><time>2017-01-22T14:30:54+0100</time></trkpt>
1540<trkpt lat="48.468148" lon="18.874019"><ele>792</ele><time>2017-01-22T14:30:59+0100</time></trkpt>
1541<trkpt lat="48.468090" lon="18.874144"><ele>795</ele><time>2017-01-22T14:31:05+0100</time></trkpt>
1542<trkpt lat="48.468019" lon="18.874235"><ele>793</ele><time>2017-01-22T14:31:09+0100</time></trkpt>
1543<trkpt lat="48.467988" lon="18.874375"><ele>796</ele><time>2017-01-22T14:31:15+0100</time></trkpt>
1544<trkpt lat="48.468065" lon="18.874474"><ele>793</ele><time>2017-01-22T14:31:28+0100</time></trkpt>
1545<trkpt lat="48.468160" lon="18.874517"><ele>796</ele><time>2017-01-22T14:31:41+0100</time></trkpt>
1546<trkpt lat="48.468295" lon="18.874524"><ele>798</ele><time>2017-01-22T14:32:00+0100</time></trkpt>
1547<trkpt lat="48.468402" lon="18.874501"><ele>794</ele><time>2017-01-22T14:32:08+0100</time></trkpt>
1548<trkpt lat="48.468509" lon="18.874476"><ele>794</ele><time>2017-01-22T14:32:12+0100</time></trkpt>
1549<trkpt lat="48.468613" lon="18.874426"><ele>794</ele><time>2017-01-22T14:32:16+0100</time></trkpt>
1550<trkpt lat="48.468726" lon="18.874387"><ele>797</ele><time>2017-01-22T14:32:23+0100</time></trkpt>
1551<trkpt lat="48.468811" lon="18.874342"><ele>802</ele><time>2017-01-22T14:32:31+0100</time></trkpt>
1552<trkpt lat="48.468911" lon="18.874237"><ele>803</ele><time>2017-01-22T14:32:37+0100</time></trkpt>
1553<trkpt lat="48.469006" lon="18.874239"><ele>799</ele><time>2017-01-22T14:32:42+0100</time></trkpt>
1554<trkpt lat="48.469114" lon="18.874264"><ele>802</ele><time>2017-01-22T14:32:46+0100</time></trkpt>
1555<trkpt lat="48.469240" lon="18.874269"><ele>794</ele><time>2017-01-22T14:32:50+0100</time></trkpt>
1556<trkpt lat="48.469339" lon="18.874279"><ele>795</ele><time>2017-01-22T14:32:54+0100</time></trkpt>
1557<trkpt lat="48.469427" lon="18.874352"><ele>794</ele><time>2017-01-22T14:32:58+0100</time></trkpt>
1558<trkpt lat="48.469549" lon="18.874495"><ele>789</ele><time>2017-01-22T14:33:03+0100</time></trkpt>
1559<trkpt lat="48.469631" lon="18.874607"><ele>788</ele><time>2017-01-22T14:33:11+0100</time></trkpt>
1560<trkpt lat="48.469692" lon="18.874764"><ele>793</ele><time>2017-01-22T14:33:17+0100</time></trkpt>
1561<trkpt lat="48.469707" lon="18.874915"><ele>793</ele><time>2017-01-22T14:33:26+0100</time></trkpt>
1562<trkpt lat="48.469667" lon="18.875076"><ele>796</ele><time>2017-01-22T14:33:30+0100</time></trkpt>
1563<trkpt lat="48.469648" lon="18.875223"><ele>796</ele><time>2017-01-22T14:33:40+0100</time></trkpt>
1564<trkpt lat="48.469589" lon="18.875361"><ele>793</ele><time>2017-01-22T14:33:51+0100</time></trkpt>
1565<trkpt lat="48.469509" lon="18.875448"><ele>794</ele><time>2017-01-22T14:33:57+0100</time></trkpt>
1566<trkpt lat="48.469409" lon="18.875503"><ele>797</ele><time>2017-01-22T14:34:05+0100</time></trkpt>
1567<trkpt lat="48.469330" lon="18.875587"><ele>798</ele><time>2017-01-22T14:34:09+0100</time></trkpt>
1568<trkpt lat="48.469268" lon="18.875752"><ele>800</ele><time>2017-01-22T14:34:16+0100</time></trkpt>
1569<trkpt lat="48.469250" lon="18.875891"><ele>797</ele><time>2017-01-22T14:34:20+0100</time></trkpt>
1570<trkpt lat="48.469208" lon="18.876042"><ele>798</ele><time>2017-01-22T14:34:24+0100</time></trkpt>
1571<trkpt lat="48.469145" lon="18.876180"><ele>794</ele><time>2017-01-22T14:34:30+0100</time></trkpt>
1572<trkpt lat="48.469058" lon="18.876326"><ele>796</ele><time>2017-01-22T14:34:35+0100</time></trkpt>
1573<trkpt lat="48.468983" lon="18.876478"><ele>802</ele><time>2017-01-22T14:34:37+0100</time></trkpt>
1574<trkpt lat="48.468920" lon="18.876623"><ele>803</ele><time>2017-01-22T14:34:41+0100</time></trkpt>
1575<trkpt lat="48.468888" lon="18.876775"><ele>805</ele><time>2017-01-22T14:34:47+0100</time></trkpt>
1576<trkpt lat="48.468849" lon="18.876903"><ele>796</ele><time>2017-01-22T14:34:52+0100</time></trkpt>
1577<trkpt lat="48.468859" lon="18.877056"><ele>793</ele><time>2017-01-22T14:34:56+0100</time></trkpt>
1578<trkpt lat="48.468850" lon="18.877208"><ele>796</ele><time>2017-01-22T14:35:00+0100</time></trkpt>
1579<trkpt lat="48.468849" lon="18.877350"><ele>796</ele><time>2017-01-22T14:35:04+0100</time></trkpt>
1580<trkpt lat="48.468862" lon="18.877541"><ele>792</ele><time>2017-01-22T14:35:10+0100</time></trkpt>
1581<trkpt lat="48.468901" lon="18.877692"><ele>791</ele><time>2017-01-22T14:35:15+0100</time></trkpt>
1582<trkpt lat="48.468921" lon="18.877907"><ele>792</ele><time>2017-01-22T14:35:19+0100</time></trkpt>
1583<trkpt lat="48.468944" lon="18.878058"><ele>790</ele><time>2017-01-22T14:35:23+0100</time></trkpt>
1584<trkpt lat="48.468950" lon="18.878195"><ele>790</ele><time>2017-01-22T14:35:29+0100</time></trkpt>
1585<trkpt lat="48.468916" lon="18.878351"><ele>797</ele><time>2017-01-22T14:35:38+0100</time></trkpt>
1586<trkpt lat="48.468900" lon="18.878536"><ele>801</ele><time>2017-01-22T14:35:42+0100</time></trkpt>
1587<trkpt lat="48.468899" lon="18.878701"><ele>800</ele><time>2017-01-22T14:35:46+0100</time></trkpt>
1588<trkpt lat="48.468881" lon="18.878867"><ele>796</ele><time>2017-01-22T14:35:52+0100</time></trkpt>
1589<trkpt lat="48.468872" lon="18.879031"><ele>797</ele><time>2017-01-22T14:35:56+0100</time></trkpt>
1590<trkpt lat="48.468852" lon="18.879212"><ele>792</ele><time>2017-01-22T14:36:03+0100</time></trkpt>
1591<trkpt lat="48.468813" lon="18.879365"><ele>789</ele><time>2017-01-22T14:36:07+0100</time></trkpt>
1592<trkpt lat="48.468796" lon="18.879514"><ele>790</ele><time>2017-01-22T14:36:11+0100</time></trkpt>
1593<trkpt lat="48.468798" lon="18.879671"><ele>791</ele><time>2017-01-22T14:36:15+0100</time></trkpt>
1594<trkpt lat="48.468775" lon="18.879824"><ele>797</ele><time>2017-01-22T14:36:19+0100</time></trkpt>
1595<trkpt lat="48.468766" lon="18.879987"><ele>798</ele><time>2017-01-22T14:36:26+0100</time></trkpt>
1596<trkpt lat="48.468750" lon="18.880146"><ele>799</ele><time>2017-01-22T14:36:30+0100</time></trkpt>
1597<trkpt lat="48.468717" lon="18.880311"><ele>794</ele><time>2017-01-22T14:36:34+0100</time></trkpt>
1598<trkpt lat="48.468626" lon="18.880413"><ele>787</ele><time>2017-01-22T14:36:38+0100</time></trkpt>
1599<trkpt lat="48.468559" lon="18.880537"><ele>784</ele><time>2017-01-22T14:36:44+0100</time></trkpt>
1600<trkpt lat="48.468596" lon="18.880686"><ele>783</ele><time>2017-01-22T14:36:53+0100</time></trkpt>
1601<trkpt lat="48.468604" lon="18.880855"><ele>796</ele><time>2017-01-22T14:37:09+0100</time></trkpt>
1602<trkpt lat="48.468630" lon="18.881013"><ele>792</ele><time>2017-01-22T14:37:13+0100</time></trkpt>
1603<trkpt lat="48.468648" lon="18.881194"><ele>787</ele><time>2017-01-22T14:37:20+0100</time></trkpt>
1604<trkpt lat="48.468644" lon="18.881378"><ele>784</ele><time>2017-01-22T14:37:24+0100</time></trkpt>
1605<trkpt lat="48.468644" lon="18.881526"><ele>788</ele><time>2017-01-22T14:37:32+0100</time></trkpt>
1606<trkpt lat="48.468632" lon="18.881684"><ele>790</ele><time>2017-01-22T14:37:39+0100</time></trkpt>
1607<trkpt lat="48.468629" lon="18.881835"><ele>790</ele><time>2017-01-22T14:37:45+0100</time></trkpt>
1608<trkpt lat="48.468683" lon="18.881980"><ele>787</ele><time>2017-01-22T14:37:49+0100</time></trkpt>
1609<trkpt lat="48.468746" lon="18.882130"><ele>785</ele><time>2017-01-22T14:37:55+0100</time></trkpt>
1610<trkpt lat="48.468798" lon="18.882259"><ele>785</ele><time>2017-01-22T14:38:00+0100</time></trkpt>
1611<trkpt lat="48.468756" lon="18.882402"><ele>790</ele><time>2017-01-22T14:38:21+0100</time></trkpt>
1612<trkpt lat="48.468767" lon="18.882545"><ele>783</ele><time>2017-01-22T14:38:27+0100</time></trkpt>
1613</trkseg>
1614</trk>
1615</gpx>
Note: See TracBrowser for help on using the repository browser.